Darstellungsparameter: Aktuell verwendete Einstellungen:
Skalierung der Graphiken ... ?
xyx+y,   Skalierungsfaktor:      Skalierung: Modus: x, Faktor: 1
Darstellungszeitraum ... ?
Vom - - bis: - -   Zeitraum: 28.07.2008 - 27.10.2008
Min/Max/Avg-Anzeige ... ?
Zeige MMA aktuell
Zeige MMA Monat
Zeige MMA alles
Zeige --A aktuell
Zeige --A Monat
Zeige --A alles
Keine MMA-Anzeige
MMA:
Average (ber die Originaldaten)
MMA-Basis: 17.04.2019 - 19.05.2019
Quicknavigation für Darstellung... ?
Tage:      1T, 2T, 3T, 5T -1T -2T -3T -5T +1T +2T +3T +5T
Wochen: 1W, 2W, 3W -1W -2W -3W +1W +2W +3W
Monate: 1M, 3M, 6M -1M -3M -6M +1M +3M +6M
Jahre:    1J, 3J, 5J, 10J -1J -3J -5J -10J +1J +3J +5J +10J
Nutze für die Darstellung ... ?
Originaldaten oder Mittelwerte auf ...
Stundenbasis Tagesbasis Wochenbasis
Monatsbasis Jahresbasis      Datenbasis: Original-Daten
Darstellen als:
Statistik (Auto) Statistik J:M      Darstellung:
Zur Graphik,    zurück zur Übersicht aller Sensoren.
 
Tabellarische Datenbersicht: ?
 
Sensor: Nr:Datum:Temp:Abs-Feuchte:Windchill:Wind:
Aussen-T/F 1 28-07-2008 00:05:33 20.3 C 13.54 g/m*3 20.3 C 0 km/h
2 28-07-2008 00:35:33 20 C 13.48 g/m*3 20 C 0 km/h
3 28-07-2008 01:05:34 19.5 C 13.26 g/m*3 19.5 C 0 km/h
4 28-07-2008 01:35:34 19.2 C 13.19 g/m*3 19.2 C 0 km/h
5 28-07-2008 02:05:34 19.1 C 13.28 g/m*3 19.1 C 0 km/h
6 28-07-2008 02:35:34 19.2 C 13.36 g/m*3 19.2 C 0 km/h
7 28-07-2008 03:05:34 19.2 C 13.36 g/m*3 19.2 C 0 km/h
8 28-07-2008 03:35:34 18.9 C 13.61 g/m*3 18.9 C 0 km/h
9 28-07-2008 04:05:34 18.6 C 13.37 g/m*3 18.6 C 0 km/h
10 28-07-2008 04:35:34 18.6 C 13.37 g/m*3 18.6 C 0 km/h
11 28-07-2008 05:05:34 18.3 C 13.29 g/m*3 18.3 C 0 km/h
12 28-07-2008 05:35:34 18.1 C 13.13 g/m*3 18.1 C 0 km/h
13 28-07-2008 06:05:34 18 C 13.06 g/m*3 18 C 0 km/h
14 28-07-2008 06:35:34 18.2 C 13.21 g/m*3 18.2 C 0 km/h
15 28-07-2008 07:05:34 18.5 C 13.45 g/m*3 18.5 C 0 km/h
16 28-07-2008 07:35:34 18.9 C 13.77 g/m*3 18.9 C 0 km/h
17 28-07-2008 08:05:34 19.4 C 13.85 g/m*3 19.4 C 0 km/h
18 28-07-2008 08:35:34 19.8 C 13.84 g/m*3 19.8 C 0 km/h
19 28-07-2008 09:05:34 20.9 C 14.21 g/m*3 20.9 C 0 km/h
20 28-07-2008 09:35:34 22.4 C 13.7 g/m*3 22.4 C 0 km/h
21 28-07-2008 10:05:34 23.5 C 13.75 g/m*3 23.5 C 0 km/h
22 28-07-2008 10:35:35 26 C 12.42 g/m*3 26 C 0 km/h
23 28-07-2008 11:05:35 26.6 C 12.59 g/m*3 26.6 C 0 km/h
24 28-07-2008 11:35:35 27.9 C 12.17 g/m*3 27.9 C 0 km/h
25 28-07-2008 12:05:35 28.7 C 11.59 g/m*3 28.7 C 0 km/h
Sensor: Nr:Datum:Temp:Abs-Feuchte:Windchill:Wind:
Aussen-T/F 26 28-07-2008 12:35:35 30.6 C 10.65 g/m*3 30.6 C 0 km/h
27 28-07-2008 13:05:35 31.5 C 9.86 g/m*3 31.5 C 0 km/h
28 28-07-2008 13:35:35 32.1 C 9.16 g/m*3 32.1 C 0 km/h
29 28-07-2008 14:05:35 32.1 C 8.82 g/m*3 32.1 C 0 km/h
30 28-07-2008 14:35:35 31.9 C 8.39 g/m*3 31.9 C 0 km/h
31 28-07-2008 15:05:35 32.6 C 7.67 g/m*3 32.6 C 0 km/h
32 28-07-2008 15:35:35 32.3 C 6.86 g/m*3 32.3 C 0 km/h
33 28-07-2008 16:05:35 33.1 C 7.16 g/m*3 33.1 C 0 km/h
34 28-07-2008 16:35:35 32.6 C 6.97 g/m*3 32.6 C 0 km/h
35 28-07-2008 17:05:35 33.2 C 7.2 g/m*3 33.2 C 0 km/h
36 28-07-2008 17:35:35 32.7 C 8.41 g/m*3 32.7 C 0 km/h
37 28-07-2008 18:05:35 32.8 C 7.75 g/m*3 32.8 C 0 km/h
38 28-07-2008 18:35:35 31.5 C 9.2 g/m*3 31.5 C 0 km/h
39 28-07-2008 19:05:35 30.2 C 9.2 g/m*3 30.2 C 0 km/h
40 28-07-2008 19:35:35 30.3 C 9.55 g/m*3 30.3 C 0 km/h
41 28-07-2008 20:05:36 29 C 9.77 g/m*3 29 C 0 km/h
42 28-07-2008 20:35:36 27.8 C 9.68 g/m*3 27.8 C 0 km/h
43 28-07-2008 21:05:36 27 C 9.52 g/m*3 27 C 0 km/h
44 28-07-2008 21:35:36 26.3 C 9.65 g/m*3 26.3 C 0 km/h
45 28-07-2008 22:05:36 25.5 C 9.47 g/m*3 25.5 C 0 km/h
46 28-07-2008 22:35:36 24.8 C 9.79 g/m*3 24.8 C 0 km/h
47 28-07-2008 23:05:36 24.1 C 9.63 g/m*3 24.1 C 0 km/h
48 28-07-2008 23:35:36 23.4 C 9.88 g/m*3 23.4 C 0 km/h
49 29-07-2008 00:05:36 23 C 9.87 g/m*3 23 C 0 km/h
50 29-07-2008 00:35:36 22.5 C 10.39 g/m*3 22.5 C 0 km/h
Sensor: Nr:Datum:Temp:Abs-Feuchte:Windchill:Wind:
Aussen-T/F 51 29-07-2008 01:05:36 22.1 C 10.35 g/m*3 22.1 C 0 km/h
52 29-07-2008 01:35:36 21.6 C 10.43 g/m*3 21.6 C 0 km/h
53 29-07-2008 02:05:36 21.1 C 11.06 g/m*3 21.1 C 0 km/h
54 29-07-2008 02:35:36 20.9 C 10.93 g/m*3 20.9 C 0 km/h
55 29-07-2008 03:05:36 20.4 C 10.97 g/m*3 20.4 C 0 km/h
56 29-07-2008 03:35:36 20.1 C 11.3 g/m*3 20.1 C 0 km/h
57 29-07-2008 04:05:36 19.8 C 11.44 g/m*3 19.8 C 0 km/h
58 29-07-2008 04:35:36 19.4 C 11.68 g/m*3 19.4 C 0 km/h
59 29-07-2008 05:05:36 19.2 C 11.87 g/m*3 19.2 C 0 km/h
60 29-07-2008 05:35:37 19 C 11.57 g/m*3 19 C 0 km/h
61 29-07-2008 06:05:37 19 C 11.73 g/m*3 19 C 0 km/h
62 29-07-2008 06:35:37 19 C 11.9 g/m*3 19 C 0 km/h
63 29-07-2008 07:05:37 19.2 C 12.04 g/m*3 19.2 C 0 km/h
64 29-07-2008 07:35:37 19.1 C 12.13 g/m*3 19.1 C 0 km/h
65 29-07-2008 08:05:37 19.4 C 12.35 g/m*3 19.4 C 0 km/h
66 29-07-2008 08:35:37 20.2 C 12.24 g/m*3 20.2 C 0 km/h
67 29-07-2008 09:05:37 22 C 12.23 g/m*3 22 C 0 km/h
68 29-07-2008 09:35:37 23.5 C 11.84 g/m*3 23.5 C 0 km/h
69 29-07-2008 10:05:37 24.6 C 11.7 g/m*3 24.6 C 0 km/h
70 29-07-2008 10:35:37 27 C 11.58 g/m*3 27 C 0 km/h
71 29-07-2008 11:05:37 27.8 C 12.1 g/m*3 27.8 C 0 km/h
72 29-07-2008 11:35:37 24.8 C 11.84 g/m*3 24.8 C 0 km/h
73 29-07-2008 12:05:37 20.4 C 13.98 g/m*3 20.4 C 0 km/h
74 29-07-2008 12:35:37 20.3 C 14.95 g/m*3 20.3 C 0 km/h
75 29-07-2008 13:05:37 21.4 C 15.37 g/m*3 21.4 C 0 km/h
Sensor: Nr:Datum:Temp:Abs-Feuchte:Windchill:Wind:
Aussen-T/F 76 29-07-2008 13:35:37 24.6 C 16.21 g/m*3 24.6 C 0 km/h
77 29-07-2008 14:05:37 26.8 C 14 g/m*3 26.8 C 0 km/h
78 29-07-2008 14:35:37 27.7 C 13.11 g/m*3 27.7 C 0 km/h
79 29-07-2008 15:05:38 29.8 C 12 g/m*3 29.8 C 0 km/h
80 29-07-2008 15:35:38 30.7 C 11.02 g/m*3 30.7 C 0 km/h
81 29-07-2008 16:05:38 31.4 C 10.46 g/m*3 31.4 C 0 km/h
82 29-07-2008 16:35:38 32 C 10.13 g/m*3 32 C 0 km/h
83 29-07-2008 17:05:38 32.1 C 9.5 g/m*3 32.1 C 0 km/h
84 29-07-2008 17:35:38 31.8 C 10.02 g/m*3 31.8 C 0 km/h
85 29-07-2008 18:05:38 31.5 C 10.19 g/m*3 31.5 C 0 km/h
86 29-07-2008 18:35:38 31.9 C 9.07 g/m*3 31.9 C 0 km/h
87 29-07-2008 19:05:38 31.7 C 9.3 g/m*3 31.7 C 0 km/h
88 29-07-2008 19:35:38 30.3 C 10.79 g/m*3 30.3 C 0 km/h
89 29-07-2008 20:05:38 31.3 C 10.73 g/m*3 31.3 C 0 km/h
90 29-07-2008 20:35:38 30.2 C 9.81 g/m*3 30.2 C 0 km/h
91 29-07-2008 21:05:38 26.9 C 10.49 g/m*3 26.9 C 0 km/h
92 29-07-2008 21:35:38 25.1 C 10.65 g/m*3 25.1 C 0 km/h
93 29-07-2008 22:05:38 24.4 C 11.57 g/m*3 24.4 C 0 km/h
94 29-07-2008 22:35:38 23.5 C 11.42 g/m*3 23.5 C 0 km/h
95 29-07-2008 23:05:38 23.1 C 11.78 g/m*3 23.1 C 0 km/h
96 29-07-2008 23:35:38 22.3 C 11.65 g/m*3 22.3 C 0 km/h
97 30-07-2008 00:05:38 21.7 C 12.21 g/m*3 21.7 C 0 km/h
98 30-07-2008 00:35:38 21.1 C 12.53 g/m*3 21.1 C 0 km/h
99 30-07-2008 01:05:39 20.7 C 12.78 g/m*3 20.7 C 0 km/h
100 30-07-2008 01:35:39 20.6 C 12.71 g/m*3 20.6 C 0 km/h
Sensor: Nr:Datum:Temp:Abs-Feuchte:Windchill:Wind:
Aussen-T/F 101 30-07-2008 02:05:39 20.3 C 12.49 g/m*3 20.3 C 0 km/h
102 30-07-2008 02:35:39 19.9 C 12.54 g/m*3 19.9 C 0 km/h
103 30-07-2008 03:05:39 19.5 C 12.42 g/m*3 19.5 C 0 km/h
104 30-07-2008 03:35:39 19 C 12.55 g/m*3 19 C 0 km/h
105 30-07-2008 04:05:39 18.9 C 12.47 g/m*3 18.9 C 0 km/h
106 30-07-2008 04:35:39 18.7 C 12.49 g/m*3 18.7 C 0 km/h
107 30-07-2008 05:05:39 18.3 C 12.51 g/m*3 18.3 C 0 km/h
108 30-07-2008 05:35:39 18.1 C 12.36 g/m*3 18.1 C 0 km/h
109 30-07-2008 06:05:39 17.9 C 12.37 g/m*3 17.9 C 0 km/h
110 30-07-2008 06:35:39 17.8 C 12.45 g/m*3 17.8 C 0 km/h
111 30-07-2008 07:05:39 17.8 C 12.45 g/m*3 17.8 C 0 km/h
112 30-07-2008 07:35:39 17.8 C 12.45 g/m*3 17.8 C 0 km/h
113 30-07-2008 08:05:39 19 C 12.71 g/m*3 19 C 0 km/h
114 30-07-2008 08:35:39 19.9 C 12.54 g/m*3 19.9 C 0 km/h
115 30-07-2008 09:05:39 20.7 C 12.6 g/m*3 20.7 C 0 km/h
116 30-07-2008 09:35:39 22 C 12.81 g/m*3 22 C 0 km/h
117 30-07-2008 10:05:39 22.7 C 12.93 g/m*3 22.7 C 0 km/h
118 30-07-2008 10:35:40 24.8 C 12.97 g/m*3 24.8 C 0 km/h
119 30-07-2008 11:05:40 26.1 C 12.49 g/m*3 26.1 C 0 km/h
120 30-07-2008 11:35:40 26.8 C 12.22 g/m*3 26.8 C 0 km/h
121 30-07-2008 12:05:40 27.5 C 12.43 g/m*3 27.5 C 0 km/h
122 30-07-2008 12:35:40 29.3 C 11.97 g/m*3 29.3 C 0 km/h
123 30-07-2008 13:05:40 29.6 C 11.87 g/m*3 29.6 C 0 km/h
124 30-07-2008 13:35:40 30 C 10.92 g/m*3 30 C 0 km/h
125 30-07-2008 14:05:40 29.8 C 11.4 g/m*3 29.8 C 0 km/h
Sensor: Nr:Datum:Temp:Abs-Feuchte:Windchill:Wind:
Aussen-T/F 126 30-07-2008 14:35:40 31.7 C 10.3 g/m*3 31.7 C 0 km/h
127 30-07-2008 15:05:40 32.7 C 9.11 g/m*3 32.7 C 0 km/h
128 30-07-2008 15:35:40 32 C 9.45 g/m*3 32 C 0 km/h
129 30-07-2008 16:05:40 31.8 C 10.02 g/m*3 31.8 C 0 km/h
130 30-07-2008 16:35:40 33.2 C 8.63 g/m*3 33.2 C 0 km/h
131 30-07-2008 17:05:40 33.3 C 7.96 g/m*3 33.3 C 0 km/h
132 30-07-2008 17:35:40 33.6 C 8.08 g/m*3 33.6 C 0 km/h
133 30-07-2008 18:05:40 34 C 7.5 g/m*3 34 C 0 km/h
134 30-07-2008 18:35:40 24.5 C 5.82 g/m*3 24.5 C 0 km/h
135 30-07-2008 19:05:40 21.2 C 4.82 g/m*3 21.2 C 0 km/h
136 30-07-2008 19:35:40 22.4 C 6.16 g/m*3 22.4 C 0 km/h
137 30-07-2008 20:05:41 24.6 C 18.01 g/m*3 24.6 C 0 km/h
138 30-07-2008 20:35:41 23 C 15.42 g/m*3 23 C 0 km/h
139 30-07-2008 21:05:41 22.1 C 13.66 g/m*3 22.1 C 0 km/h
140 30-07-2008 21:35:41 20.1 C 14.78 g/m*3 20.1 C 0 km/h
141 30-07-2008 22:05:41 20.1 C 15.12 g/m*3 20.1 C 0 km/h
142 30-07-2008 22:35:41 20.1 C 15.12 g/m*3 20.1 C 0 km/h
143 30-07-2008 23:05:41 20 C 14.86 g/m*3 20 C 0 km/h
144 30-07-2008 23:35:41 19.6 C 14.69 g/m*3 19.6 C 0 km/h
145 31-07-2008 00:05:41 19.1 C 13.93 g/m*3 19.1 C 0 km/h
146 31-07-2008 00:35:41 18.7 C 13.77 g/m*3 18.7 C 0 km/h
147 31-07-2008 01:05:41 18.5 C 13.61 g/m*3 18.5 C 0 km/h
148 31-07-2008 01:35:41 18.4 C 13.53 g/m*3 18.4 C 0 km/h
149 31-07-2008 02:05:41 18.1 C 13.44 g/m*3 18.1 C 0 km/h
150 31-07-2008 02:35:41 17.9 C 13.44 g/m*3 17.9 C 0 km/h
Sensor: Nr:Datum:Temp:Abs-Feuchte:Windchill:Wind:
Aussen-T/F 151 31-07-2008 03:05:41 17.6 C 13.2 g/m*3 17.6 C 0 km/h
152 31-07-2008 03:35:41 17.4 C 13.04 g/m*3 17.4 C 0 km/h
153 31-07-2008 04:05:41 17.1 C 12.96 g/m*3 17.1 C 0 km/h
154 31-07-2008 04:35:41 17.2 C 13.18 g/m*3 17.2 C 0 km/h
155 31-07-2008 05:05:41 17.2 C 13.03 g/m*3 17.2 C 0 km/h
156 31-07-2008 05:35:42 17.4 C 13.19 g/m*3 17.4 C 0 km/h
157 31-07-2008 06:05:42 17 C 12.73 g/m*3 17 C 0 km/h
158 31-07-2008 06:35:42 17.5 C 13.12 g/m*3 17.5 C 0 km/h
159 31-07-2008 07:05:42 17.2 C 12.59 g/m*3 17.2 C 0 km/h
160 31-07-2008 07:35:42 17.1 C 12.66 g/m*3 17.1 C 0 km/h
161 31-07-2008 08:05:42 17.9 C 13.28 g/m*3 17.9 C 0 km/h
162 31-07-2008 08:35:42 18.5 C 13.13 g/m*3 18.5 C 0 km/h
163 31-07-2008 09:05:42 18.9 C 12.96 g/m*3 18.9 C 0 km/h
164 31-07-2008 09:35:42 19.7 C 13.75 g/m*3 19.7 C 0 km/h
165 31-07-2008 10:05:42 21 C 14.29 g/m*3 21 C 0 km/h
166 31-07-2008 10:35:42 22.9 C 15.12 g/m*3 22.9 C 0 km/h
167 31-07-2008 11:05:42 24.8 C 13.88 g/m*3 24.8 C 0 km/h
168 31-07-2008 11:35:42 26.6 C 13.84 g/m*3 26.6 C 0 km/h
169 31-07-2008 12:05:42 27.8 C 13.18 g/m*3 27.8 C 0 km/h
170 31-07-2008 12:35:42 29.5 C 12.4 g/m*3 29.5 C 0 km/h
171 31-07-2008 13:05:42 30.7 C 11.34 g/m*3 30.7 C 0 km/h
172 31-07-2008 13:35:42 31.6 C 9.91 g/m*3 31.6 C 0 km/h
173 31-07-2008 14:05:42 31.4 C 9.81 g/m*3 31.4 C 0 km/h
174 31-07-2008 14:35:42 30.8 C 10.76 g/m*3 30.8 C 0 km/h
175 31-07-2008 15:05:43 31.5 C 10.19 g/m*3 31.5 C 0 km/h
Sensor: Nr:Datum:Temp:Abs-Feuchte:Windchill:Wind:
Aussen-T/F 176 31-07-2008 15:35:43 31.5 C 10.52 g/m*3 31.5 C 0 km/h
177 31-07-2008 16:05:43 33.3 C 9.04 g/m*3 33.3 C 0 km/h
178 31-07-2008 16:35:43 33.8 C 8.54 g/m*3 33.8 C 0 km/h
179 31-07-2008 17:05:43 33.7 C 8.49 g/m*3 33.7 C 0 km/h
180 31-07-2008 17:35:43 33.9 C 7.84 g/m*3 33.9 C 0 km/h
181 31-07-2008 18:05:43 34.1 C 8.3 g/m*3 34.1 C 0 km/h
182 31-07-2008 18:35:43 33.8 C 8.91 g/m*3 33.8 C 0 km/h
183 31-07-2008 19:05:43 33.3 C 9.04 g/m*3 33.3 C 0 km/h
184 31-07-2008 19:35:43 32.9 C 9.56 g/m*3 32.9 C 0 km/h
185 31-07-2008 20:05:43 32 C 10.47 g/m*3 32 C 0 km/h
186 31-07-2008 20:35:43 29.7 C 12.23 g/m*3 29.7 C 0 km/h
187 31-07-2008 21:05:43 27.9 C 12.17 g/m*3 27.9 C 0 km/h
188 31-07-2008 21:35:43 26.8 C 12.22 g/m*3 26.8 C 0 km/h
189 31-07-2008 22:05:43 26.1 C 11.75 g/m*3 26.1 C 0 km/h
190 31-07-2008 22:35:43 25.6 C 11.67 g/m*3 25.6 C 0 km/h
191 31-07-2008 23:05:43 25.2 C 11.87 g/m*3 25.2 C 0 km/h
192 31-07-2008 23:35:43 24.9 C 11.9 g/m*3 24.9 C 0 km/h
193 01-08-2008 00:05:43 24.6 C 11.93 g/m*3 24.6 C 0 km/h
194 01-08-2008 00:35:44 24.5 C 12.53 g/m*3 24.5 C 0 km/h
195 01-08-2008 01:05:44 24.8 C 12.29 g/m*3 24.8 C 0 km/h
196 01-08-2008 01:35:44 24.6 C 12.38 g/m*3 24.6 C 0 km/h
197 01-08-2008 02:05:44 24.1 C 12.69 g/m*3 24.1 C 0 km/h
198 01-08-2008 02:35:44 23.8 C 13.34 g/m*3 23.8 C 0 km/h
199 01-08-2008 03:05:44 23.7 C 13.48 g/m*3 23.7 C 0 km/h
200 01-08-2008 03:35:44 23 C 13.57 g/m*3 23 C 0 km/h
Sensor: Nr:Datum:Temp:Abs-Feuchte:Windchill:Wind:
Aussen-T/F 201 01-08-2008 04:05:44 22.8 C 13.61 g/m*3 22.8 C 0 km/h
202 01-08-2008 04:35:44 22.6 C 13.66 g/m*3 22.6 C 0 km/h
203 01-08-2008 05:05:44 22.5 C 13.98 g/m*3 22.5 C 0 km/h
204 01-08-2008 05:35:44 22.1 C 14.05 g/m*3 22.1 C 0 km/h
205 01-08-2008 06:05:44 22.2 C 13.94 g/m*3 22.2 C 0 km/h
206 01-08-2008 06:35:44 22.4 C 13.9 g/m*3 22.4 C 0 km/h
207 01-08-2008 07:05:44 22.7 C 13.54 g/m*3 22.7 C 0 km/h
208 01-08-2008 07:35:44 23.4 C 13.67 g/m*3 23.4 C 0 km/h
209 01-08-2008 08:05:44 23.4 C 13.46 g/m*3 23.4 C 0 km/h
210 01-08-2008 08:35:44 23.7 C 13.69 g/m*3 23.7 C 0 km/h
211 01-08-2008 09:05:44 23.8 C 12.48 g/m*3 23.8 C 0 km/h
212 01-08-2008 09:35:44 24.5 C 12.76 g/m*3 24.5 C 0 km/h
213 01-08-2008 10:05:45 24.9 C 12.36 g/m*3 24.9 C 0 km/h
214 01-08-2008 10:35:45 26.3 C 11.64 g/m*3 26.3 C 0 km/h
215 01-08-2008 11:05:45 27.3 C 11.51 g/m*3 27.3 C 0 km/h
216 01-08-2008 11:35:45 27.7 C 10.7 g/m*3 27.7 C 0 km/h
217 01-08-2008 12:05:45 27.7 C 9.9 g/m*3 27.7 C 0 km/h
218 01-08-2008 12:35:45 28.2 C 8.8 g/m*3 28.2 C 0 km/h
219 01-08-2008 13:05:45 28.2 C 8.52 g/m*3 28.2 C 0 km/h
220 01-08-2008 13:35:45 26.5 C 9.26 g/m*3 26.5 C 0 km/h
221 01-08-2008 14:05:45 26.3 C 9.41 g/m*3 26.3 C 0 km/h
222 01-08-2008 14:35:45 26.1 C 9.55 g/m*3 26.1 C 0 km/h
223 01-08-2008 15:05:45 28.2 C 8.8 g/m*3 28.2 C 0 km/h
224 01-08-2008 15:35:45 29.5 C 8.85 g/m*3 29.5 C 0 km/h
225 01-08-2008 16:05:45 28.2 C 8.8 g/m*3 28.2 C 0 km/h
Sensor: Nr:Datum:Temp:Abs-Feuchte:Windchill:Wind:
Aussen-T/F 226 01-08-2008 16:35:45 29.3 C 8.47 g/m*3 29.3 C 0 km/h
227 01-08-2008 17:05:45 28.4 C 8.34 g/m*3 28.4 C 0 km/h
228 01-08-2008 17:35:45 26.8 C 8.14 g/m*3 26.8 C 0 km/h
229 01-08-2008 18:05:45 26.3 C 7.92 g/m*3 26.3 C 0 km/h
230 01-08-2008 18:35:45 26.4 C 7.97 g/m*3 26.4 C 0 km/h
231 01-08-2008 19:05:45 26.9 C 7.68 g/m*3 26.9 C 0 km/h
232 01-08-2008 19:35:46 27.2 C 7.03 g/m*3 27.2 C 0 km/h
233 01-08-2008 20:05:46 25.6 C 6.43 g/m*3 25.6 C 0 km/h
234 01-08-2008 20:35:46 24.4 C 6.45 g/m*3 24.4 C 0 km/h
235 01-08-2008 21:05:46 23.7 C 7.06 g/m*3 23.7 C 0 km/h
236 01-08-2008 21:35:46 23.1 C 7.44 g/m*3 23.1 C 0 km/h
237 01-08-2008 22:05:46 22.4 C 7.55 g/m*3 22.4 C 0 km/h
238 01-08-2008 22:35:46 22 C 7.96 g/m*3 22 C 0 km/h
239 01-08-2008 23:05:46 21.6 C 8.16 g/m*3 21.6 C 0 km/h
240 01-08-2008 23:35:46 20.6 C 8.59 g/m*3 20.6 C 0 km/h
241 02-08-2008 00:05:46 19.6 C 8.61 g/m*3 19.6 C 0 km/h
242 02-08-2008 00:35:46 19 C 8.8 g/m*3 19 C 0 km/h
243 02-08-2008 01:05:46 18.4 C 9.12 g/m*3 18.4 C 0 km/h
244 02-08-2008 01:35:46 18.1 C 9.27 g/m*3 18.1 C 0 km/h
245 02-08-2008 02:05:46 17.2 C 9.52 g/m*3 17.2 C 0 km/h
246 02-08-2008 02:35:46 16.9 C 9.78 g/m*3 16.9 C 0 km/h
247 02-08-2008 03:05:46 16.6 C 9.75 g/m*3 16.6 C 0 km/h
248 02-08-2008 03:35:46 16.6 C 9.75 g/m*3 16.6 C 0 km/h
249 02-08-2008 04:05:46 16.3 C 9.85 g/m*3 16.3 C 0 km/h
250 02-08-2008 04:35:46 16.6 C 9.89 g/m*3 16.6 C 0 km/h
Sensor: Nr:Datum:Temp:Abs-Feuchte:Windchill:Wind:
Aussen-T/F 251 02-08-2008 05:05:47 16.1 C 9.73 g/m*3 16.1 C 0 km/h
252 02-08-2008 05:35:47 15.7 C 9.9 g/m*3 15.7 C 0 km/h
253 02-08-2008 06:05:47 15.5 C 10.05 g/m*3 15.5 C 0 km/h
254 02-08-2008 06:35:47 16.1 C 10.28 g/m*3 16.1 C 0 km/h
255 02-08-2008 07:05:47 16.6 C 10.45 g/m*3 16.6 C 0 km/h
256 02-08-2008 07:35:47 17.2 C 10.4 g/m*3 17.2 C 0 km/h
257 02-08-2008 08:05:47 18 C 10.29 g/m*3 18 C 0 km/h
258 02-08-2008 08:35:47 18.5 C 10.13 g/m*3 18.5 C 0 km/h
259 02-08-2008 09:05:47 20 C 9.85 g/m*3 20 C 0 km/h
260 02-08-2008 09:35:47 20.4 C 10.26 g/m*3 20.4 C 0 km/h
261 02-08-2008 10:05:47 21.2 C 10.38 g/m*3 21.2 C 0 km/h
262 02-08-2008 10:35:47 22 C 8.93 g/m*3 22 C 0 km/h
263 02-08-2008 11:05:47 22.9 C 8.58 g/m*3 22.9 C 0 km/h
264 02-08-2008 11:35:47 23.6 C 8.08 g/m*3 23.6 C 0 km/h
265 02-08-2008 12:05:47 24.4 C 7.79 g/m*3 24.4 C 0 km/h
266 02-08-2008 12:35:47 25.6 C 7.38 g/m*3 25.6 C 0 km/h
267 02-08-2008 13:05:47 26.9 C 6.91 g/m*3 26.9 C 0 km/h
268 02-08-2008 13:35:47 27 C 6.95 g/m*3 27 C 0 km/h
269 02-08-2008 14:05:47 26.9 C 6.65 g/m*3 26.9 C 0 km/h
270 02-08-2008 14:35:48 26.5 C 7.01 g/m*3 26.5 C 0 km/h
271 02-08-2008 15:05:48 27 C 6.95 g/m*3 27 C 0 km/h
272 02-08-2008 15:35:48 27.3 C 6.8 g/m*3 27.3 C 0 km/h
273 02-08-2008 16:05:48 26.9 C 6.91 g/m*3 26.9 C 0 km/h
274 02-08-2008 16:35:48 23.3 C 9.62 g/m*3 23.3 C 0 km/h
275 02-08-2008 17:05:48 24.6 C 8.55 g/m*3 24.6 C 0 km/h
Sensor: Nr:Datum:Temp:Abs-Feuchte:Windchill:Wind:
Aussen-T/F 276 02-08-2008 17:35:02 24.9 C 8.24 g/m*3 24.9 C 0 km/h
277 02-08-2008 18:05:02 24.7 C 8.15 g/m*3 24.7 C 0 km/h
278 02-08-2008 18:35:02 24.1 C 8.53 g/m*3 24.1 C 0 km/h
279 02-08-2008 19:05:04 24.7 C 8.83 g/m*3 24.7 C 0 km/h
280 02-08-2008 19:35:02 24.1 C 8.1 g/m*3 24.1 C 0 km/h
281 02-08-2008 20:05:02 23.7 C 8.34 g/m*3 23.7 C 0 km/h
282 02-08-2008 20:35:01 22.8 C 8.94 g/m*3 22.8 C 0 km/h
283 02-08-2008 21:05:03 22 C 8.93 g/m*3 22 C 0 km/h
284 02-08-2008 21:35:03 21.8 C 9.4 g/m*3 21.8 C 0 km/h
285 02-08-2008 22:05:04 21.5 C 9.62 g/m*3 21.5 C 0 km/h
286 02-08-2008 22:35:03 21.2 C 10.01 g/m*3 21.2 C 0 km/h
287 02-08-2008 23:05:02 20.7 C 10.26 g/m*3 20.7 C 0 km/h
288 02-08-2008 23:35:02 20.6 C 10.74 g/m*3 20.6 C 0 km/h
289 03-08-2008 00:05:03 20.4 C 11.14 g/m*3 20.4 C 0 km/h
290 03-08-2008 00:35:03 19 C 12.06 g/m*3 19 C 0 km/h
291 03-08-2008 01:05:02 19.2 C 12.2 g/m*3 19.2 C 0 km/h
292 03-08-2008 01:35:03 19.6 C 11.99 g/m*3 19.6 C 0 km/h
293 03-08-2008 02:05:02 18.4 C 13.05 g/m*3 18.4 C 0 km/h
294 03-08-2008 02:35:03 18.4 C 13.68 g/m*3 18.4 C 0 km/h
295 03-08-2008 03:06:03 18.2 C 13.68 g/m*3 18.2 C 0 km/h
296 03-08-2008 03:36:02 18.2 C 13.68 g/m*3 18.2 C 0 km/h
297 03-08-2008 04:06:02 17.7 C 12.98 g/m*3 17.7 C 0 km/h
298 03-08-2008 04:36:02 17.6 C 13.05 g/m*3 17.6 C 0 km/h
299 03-08-2008 05:06:01 17.3 C 12.96 g/m*3 17.3 C 0 km/h
300 03-08-2008 05:36:01 17.5 C 13.27 g/m*3 17.5 C 0 km/h
Sensor: Nr:Datum:Temp:Abs-Feuchte:Windchill:Wind:
Aussen-T/F 301 03-08-2008 06:06:03 17.5 C 13.27 g/m*3 17.5 C 0 km/h
302 03-08-2008 06:36:03 17.5 C 13.27 g/m*3 17.5 C 0 km/h
303 03-08-2008 07:06:02 17.7 C 12.82 g/m*3 17.7 C 0 km/h
304 03-08-2008 07:36:02 17.8 C 11.99 g/m*3 17.8 C 0 km/h
305 03-08-2008 08:06:02 17.9 C 10.84 g/m*3 17.9 C 0 km/h
306 03-08-2008 08:36:02 18.3 C 10.79 g/m*3 18.3 C 0 km/h
307 03-08-2008 09:06:02 19 C 10.1 g/m*3 19 C 0 km/h
308 03-08-2008 09:36:02 19.5 C 10.41 g/m*3 19.5 C 0 km/h
309 03-08-2008 10:06:02 20.1 C 9.91 g/m*3 20.1 C 0 km/h
310 03-08-2008 10:36:02 21.1 C 9.95 g/m*3 21.1 C 0 km/h
311 03-08-2008 11:06:01 22 C 9.7 g/m*3 22 C 0 km/h
312 03-08-2008 11:36:01 23.6 C 9.57 g/m*3 23.6 C 0 km/h
313 03-08-2008 12:00:01 22.6 C 9.24 g/m*3 22.6 C 0 km/h
314 03-08-2008 12:12:02 22.6 C 9.04 g/m*3 22.6 C 0 km/h
315 03-08-2008 12:24:01 22.5 C 8.99 g/m*3 22.5 C 0 km/h
316 03-08-2008 12:36:02 23 C 8.84 g/m*3 23 C 0 km/h
317 03-08-2008 12:48:02 23.1 C 9.1 g/m*3 23.1 C 0 km/h
318 03-08-2008 13:00:02 23.4 C 9.04 g/m*3 23.4 C 0 km/h
319 03-08-2008 13:12:01 23.3 C 9.62 g/m*3 23.3 C 0 km/h
320 03-08-2008 13:24:02 23.2 C 9.15 g/m*3 23.2 C 0 km/h
321 03-08-2008 13:36:02 24.6 C 9.23 g/m*3 24.6 C 0 km/h
322 03-08-2008 13:48:02 26.7 C 8.86 g/m*3 26.7 C 0 km/h
323 03-08-2008 14:00:02 26.5 C 9.01 g/m*3 26.5 C 0 km/h
324 03-08-2008 14:12:02 26.7 C 8.86 g/m*3 26.7 C 0 km/h
325 03-08-2008 14:24:01 26.2 C 9.11 g/m*3 26.2 C 0 km/h
Sensor: Nr:Datum:Temp:Abs-Feuchte:Windchill:Wind:
Aussen-T/F 326 03-08-2008 14:36:02 27.2 C 9.11 g/m*3 27.2 C 0 km/h
327 03-08-2008 14:48:02 27.1 C 8.8 g/m*3 27.1 C 0 km/h
328 03-08-2008 15:00:03 27.4 C 8.95 g/m*3 27.4 C 0 km/h
329 03-08-2008 15:12:02 27.6 C 8.78 g/m*3 27.6 C 0 km/h
330 03-08-2008 15:24:03 26.9 C 8.7 g/m*3 26.9 C 0 km/h
331 03-08-2008 15:36:03 27 C 9.01 g/m*3 27 C 0 km/h
332 03-08-2008 15:48:02 27.3 C 9.16 g/m*3 27.3 C 0 km/h
333 03-08-2008 16:00:02 27.7 C 9.36 g/m*3 27.7 C 0 km/h
334 03-08-2008 16:12:02 27.9 C 9.2 g/m*3 27.9 C 0 km/h
335 03-08-2008 16:24:02 28 C 8.97 g/m*3 28 C 0 km/h
336 03-08-2008 16:36:01 27.2 C 9.11 g/m*3 27.2 C 0 km/h
337 03-08-2008 16:48:02 27.2 C 9.11 g/m*3 27.2 C 0 km/h
338 03-08-2008 17:00:02 28 C 8.97 g/m*3 28 C 0 km/h
339 03-08-2008 17:12:03 28 C 8.7 g/m*3 28 C 0 km/h
340 03-08-2008 17:48:02 28.4 C 8.62 g/m*3 28.4 C 0 km/h
341 03-08-2008 18:00:02 28.4 C 8.9 g/m*3 28.4 C 0 km/h
342 03-08-2008 18:12:03 28.8 C 8.81 g/m*3 28.8 C 0 km/h
343 03-08-2008 18:24:03 27.5 C 8.73 g/m*3 27.5 C 0 km/h
344 03-08-2008 18:36:02 27.2 C 8.85 g/m*3 27.2 C 0 km/h
345 03-08-2008 18:48:02 27.3 C 9.16 g/m*3 27.3 C 0 km/h
346 03-08-2008 19:00:02 27.1 C 9.06 g/m*3 27.1 C 0 km/h
347 03-08-2008 19:12:02 27.3 C 9.16 g/m*3 27.3 C 0 km/h
348 03-08-2008 19:24:02 26.6 C 9.31 g/m*3 26.6 C 0 km/h
349 03-08-2008 19:36:02 26.1 C 9.3 g/m*3 26.1 C 0 km/h
350 03-08-2008 19:48:02 25.8 C 9.63 g/m*3 25.8 C 0 km/h
Sensor: Nr:Datum:Temp:Abs-Feuchte:Windchill:Wind:
Aussen-T/F 351 03-08-2008 20:00:03 25.7 C 9.58 g/m*3 25.7 C 0 km/h
352 03-08-2008 20:12:02 25.3 C 9.83 g/m*3 25.3 C 0 km/h
353 03-08-2008 20:24:02 25 C 9.67 g/m*3 25 C 0 km/h
354 03-08-2008 20:36:02 24.8 C 10.02 g/m*3 24.8 C 0 km/h
355 03-08-2008 20:48:02 24.7 C 10.19 g/m*3 24.7 C 0 km/h
356 03-08-2008 21:00:02 24.5 C 10.3 g/m*3 24.5 C 0 km/h
357 03-08-2008 21:12:02 24.3 C 10.4 g/m*3 24.3 C 0 km/h
358 03-08-2008 21:24:02 24.1 C 10.94 g/m*3 24.1 C 0 km/h
359 03-08-2008 21:36:03 23.6 C 11.27 g/m*3 23.6 C 0 km/h
360 03-08-2008 21:48:02 22.6 C 12.46 g/m*3 22.6 C 0 km/h
361 03-08-2008 22:00:02 22.7 C 12.32 g/m*3 22.7 C 0 km/h
362 03-08-2008 22:12:03 22.9 C 12.06 g/m*3 22.9 C 0 km/h
363 03-08-2008 22:24:02 22.7 C 11.92 g/m*3 22.7 C 0 km/h
364 03-08-2008 22:37:04 22.6 C 11.85 g/m*3 22.6 C 0 km/h
365 03-08-2008 22:49:04 22.5 C 11.98 g/m*3 22.5 C 0 km/h
366 03-08-2008 23:01:05 22.2 C 11.98 g/m*3 22.2 C 0 km/h
367 03-08-2008 23:13:05 22.1 C 11.91 g/m*3 22.1 C 0 km/h
368 03-08-2008 23:25:05 22 C 12.23 g/m*3 22 C 0 km/h
369 03-08-2008 23:37:05 21.8 C 12.28 g/m*3 21.8 C 0 km/h
370 03-08-2008 23:49:05 21.9 C 12.35 g/m*3 21.9 C 0 km/h
371 04-08-2008 00:01:05 21.8 C 12.28 g/m*3 21.8 C 0 km/h
372 04-08-2008 00:13:05 21.8 C 12.28 g/m*3 21.8 C 0 km/h
373 04-08-2008 00:25:05 21.6 C 12.33 g/m*3 21.6 C 0 km/h
374 04-08-2008 00:37:05 21.3 C 12.3 g/m*3 21.3 C 0 km/h
375 04-08-2008 00:49:05 21.3 C 12.3 g/m*3 21.3 C 0 km/h
Sensor: Nr:Datum:Temp:Abs-Feuchte:Windchill:Wind:
Aussen-T/F 376 04-08-2008 01:01:05 21.6 C 12.14 g/m*3 21.6 C 0 km/h
377 04-08-2008 01:13:05 21.8 C 11.9 g/m*3 21.8 C 0 km/h
378 04-08-2008 01:25:05 22.1 C 11.91 g/m*3 22.1 C 0 km/h
379 04-08-2008 01:37:05 22.6 C 11.85 g/m*3 22.6 C 0 km/h
380 04-08-2008 01:49:05 22.9 C 11.65 g/m*3 22.9 C 0 km/h
381 04-08-2008 02:01:05 23.1 C 11.37 g/m*3 23.1 C 0 km/h
382 04-08-2008 02:13:05 23.3 C 11.29 g/m*3 23.3 C 0 km/h
383 04-08-2008 02:25:05 23.4 C 11.14 g/m*3 23.4 C 0 km/h
384 04-08-2008 02:37:05 23.5 C 11.21 g/m*3 23.5 C 0 km/h
385 04-08-2008 02:49:06 23.4 C 11.14 g/m*3 23.4 C 0 km/h
386 04-08-2008 03:01:06 23.3 C 11.29 g/m*3 23.3 C 0 km/h
387 04-08-2008 03:13:06 23.2 C 11.23 g/m*3 23.2 C 0 km/h
388 04-08-2008 03:25:06 23 C 11.3 g/m*3 23 C 0 km/h
389 04-08-2008 03:37:06 22.9 C 11.44 g/m*3 22.9 C 0 km/h
390 04-08-2008 03:49:06 21.5 C 12.63 g/m*3 21.5 C 0 km/h
391 04-08-2008 04:01:06 19.8 C 13.84 g/m*3 19.8 C 0 km/h
392 04-08-2008 04:13:06 19.5 C 14.1 g/m*3 19.5 C 0 km/h
393 04-08-2008 04:25:06 19.4 C 14.18 g/m*3 19.4 C 0 km/h
394 04-08-2008 04:37:06 19.1 C 13.93 g/m*3 19.1 C 0 km/h
395 04-08-2008 04:49:06 19.2 C 13.36 g/m*3 19.2 C 0 km/h
396 04-08-2008 05:01:06 18.9 C 13.28 g/m*3 18.9 C 0 km/h
397 04-08-2008 05:13:06 18.8 C 13.53 g/m*3 18.8 C 0 km/h
398 04-08-2008 05:25:06 18.4 C 13.21 g/m*3 18.4 C 0 km/h
399 04-08-2008 05:37:06 17.9 C 12.83 g/m*3 17.9 C 0 km/h
400 04-08-2008 05:49:06 17.7 C 12.82 g/m*3 17.7 C 0 km/h
Sensor: Nr:Datum:Temp:Abs-Feuchte:Windchill:Wind:
Aussen-T/F 401 04-08-2008 06:01:06 17.6 C 12.9 g/m*3 17.6 C 0 km/h
402 04-08-2008 06:13:06 17.5 C 12.97 g/m*3 17.5 C 0 km/h
403 04-08-2008 06:25:06 17.2 C 12.89 g/m*3 17.2 C 0 km/h
404 04-08-2008 06:37:06 16.9 C 12.8 g/m*3 16.9 C 0 km/h
405 04-08-2008 06:49:06 16.8 C 12.72 g/m*3 16.8 C 0 km/h
406 04-08-2008 07:01:07 16.6 C 12.71 g/m*3 16.6 C 0 km/h
407 04-08-2008 07:13:07 16.3 C 12.49 g/m*3 16.3 C 0 km/h
408 04-08-2008 07:25:07 16.4 C 12.56 g/m*3 16.4 C 0 km/h
409 04-08-2008 07:37:07 16.5 C 12.64 g/m*3 16.5 C 0 km/h
410 04-08-2008 07:49:07 16.5 C 12.64 g/m*3 16.5 C 0 km/h
411 04-08-2008 08:01:07 17 C 12.73 g/m*3 17 C 0 km/h
412 04-08-2008 08:13:07 17.2 C 12.59 g/m*3 17.2 C 0 km/h
413 04-08-2008 08:25:07 17.4 C 12.6 g/m*3 17.4 C 0 km/h
414 04-08-2008 08:37:07 17.9 C 12.98 g/m*3 17.9 C 0 km/h
415 04-08-2008 08:49:07 18.1 C 12.98 g/m*3 18.1 C 0 km/h
416 04-08-2008 09:01:07 18 C 12.75 g/m*3 18 C 0 km/h
417 04-08-2008 09:13:07 17.9 C 12.67 g/m*3 17.9 C 0 km/h
418 04-08-2008 09:25:04 18.1 C 12.36 g/m*3 18.1 C 0 km/h
419 04-08-2008 09:37:04 18.6 C 12.73 g/m*3 18.6 C 0 km/h
420 04-08-2008 09:49:02 19.1 C 12.62 g/m*3 19.1 C 0 km/h
421 04-08-2008 10:01:02 19.1 C 11.8 g/m*3 19.1 C 0 km/h
422 04-08-2008 10:13:02 19 C 11.41 g/m*3 19 C 0 km/h
423 04-08-2008 10:25:01 19.4 C 11.85 g/m*3 19.4 C 0 km/h
424 04-08-2008 10:37:02 19.9 C 11.34 g/m*3 19.9 C 0 km/h
425 04-08-2008 10:49:02 20.4 C 10.08 g/m*3 20.4 C 0 km/h
Sensor: Nr:Datum:Temp:Abs-Feuchte:Windchill:Wind:
Aussen-T/F 426 04-08-2008 11:01:03 20.7 C 9.9 g/m*3 20.7 C 0 km/h
427 04-08-2008 11:13:03 20.8 C 9.42 g/m*3 20.8 C 0 km/h
428 04-08-2008 11:25:02 21.4 C 9.19 g/m*3 21.4 C 0 km/h
429 04-08-2008 11:37:02 21.8 C 9.4 g/m*3 21.8 C 0 km/h
430 04-08-2008 11:49:02 22 C 8.73 g/m*3 22 C 0 km/h
431 04-08-2008 12:01:02 22.6 C 8.84 g/m*3 22.6 C 0 km/h
432 04-08-2008 12:13:02 22.9 C 8.38 g/m*3 22.9 C 0 km/h
433 04-08-2008 12:25:02 23.7 C 7.91 g/m*3 23.7 C 0 km/h
434 04-08-2008 12:37:02 23.1 C 7.65 g/m*3 23.1 C 0 km/h
435 04-08-2008 12:49:02 23.4 C 7.57 g/m*3 23.4 C 0 km/h
436 04-08-2008 13:01:02 24.4 C 7.12 g/m*3 24.4 C 0 km/h
437 04-08-2008 13:13:02 24 C 6.74 g/m*3 24 C 0 km/h
438 04-08-2008 13:25:02 24 C 6.53 g/m*3 24 C 0 km/h
439 04-08-2008 13:37:02 24.5 C 6.94 g/m*3 24.5 C 0 km/h
440 04-08-2008 13:49:03 24.8 C 6.37 g/m*3 24.8 C 0 km/h
441 04-08-2008 14:01:03 25.7 C 6.46 g/m*3 25.7 C 0 km/h
442 04-08-2008 14:13:03 25.4 C 7.06 g/m*3 25.4 C 0 km/h
443 04-08-2008 14:25:03 24.8 C 7.97 g/m*3 24.8 C 0 km/h
444 04-08-2008 14:37:02 24.4 C 8.23 g/m*3 24.4 C 0 km/h
445 04-08-2008 14:49:02 25.3 C 7.26 g/m*3 25.3 C 0 km/h
446 04-08-2008 15:01:01 25.2 C 6.52 g/m*3 25.2 C 0 km/h
447 04-08-2008 15:13:01 24.7 C 6.34 g/m*3 24.7 C 0 km/h
448 04-08-2008 15:25:02 25.1 C 6.48 g/m*3 25.1 C 0 km/h
449 04-08-2008 15:37:01 25.9 C 6.29 g/m*3 25.9 C 0 km/h
450 04-08-2008 15:49:02 27.1 C 5.69 g/m*3 27.1 C 0 km/h
Sensor: Nr:Datum:Temp:Abs-Feuchte:Windchill:Wind:
Aussen-T/F 451 04-08-2008 16:01:02 26.2 C 5.66 g/m*3 26.2 C 0 km/h
452 04-08-2008 16:13:02 26.9 C 5.63 g/m*3 26.9 C 0 km/h
453 04-08-2008 16:25:02 26.8 C 5.6 g/m*3 26.8 C 0 km/h
454 04-08-2008 16:37:02 25.8 C 5.3 g/m*3 25.8 C 0 km/h
455 04-08-2008 16:49:03 26.3 C 6.19 g/m*3 26.3 C 0 km/h
456 04-08-2008 17:01:02 27.2 C 5.99 g/m*3 27.2 C 0 km/h
457 04-08-2008 17:13:02 26.3 C 6.19 g/m*3 26.3 C 0 km/h
458 04-08-2008 17:25:03 26.7 C 5.57 g/m*3 26.7 C 0 km/h
459 04-08-2008 17:37:02 26.2 C 5.42 g/m*3 26.2 C 0 km/h
460 04-08-2008 17:49:02 26.3 C 5.2 g/m*3 26.3 C 0 km/h
461 04-08-2008 18:01:02 26.5 C 5.51 g/m*3 26.5 C 0 km/h
462 04-08-2008 18:13:02 26.6 C 5.54 g/m*3 26.6 C 0 km/h
463 04-08-2008 18:25:02 25.9 C 5.57 g/m*3 25.9 C 0 km/h
464 04-08-2008 18:37:02 26.1 C 5.63 g/m*3 26.1 C 0 km/h
465 04-08-2008 18:49:01 25.7 C 5.99 g/m*3 25.7 C 0 km/h
466 04-08-2008 19:01:02 26 C 5.6 g/m*3 26 C 0 km/h
467 04-08-2008 19:13:02 25.9 C 6.29 g/m*3 25.9 C 0 km/h
468 04-08-2008 19:25:01 26.1 C 6.12 g/m*3 26.1 C 0 km/h
469 04-08-2008 19:37:02 26.1 C 5.88 g/m*3 26.1 C 0 km/h
470 04-08-2008 19:49:02 25.4 C 5.89 g/m*3 25.4 C 0 km/h
471 04-08-2008 20:01:02 24.5 C 5.82 g/m*3 24.5 C 0 km/h
472 04-08-2008 20:13:02 23.9 C 6.06 g/m*3 23.9 C 0 km/h
473 04-08-2008 20:25:02 23.4 C 6.1 g/m*3 23.4 C 0 km/h
474 04-08-2008 20:37:02 23.1 C 6.41 g/m*3 23.1 C 0 km/h
475 04-08-2008 20:49:02 22.5 C 6.99 g/m*3 22.5 C 0 km/h
Sensor: Nr:Datum:Temp:Abs-Feuchte:Windchill:Wind:
Aussen-T/F 476 04-08-2008 21:01:01 21.8 C 6.91 g/m*3 21.8 C 0 km/h
477 04-08-2008 21:13:01 21.5 C 7.17 g/m*3 21.5 C 0 km/h
478 04-08-2008 21:25:02 21 C 7.14 g/m*3 21 C 0 km/h
479 04-08-2008 21:37:01 20.6 C 7.16 g/m*3 20.6 C 0 km/h
480 04-08-2008 21:49:03 20.4 C 7.25 g/m*3 20.4 C 0 km/h
481 04-08-2008 22:01:02 20.3 C 7.39 g/m*3 20.3 C 0 km/h
482 04-08-2008 22:13:02 19.9 C 7.56 g/m*3 19.9 C 0 km/h
483 04-08-2008 22:25:03 19.5 C 7.55 g/m*3 19.5 C 0 km/h
484 04-08-2008 22:38:13 19.3 C 7.8 g/m*3 19.3 C 0 km/h
485 04-08-2008 22:50:13 19.2 C 7.75 g/m*3 19.2 C 0 km/h
486 04-08-2008 23:02:13 19.2 C 7.91 g/m*3 19.2 C 0 km/h
487 04-08-2008 23:14:13 19.3 C 7.8 g/m*3 19.3 C 0 km/h
488 04-08-2008 23:26:13 19.1 C 8.03 g/m*3 19.1 C 0 km/h
489 04-08-2008 23:38:13 18.9 C 8.1 g/m*3 18.9 C 0 km/h
490 04-08-2008 23:50:13 18.5 C 8.23 g/m*3 18.5 C 0 km/h
491 05-08-2008 00:02:13 18.4 C 8.18 g/m*3 18.4 C 0 km/h
492 05-08-2008 00:14:14 18.2 C 8.24 g/m*3 18.2 C 0 km/h
493 05-08-2008 00:26:14 18.1 C 8.34 g/m*3 18.1 C 0 km/h
494 05-08-2008 00:38:14 17.7 C 8.75 g/m*3 17.7 C 0 km/h
495 05-08-2008 00:50:14 17.4 C 8.6 g/m*3 17.4 C 0 km/h
496 05-08-2008 01:02:14 17.2 C 8.64 g/m*3 17.2 C 0 km/h
497 05-08-2008 01:14:14 16.8 C 8.86 g/m*3 16.8 C 0 km/h
498 05-08-2008 01:26:14 16.6 C 8.76 g/m*3 16.6 C 0 km/h
499 05-08-2008 01:38:14 16.4 C 8.93 g/m*3 16.4 C 0 km/h
500 05-08-2008 01:50:14 16.2 C 8.96 g/m*3 16.2 C 0 km/h
Sensor: Nr:Datum:Temp:Abs-Feuchte:Windchill:Wind:
Aussen-T/F 501 05-08-2008 02:02:14 16 C 8.99 g/m*3 16 C 0 km/h
502 05-08-2008 02:14:14 15.8 C 9.02 g/m*3 15.8 C 0 km/h
503 05-08-2008 02:26:14 15.6 C 8.91 g/m*3 15.6 C 0 km/h
504 05-08-2008 02:38:14 15.5 C 9.12 g/m*3 15.5 C 0 km/h
505 05-08-2008 02:50:14 15.4 C 8.8 g/m*3 15.4 C 0 km/h
506 05-08-2008 03:02:14 15.2 C 8.44 g/m*3 15.2 C 0 km/h
507 05-08-2008 03:14:14 15.3 C 8.62 g/m*3 15.3 C 0 km/h
508 05-08-2008 03:26:14 15.1 C 8.39 g/m*3 15.1 C 0 km/h
509 05-08-2008 03:38:14 15 C 8.59 g/m*3 15 C 0 km/h
510 05-08-2008 03:50:14 14.8 C 8.74 g/m*3 14.8 C 0 km/h
511 05-08-2008 04:02:14 14.7 C 8.56 g/m*3 14.7 C 0 km/h
512 05-08-2008 04:14:14 14.7 C 8.18 g/m*3 14.7 C 0 km/h
513 05-08-2008 04:26:15 14.5 C 8.58 g/m*3 14.5 C 0 km/h
514 05-08-2008 04:38:15 14.2 C 8.55 g/m*3 14.2 C 0 km/h
515 05-08-2008 04:50:15 14.2 C 8.43 g/m*3 14.2 C 0 km/h
516 05-08-2008 05:02:15 14.1 C 8.25 g/m*3 14.1 C 0 km/h
517 05-08-2008 05:14:15 14 C 8.32 g/m*3 14 C 0 km/h
518 05-08-2008 05:26:15 13.9 C 8.63 g/m*3 13.9 C 0 km/h
519 05-08-2008 05:38:15 13.7 C 8.64 g/m*3 13.7 C 0 km/h
520 05-08-2008 05:50:15 13.5 C 8.54 g/m*3 13.5 C 0 km/h
521 05-08-2008 06:02:15 13.5 C 8.54 g/m*3 13.5 C 0 km/h
522 05-08-2008 06:14:15 13.4 C 8.6 g/m*3 13.4 C 0 km/h
523 05-08-2008 06:26:15 13.4 C 8.6 g/m*3 13.4 C 0 km/h
524 05-08-2008 06:38:15 13.4 C 8.6 g/m*3 13.4 C 0 km/h
525 05-08-2008 06:50:15 13.5 C 8.66 g/m*3 13.5 C 0 km/h
Sensor: Nr:Datum:Temp:Abs-Feuchte:Windchill:Wind:
Aussen-T/F 526 05-08-2008 07:02:15 13.6 C 8.71 g/m*3 13.6 C 0 km/h
527 05-08-2008 07:14:15 13.7 C 8.76 g/m*3 13.7 C 0 km/h
528 05-08-2008 07:26:15 13.9 C 8.75 g/m*3 13.9 C 0 km/h
529 05-08-2008 07:38:15 14.2 C 8.67 g/m*3 14.2 C 0 km/h
530 05-08-2008 07:50:15 14.4 C 8.53 g/m*3 14.4 C 0 km/h
531 05-08-2008 08:02:15 14.6 C 8.63 g/m*3 14.6 C 0 km/h
532 05-08-2008 08:14:15 14.8 C 8.61 g/m*3 14.8 C 0 km/h
533 05-08-2008 08:26:15 15 C 8.46 g/m*3 15 C 0 km/h
534 05-08-2008 08:38:03 15.4 C 8.54 g/m*3 15.4 C 0 km/h
535 05-08-2008 08:50:03 15.6 C 8.38 g/m*3 15.6 C 0 km/h
536 05-08-2008 09:02:03 15.7 C 8.56 g/m*3 15.7 C 0 km/h
537 05-08-2008 09:14:03 16.1 C 8.5 g/m*3 16.1 C 0 km/h
538 05-08-2008 09:26:02 16.4 C 8.51 g/m*3 16.4 C 0 km/h
539 05-08-2008 09:38:02 16.8 C 8.58 g/m*3 16.8 C 0 km/h
540 05-08-2008 09:50:02 17.2 C 8.49 g/m*3 17.2 C 0 km/h
541 05-08-2008 10:02:03 17.9 C 8.7 g/m*3 17.9 C 0 km/h
542 05-08-2008 10:14:03 18 C 8.45 g/m*3 18 C 0 km/h
543 05-08-2008 10:26:02 18.4 C 8.49 g/m*3 18.4 C 0 km/h
544 05-08-2008 10:38:03 19.1 C 8.52 g/m*3 19.1 C 0 km/h
545 05-08-2008 10:50:03 19.8 C 8.37 g/m*3 19.8 C 0 km/h
546 05-08-2008 11:02:02 20.1 C 8.17 g/m*3 20.1 C 0 km/h
547 05-08-2008 11:14:03 20.5 C 8.19 g/m*3 20.5 C 0 km/h
548 05-08-2008 11:26:02 21.1 C 8.29 g/m*3 21.1 C 0 km/h
549 05-08-2008 11:38:03 22.7 C 7.88 g/m*3 22.7 C 0 km/h
550 05-08-2008 11:50:02 22.2 C 8.05 g/m*3 22.2 C 0 km/h
Sensor: Nr:Datum:Temp:Abs-Feuchte:Windchill:Wind:
Aussen-T/F 551 05-08-2008 12:02:02 22.7 C 8.28 g/m*3 22.7 C 0 km/h
552 05-08-2008 12:14:02 23.8 C 7.96 g/m*3 23.8 C 0 km/h
553 05-08-2008 12:26:02 24 C 7.83 g/m*3 24 C 0 km/h
554 05-08-2008 12:38:02 24.5 C 7.83 g/m*3 24.5 C 0 km/h
555 05-08-2008 12:50:01 24.3 C 7.52 g/m*3 24.3 C 0 km/h
556 05-08-2008 13:02:03 24.8 C 7.28 g/m*3 24.8 C 0 km/h
557 05-08-2008 13:14:03 24.6 C 7.2 g/m*3 24.6 C 0 km/h
558 05-08-2008 13:26:02 24.4 C 7.34 g/m*3 24.4 C 0 km/h
559 05-08-2008 13:38:02 25 C 7.37 g/m*3 25 C 0 km/h
560 05-08-2008 13:50:01 25.2 C 7.45 g/m*3 25.2 C 0 km/h
561 05-08-2008 14:02:02 25.9 C 7.51 g/m*3 25.9 C 0 km/h
562 05-08-2008 14:14:02 26.5 C 7.01 g/m*3 26.5 C 0 km/h
563 05-08-2008 14:26:02 26.9 C 6.65 g/m*3 26.9 C 0 km/h
564 05-08-2008 14:38:02 26.8 C 6.87 g/m*3 26.8 C 0 km/h
565 05-08-2008 14:50:01 27.5 C 6.61 g/m*3 27.5 C 0 km/h
566 05-08-2008 15:02:02 26.9 C 6.65 g/m*3 26.9 C 0 km/h
567 05-08-2008 15:14:02 26.7 C 6.58 g/m*3 26.7 C 0 km/h
568 05-08-2008 15:26:02 26.2 C 7.14 g/m*3 26.2 C 0 km/h
569 05-08-2008 15:38:01 25.8 C 7.22 g/m*3 25.8 C 0 km/h
570 05-08-2008 15:50:01 26.3 C 7.18 g/m*3 26.3 C 0 km/h
571 05-08-2008 16:02:02 26.6 C 7.05 g/m*3 26.6 C 0 km/h
572 05-08-2008 16:14:02 26.6 C 7.3 g/m*3 26.6 C 0 km/h
573 05-08-2008 16:26:01 27.6 C 7.18 g/m*3 27.6 C 0 km/h
574 05-08-2008 16:38:02 28.5 C 6.99 g/m*3 28.5 C 0 km/h
575 05-08-2008 16:50:02 28.6 C 7.03 g/m*3 28.6 C 0 km/h
Sensor: Nr:Datum:Temp:Abs-Feuchte:Windchill:Wind:
Aussen-T/F 576 05-08-2008 17:02:02 29.1 C 6.35 g/m*3 29.1 C 0 km/h
577 05-08-2008 17:14:02 29.6 C 6.53 g/m*3 29.6 C 0 km/h
578 05-08-2008 17:26:02 27.9 C 6.76 g/m*3 27.9 C 0 km/h
579 05-08-2008 17:38:02 27.2 C 6.77 g/m*3 27.2 C 0 km/h
580 05-08-2008 17:50:02 28.3 C 6.91 g/m*3 28.3 C 0 km/h
581 05-08-2008 18:02:02 28.8 C 6.53 g/m*3 28.8 C 0 km/h
582 05-08-2008 18:14:02 27.1 C 6.47 g/m*3 27.1 C 0 km/h
583 05-08-2008 18:26:02 26.7 C 7.59 g/m*3 26.7 C 0 km/h
584 05-08-2008 18:38:02 26.6 C 8.05 g/m*3 26.6 C 0 km/h
585 05-08-2008 18:50:02 26.2 C 7.88 g/m*3 26.2 C 0 km/h
586 05-08-2008 19:02:01 25.8 C 7.7 g/m*3 25.8 C 0 km/h
587 05-08-2008 19:14:01 25.9 C 7.99 g/m*3 25.9 C 0 km/h
588 05-08-2008 19:26:02 25.6 C 8.09 g/m*3 25.6 C 0 km/h
589 05-08-2008 19:38:01 25.1 C 8.33 g/m*3 25.1 C 0 km/h
590 05-08-2008 19:50:01 24.7 C 8.37 g/m*3 24.7 C 0 km/h
591 05-08-2008 20:02:02 24.7 C 8.37 g/m*3 24.7 C 0 km/h
592 05-08-2008 20:14:02 24.1 C 8.1 g/m*3 24.1 C 0 km/h
593 05-08-2008 20:26:02 23.5 C 8.25 g/m*3 23.5 C 0 km/h
594 05-08-2008 20:38:01 22.9 C 8.58 g/m*3 22.9 C 0 km/h
595 05-08-2008 20:50:02 22.4 C 8.34 g/m*3 22.4 C 0 km/h
596 05-08-2008 21:02:03 21.9 C 8.68 g/m*3 21.9 C 0 km/h
597 05-08-2008 21:14:03 21.5 C 8.67 g/m*3 21.5 C 0 km/h
598 05-08-2008 21:26:03 21.2 C 8.52 g/m*3 21.2 C 0 km/h
599 05-08-2008 21:38:02 21 C 8.43 g/m*3 21 C 0 km/h
600 05-08-2008 21:50:03 20.9 C 9.11 g/m*3 20.9 C 0 km/h
Sensor: Nr:Datum:Temp:Abs-Feuchte:Windchill:Wind:
Aussen-T/F 601 05-08-2008 22:02:02 21 C 8.98 g/m*3 21 C 0 km/h
602 05-08-2008 22:14:02 20.8 C 9.05 g/m*3 20.8 C 0 km/h
603 05-08-2008 22:26:03 20.6 C 9.13 g/m*3 20.6 C 0 km/h
604 05-08-2008 22:39:03 20.3 C 9.15 g/m*3 20.3 C 0 km/h
605 05-08-2008 22:51:03 20 C 8.81 g/m*3 20 C 0 km/h
606 05-08-2008 23:03:03 19.9 C 8.93 g/m*3 19.9 C 0 km/h
607 05-08-2008 23:15:03 19.5 C 8.89 g/m*3 19.5 C 0 km/h
608 05-08-2008 23:27:03 19.3 C 8.79 g/m*3 19.3 C 0 km/h
609 05-08-2008 23:39:03 19.2 C 9.07 g/m*3 19.2 C 0 km/h
610 05-08-2008 23:51:03 18.9 C 9.23 g/m*3 18.9 C 0 km/h
611 06-08-2008 00:03:04 18.9 C 9.23 g/m*3 18.9 C 0 km/h
612 06-08-2008 00:15:04 18.7 C 9.13 g/m*3 18.7 C 0 km/h
613 06-08-2008 00:27:04 18.7 C 9.29 g/m*3 18.7 C 0 km/h
614 06-08-2008 00:39:04 18.6 C 9.39 g/m*3 18.6 C 0 km/h
615 06-08-2008 00:51:04 18.4 C 9.28 g/m*3 18.4 C 0 km/h
616 06-08-2008 01:03:04 18.3 C 9.22 g/m*3 18.3 C 0 km/h
617 06-08-2008 01:15:04 18.1 C 9.43 g/m*3 18.1 C 0 km/h
618 06-08-2008 01:27:04 17.9 C 9.47 g/m*3 17.9 C 0 km/h
619 06-08-2008 01:39:04 17.9 C 9.62 g/m*3 17.9 C 0 km/h
620 06-08-2008 01:51:04 17.7 C 9.66 g/m*3 17.7 C 0 km/h
621 06-08-2008 02:03:04 17.6 C 9.6 g/m*3 17.6 C 0 km/h
622 06-08-2008 02:15:04 17.5 C 9.54 g/m*3 17.5 C 0 km/h
623 06-08-2008 02:27:04 17.4 C 9.48 g/m*3 17.4 C 0 km/h
624 06-08-2008 02:39:04 17.5 C 9.69 g/m*3 17.5 C 0 km/h
625 06-08-2008 02:51:04 17.6 C 9.6 g/m*3 17.6 C 0 km/h
Sensor: Nr:Datum:Temp:Abs-Feuchte:Windchill:Wind:
Aussen-T/F 626 06-08-2008 03:03:04 17.4 C 9.63 g/m*3 17.4 C 0 km/h
627 06-08-2008 03:15:04 17 C 9.41 g/m*3 17 C 0 km/h
628 06-08-2008 03:27:04 16.8 C 9.72 g/m*3 16.8 C 0 km/h
629 06-08-2008 03:39:04 16.7 C 9.81 g/m*3 16.7 C 0 km/h
630 06-08-2008 03:51:05 16.6 C 9.75 g/m*3 16.6 C 0 km/h
631 06-08-2008 04:03:05 16.6 C 9.75 g/m*3 16.6 C 0 km/h
632 06-08-2008 04:15:05 16.6 C 9.75 g/m*3 16.6 C 0 km/h
633 06-08-2008 04:27:05 16.4 C 9.77 g/m*3 16.4 C 0 km/h
634 06-08-2008 04:39:05 16.2 C 9.79 g/m*3 16.2 C 0 km/h
635 06-08-2008 04:51:05 16 C 9.81 g/m*3 16 C 0 km/h
636 06-08-2008 05:03:05 15.9 C 9.89 g/m*3 15.9 C 0 km/h
637 06-08-2008 05:15:05 15.7 C 9.77 g/m*3 15.7 C 0 km/h
638 06-08-2008 05:27:05 15.6 C 9.84 g/m*3 15.6 C 0 km/h
639 06-08-2008 05:39:05 15.4 C 9.72 g/m*3 15.4 C 0 km/h
640 06-08-2008 05:51:05 15.3 C 9.79 g/m*3 15.3 C 0 km/h
641 06-08-2008 06:03:05 15.2 C 9.73 g/m*3 15.2 C 0 km/h
642 06-08-2008 06:15:05 15.2 C 9.99 g/m*3 15.2 C 0 km/h
643 06-08-2008 06:27:05 15.1 C 9.93 g/m*3 15.1 C 0 km/h
644 06-08-2008 06:39:05 14.9 C 9.94 g/m*3 14.9 C 0 km/h
645 06-08-2008 06:51:02 14.9 C 9.94 g/m*3 14.9 C 0 km/h
646 06-08-2008 07:03:01 15.2 C 10.12 g/m*3 15.2 C 0 km/h
647 06-08-2008 07:15:02 15.3 C 10.19 g/m*3 15.3 C 0 km/h
648 06-08-2008 07:27:02 15.5 C 10.31 g/m*3 15.5 C 0 km/h
649 06-08-2008 07:39:01 15.6 C 10.24 g/m*3 15.6 C 0 km/h
650 06-08-2008 07:51:02 15.8 C 10.36 g/m*3 15.8 C 0 km/h
Sensor: Nr:Datum:Temp:Abs-Feuchte:Windchill:Wind:
Aussen-T/F 651 06-08-2008 08:03:01 15.9 C 10.29 g/m*3 15.9 C 0 km/h
652 06-08-2008 08:15:02 16.2 C 10.34 g/m*3 16.2 C 0 km/h
653 06-08-2008 08:27:02 16.4 C 10.33 g/m*3 16.4 C 0 km/h
654 06-08-2008 08:39:01 16.6 C 10.45 g/m*3 16.6 C 0 km/h
655 06-08-2008 08:51:01 16.9 C 10.36 g/m*3 16.9 C 0 km/h
656 06-08-2008 09:03:01 17.3 C 10.16 g/m*3 17.3 C 0 km/h
657 06-08-2008 09:15:02 17.8 C 10.47 g/m*3 17.8 C 0 km/h
658 06-08-2008 09:27:02 18.3 C 10.32 g/m*3 18.3 C 0 km/h
659 06-08-2008 09:39:01 18.9 C 10.69 g/m*3 18.9 C 0 km/h
660 06-08-2008 09:51:01 19.3 C 10.62 g/m*3 19.3 C 0 km/h
661 06-08-2008 10:03:01 20 C 10.54 g/m*3 20 C 0 km/h
662 06-08-2008 10:15:01 20.9 C 10.56 g/m*3 20.9 C 0 km/h
663 06-08-2008 10:27:01 21.7 C 10.11 g/m*3 21.7 C 0 km/h
664 06-08-2008 10:39:01 22.2 C 10.01 g/m*3 22.2 C 0 km/h
665 06-08-2008 10:51:01 23.2 C 9.98 g/m*3 23.2 C 0 km/h
666 06-08-2008 11:03:02 23.7 C 10.27 g/m*3 23.7 C 0 km/h
667 06-08-2008 11:15:01 24.3 C 9.52 g/m*3 24.3 C 0 km/h
668 06-08-2008 11:27:01 25.1 C 9.26 g/m*3 25.1 C 0 km/h
669 06-08-2008 11:39:02 25.8 C 9.39 g/m*3 25.8 C 0 km/h
670 06-08-2008 11:51:02 26.1 C 9.06 g/m*3 26.1 C 0 km/h
671 06-08-2008 12:03:02 26.9 C 9.47 g/m*3 26.9 C 0 km/h
672 06-08-2008 12:15:01 27.1 C 8.8 g/m*3 27.1 C 0 km/h
673 06-08-2008 12:27:01 27.6 C 9.04 g/m*3 27.6 C 0 km/h
674 06-08-2008 12:39:02 28.1 C 8.75 g/m*3 28.1 C 0 km/h
675 06-08-2008 12:51:02 27.8 C 8.61 g/m*3 27.8 C 0 km/h
Sensor: Nr:Datum:Temp:Abs-Feuchte:Windchill:Wind:
Aussen-T/F 676 06-08-2008 13:03:02 28.9 C 8.86 g/m*3 28.9 C 0 km/h
677 06-08-2008 13:15:02 30 C 8.19 g/m*3 30 C 0 km/h
678 06-08-2008 13:27:02 30.6 C 8.14 g/m*3 30.6 C 0 km/h
679 06-08-2008 13:39:02 30.6 C 7.83 g/m*3 30.6 C 0 km/h
680 06-08-2008 13:51:02 30.9 C 7.96 g/m*3 30.9 C 0 km/h
681 06-08-2008 14:03:01 31 C 8 g/m*3 31 C 0 km/h
682 06-08-2008 14:15:02 31.1 C 8.04 g/m*3 31.1 C 0 km/h
683 06-08-2008 14:27:02 30.7 C 8.5 g/m*3 30.7 C 0 km/h
684 06-08-2008 14:39:02 31.3 C 7.81 g/m*3 31.3 C 0 km/h
685 06-08-2008 14:51:02 31.5 C 7.56 g/m*3 31.5 C 0 km/h
686 06-08-2008 15:03:02 32.1 C 7.47 g/m*3 32.1 C 0 km/h
687 06-08-2008 15:15:02 32.3 C 6.86 g/m*3 32.3 C 0 km/h
688 06-08-2008 15:27:03 32 C 7.09 g/m*3 32 C 0 km/h
689 06-08-2008 15:39:02 32.5 C 6.93 g/m*3 32.5 C 0 km/h
690 06-08-2008 15:51:02 32.7 C 7.01 g/m*3 32.7 C 0 km/h
691 06-08-2008 16:03:02 33 C 7.12 g/m*3 33 C 0 km/h
692 06-08-2008 16:15:02 33.2 C 7.2 g/m*3 33.2 C 0 km/h
693 06-08-2008 16:27:02 33.5 C 7.31 g/m*3 33.5 C 0 km/h
694 06-08-2008 16:39:02 33.6 C 7.35 g/m*3 33.6 C 0 km/h
695 06-08-2008 16:51:02 33.7 C 7.39 g/m*3 33.7 C 0 km/h
696 06-08-2008 17:03:02 33.9 C 7.46 g/m*3 33.9 C 0 km/h
697 06-08-2008 17:15:02 33.9 C 7.46 g/m*3 33.9 C 0 km/h
698 06-08-2008 17:27:02 33.6 C 7.35 g/m*3 33.6 C 0 km/h
699 06-08-2008 17:39:02 33.7 C 7.39 g/m*3 33.7 C 0 km/h
700 06-08-2008 17:51:02 33.8 C 7.43 g/m*3 33.8 C 0 km/h
Sensor: Nr:Datum:Temp:Abs-Feuchte:Windchill:Wind:
Aussen-T/F 701 06-08-2008 18:03:02 34 C 7.5 g/m*3 34 C 0 km/h
702 06-08-2008 18:15:02 34.2 C 7.58 g/m*3 34.2 C 0 km/h
703 06-08-2008 18:27:02 33.9 C 7.46 g/m*3 33.9 C 0 km/h
704 06-08-2008 18:39:02 34 C 7.5 g/m*3 34 C 0 km/h
705 06-08-2008 18:51:02 33.9 C 7.46 g/m*3 33.9 C 0 km/h
706 06-08-2008 19:03:01 33.9 C 7.46 g/m*3 33.9 C 0 km/h
707 06-08-2008 19:15:02 33.3 C 7.23 g/m*3 33.3 C 0 km/h
708 06-08-2008 19:27:02 33.3 C 7.59 g/m*3 33.3 C 0 km/h
709 06-08-2008 19:39:02 32.7 C 7.36 g/m*3 32.7 C 0 km/h
710 06-08-2008 19:51:02 31.6 C 8.59 g/m*3 31.6 C 0 km/h
711 06-08-2008 20:03:02 30.6 C 9.4 g/m*3 30.6 C 0 km/h
712 06-08-2008 20:15:02 30.1 C 9.45 g/m*3 30.1 C 0 km/h
713 06-08-2008 20:27:03 29.5 C 9.44 g/m*3 29.5 C 0 km/h
714 06-08-2008 20:39:02 28.9 C 9.43 g/m*3 28.9 C 0 km/h
715 06-08-2008 20:51:02 28.4 C 9.45 g/m*3 28.4 C 0 km/h
716 06-08-2008 21:03:02 27.8 C 9.15 g/m*3 27.8 C 0 km/h
717 06-08-2008 21:15:03 27.3 C 9.16 g/m*3 27.3 C 0 km/h
718 06-08-2008 21:27:03 27 C 9.01 g/m*3 27 C 0 km/h
719 06-08-2008 21:39:02 26.7 C 9.11 g/m*3 26.7 C 0 km/h
720 06-08-2008 21:51:01 26.6 C 9.31 g/m*3 26.6 C 0 km/h
721 06-08-2008 22:03:01 26.6 C 9.06 g/m*3 26.6 C 0 km/h
722 06-08-2008 22:15:01 26.4 C 9.21 g/m*3 26.4 C 0 km/h
723 06-08-2008 22:27:01 26 C 9.49 g/m*3 26 C 0 km/h
724 06-08-2008 22:40:02 25.8 C 9.39 g/m*3 25.8 C 0 km/h
725 06-08-2008 22:52:02 25.6 C 9.28 g/m*3 25.6 C 0 km/h
Sensor: Nr:Datum:Temp:Abs-Feuchte:Windchill:Wind:
Aussen-T/F 726 06-08-2008 23:04:02 25.1 C 9.26 g/m*3 25.1 C 0 km/h
727 06-08-2008 23:16:02 24.8 C 9.79 g/m*3 24.8 C 0 km/h
728 06-08-2008 23:28:02 24.5 C 10.07 g/m*3 24.5 C 0 km/h
729 06-08-2008 23:40:02 24.1 C 9.85 g/m*3 24.1 C 0 km/h
730 06-08-2008 23:52:02 24 C 10.01 g/m*3 24 C 0 km/h
731 07-08-2008 00:04:02 23.7 C 9.84 g/m*3 23.7 C 0 km/h
732 07-08-2008 00:16:02 23.6 C 10.21 g/m*3 23.6 C 0 km/h
733 07-08-2008 00:28:02 23.3 C 10.25 g/m*3 23.3 C 0 km/h
734 07-08-2008 00:40:02 23 C 10.28 g/m*3 23 C 0 km/h
735 07-08-2008 00:52:02 22.7 C 10.51 g/m*3 22.7 C 0 km/h
736 07-08-2008 01:04:02 22.5 C 10.59 g/m*3 22.5 C 0 km/h
737 07-08-2008 01:16:02 22.3 C 10.66 g/m*3 22.3 C 0 km/h
738 07-08-2008 01:28:02 22.1 C 10.74 g/m*3 22.1 C 0 km/h
739 07-08-2008 01:40:02 21.9 C 11 g/m*3 21.9 C 0 km/h
740 07-08-2008 01:52:03 21.7 C 11.06 g/m*3 21.7 C 0 km/h
741 07-08-2008 02:04:03 21.4 C 11.06 g/m*3 21.4 C 0 km/h
742 07-08-2008 02:16:03 21.3 C 11 g/m*3 21.3 C 0 km/h
743 07-08-2008 02:28:03 21.1 C 11.06 g/m*3 21.1 C 0 km/h
744 07-08-2008 02:40:03 20.9 C 11.29 g/m*3 20.9 C 0 km/h
745 07-08-2008 02:52:03 20.7 C 11.34 g/m*3 20.7 C 0 km/h
746 07-08-2008 03:04:03 20.6 C 11.28 g/m*3 20.6 C 0 km/h
747 07-08-2008 03:16:03 20.4 C 11.14 g/m*3 20.4 C 0 km/h
748 07-08-2008 03:28:03 20.3 C 11.26 g/m*3 20.3 C 0 km/h
749 07-08-2008 03:40:03 20.3 C 11.26 g/m*3 20.3 C 0 km/h
750 07-08-2008 03:52:03 20.2 C 11.19 g/m*3 20.2 C 0 km/h
Sensor: Nr:Datum:Temp:Abs-Feuchte:Windchill:Wind:
Aussen-T/F 751 07-08-2008 04:04:03 19.9 C 11.34 g/m*3 19.9 C 0 km/h
752 07-08-2008 04:16:03 19.7 C 11.38 g/m*3 19.7 C 0 km/h
753 07-08-2008 04:28:03 19.6 C 11.31 g/m*3 19.6 C 0 km/h
754 07-08-2008 04:40:03 19.4 C 11.35 g/m*3 19.4 C 0 km/h
755 07-08-2008 04:52:03 19.3 C 11.44 g/m*3 19.3 C 0 km/h
756 07-08-2008 05:04:03 19.3 C 11.44 g/m*3 19.3 C 0 km/h
757 07-08-2008 05:16:03 19.1 C 11.47 g/m*3 19.1 C 0 km/h
758 07-08-2008 05:28:03 18.8 C 11.6 g/m*3 18.8 C 0 km/h
759 07-08-2008 05:40:03 18.8 C 11.6 g/m*3 18.8 C 0 km/h
760 07-08-2008 05:52:04 18.6 C 11.62 g/m*3 18.6 C 0 km/h
761 07-08-2008 06:04:04 18.6 C 11.62 g/m*3 18.6 C 0 km/h
762 07-08-2008 06:16:04 18.5 C 11.71 g/m*3 18.5 C 0 km/h
763 07-08-2008 06:28:04 18.4 C 11.64 g/m*3 18.4 C 0 km/h
764 07-08-2008 06:40:04 18.3 C 11.57 g/m*3 18.3 C 0 km/h
765 07-08-2008 06:52:04 18.5 C 11.87 g/m*3 18.5 C 0 km/h
766 07-08-2008 07:04:03 18.7 C 12.01 g/m*3 18.7 C 0 km/h
767 07-08-2008 07:16:02 18.8 C 11.92 g/m*3 18.8 C 0 km/h
768 07-08-2008 07:28:02 18.6 C 11.94 g/m*3 18.6 C 0 km/h
769 07-08-2008 07:40:02 18.8 C 12.08 g/m*3 18.8 C 0 km/h
770 07-08-2008 07:52:02 19.1 C 11.97 g/m*3 19.1 C 0 km/h
771 07-08-2008 08:04:02 19.2 C 12.04 g/m*3 19.2 C 0 km/h
772 07-08-2008 08:16:02 19.6 C 12.15 g/m*3 19.6 C 0 km/h
773 07-08-2008 08:28:02 19.9 C 12.2 g/m*3 19.9 C 0 km/h
774 07-08-2008 08:40:02 20.3 C 12.14 g/m*3 20.3 C 0 km/h
775 07-08-2008 08:52:02 20.9 C 12.38 g/m*3 20.9 C 0 km/h
Sensor: Nr:Datum:Temp:Abs-Feuchte:Windchill:Wind:
Aussen-T/F 776 07-08-2008 09:04:02 21.6 C 12.52 g/m*3 21.6 C 0 km/h
777 07-08-2008 09:16:02 22.5 C 12.58 g/m*3 22.5 C 0 km/h
778 07-08-2008 09:28:02 23 C 12.33 g/m*3 23 C 0 km/h
779 07-08-2008 09:40:02 23.7 C 12.62 g/m*3 23.7 C 0 km/h
780 07-08-2008 09:52:03 24.2 C 12.54 g/m*3 24.2 C 0 km/h
781 07-08-2008 10:04:02 24.7 C 12.22 g/m*3 24.7 C 0 km/h
782 07-08-2008 10:16:02 25.3 C 11.47 g/m*3 25.3 C 0 km/h
783 07-08-2008 10:28:02 26.2 C 11.32 g/m*3 26.2 C 0 km/h
784 07-08-2008 10:40:02 26.8 C 11.45 g/m*3 26.8 C 0 km/h
785 07-08-2008 10:52:02 27.2 C 11.19 g/m*3 27.2 C 0 km/h
786 07-08-2008 11:04:02 27.4 C 11.31 g/m*3 27.4 C 0 km/h
787 07-08-2008 11:16:02 28 C 11.42 g/m*3 28 C 0 km/h
788 07-08-2008 11:28:02 28.3 C 11.06 g/m*3 28.3 C 0 km/h
789 07-08-2008 11:40:02 28.3 C 11.33 g/m*3 28.3 C 0 km/h
790 07-08-2008 11:52:02 28.7 C 10.74 g/m*3 28.7 C 0 km/h
791 07-08-2008 12:04:02 29.1 C 10.69 g/m*3 29.1 C 0 km/h
792 07-08-2008 12:16:02 29.1 C 10.69 g/m*3 29.1 C 0 km/h
793 07-08-2008 12:28:02 28.7 C 10.74 g/m*3 28.7 C 0 km/h
794 07-08-2008 12:40:02 29.3 C 10.51 g/m*3 29.3 C 0 km/h
795 07-08-2008 12:52:02 29.9 C 10.56 g/m*3 29.9 C 0 km/h
796 07-08-2008 13:04:02 30.4 C 10.54 g/m*3 30.4 C 0 km/h
797 07-08-2008 13:16:02 30.6 C 10.02 g/m*3 30.6 C 0 km/h
798 07-08-2008 13:28:02 30.4 C 10.23 g/m*3 30.4 C 0 km/h
799 07-08-2008 13:40:02 29.6 C 10.09 g/m*3 29.6 C 0 km/h
800 07-08-2008 13:52:01 29.8 C 10.5 g/m*3 29.8 C 0 km/h
Sensor: Nr:Datum:Temp:Abs-Feuchte:Windchill:Wind:
Aussen-T/F 801 07-08-2008 14:04:02 29.4 C 10.57 g/m*3 29.4 C 0 km/h
802 07-08-2008 14:16:01 29.8 C 10.5 g/m*3 29.8 C 0 km/h
803 07-08-2008 14:28:01 28.8 C 10.51 g/m*3 28.8 C 0 km/h
804 07-08-2008 14:40:02 28.1 C 10.39 g/m*3 28.1 C 0 km/h
805 07-08-2008 14:52:02 28.4 C 10.56 g/m*3 28.4 C 0 km/h
806 07-08-2008 15:04:02 28 C 10.33 g/m*3 28 C 0 km/h
807 07-08-2008 15:16:02 28.2 C 10.72 g/m*3 28.2 C 0 km/h
808 07-08-2008 15:28:02 28.5 C 10.34 g/m*3 28.5 C 0 km/h
809 07-08-2008 15:40:02 29.2 C 9.87 g/m*3 29.2 C 0 km/h
810 07-08-2008 15:52:01 29.1 C 9.24 g/m*3 29.1 C 0 km/h
811 07-08-2008 16:04:02 29.3 C 9.63 g/m*3 29.3 C 0 km/h
812 07-08-2008 16:16:01 28.7 C 9.89 g/m*3 28.7 C 0 km/h
813 07-08-2008 16:28:01 29.3 C 9.63 g/m*3 29.3 C 0 km/h
814 07-08-2008 16:40:02 29.4 C 9.39 g/m*3 29.4 C 0 km/h
815 07-08-2008 16:52:02 30.4 C 9.3 g/m*3 30.4 C 0 km/h
816 07-08-2008 17:04:01 30.7 C 9.13 g/m*3 30.7 C 0 km/h
817 07-08-2008 17:16:02 30.1 C 8.84 g/m*3 30.1 C 0 km/h
818 07-08-2008 17:28:02 29.4 C 8.81 g/m*3 29.4 C 0 km/h
819 07-08-2008 17:40:01 29.4 C 8.81 g/m*3 29.4 C 0 km/h
820 07-08-2008 17:52:02 28.7 C 8.48 g/m*3 28.7 C 0 km/h
821 07-08-2008 18:04:01 30.1 C 8.54 g/m*3 30.1 C 0 km/h
822 07-08-2008 18:16:02 29.9 C 8.14 g/m*3 29.9 C 0 km/h
823 07-08-2008 18:28:03 28.8 C 8.52 g/m*3 28.8 C 0 km/h
824 07-08-2008 18:40:01 28.6 C 8.71 g/m*3 28.6 C 0 km/h
825 07-08-2008 18:52:02 28.5 C 8.66 g/m*3 28.5 C 0 km/h
Sensor: Nr:Datum:Temp:Abs-Feuchte:Windchill:Wind:
Aussen-T/F 826 07-08-2008 19:04:01 28.3 C 8.57 g/m*3 28.3 C 0 km/h
827 07-08-2008 19:16:02 27.7 C 8.56 g/m*3 27.7 C 0 km/h
828 07-08-2008 19:28:02 27.1 C 8.54 g/m*3 27.1 C 0 km/h
829 07-08-2008 19:40:01 26.9 C 8.96 g/m*3 26.9 C 0 km/h
830 07-08-2008 19:52:02 26.6 C 9.06 g/m*3 26.6 C 0 km/h
831 07-08-2008 20:04:02 26.7 C 9.11 g/m*3 26.7 C 0 km/h
832 07-08-2008 20:16:02 27.2 C 8.85 g/m*3 27.2 C 0 km/h
833 07-08-2008 20:28:02 26.1 C 8.81 g/m*3 26.1 C 0 km/h
834 07-08-2008 20:40:02 25.4 C 8.71 g/m*3 25.4 C 0 km/h
835 07-08-2008 20:52:02 24.8 C 8.42 g/m*3 24.8 C 0 km/h
836 07-08-2008 21:04:02 24.6 C 8.33 g/m*3 24.6 C 0 km/h
837 07-08-2008 21:16:02 24.3 C 8.41 g/m*3 24.3 C 0 km/h
838 07-08-2008 21:28:02 24 C 8.49 g/m*3 24 C 0 km/h
839 07-08-2008 21:40:02 23.7 C 8.77 g/m*3 23.7 C 0 km/h
840 07-08-2008 21:52:02 23.4 C 8.83 g/m*3 23.4 C 0 km/h
841 07-08-2008 22:04:02 23.3 C 8.78 g/m*3 23.3 C 0 km/h
842 07-08-2008 22:17:02 23.3 C 8.57 g/m*3 23.3 C 0 km/h
843 07-08-2008 22:29:02 23.1 C 8.27 g/m*3 23.1 C 0 km/h
844 07-08-2008 22:41:02 23 C 8.43 g/m*3 23 C 0 km/h
845 07-08-2008 22:53:02 20.4 C 10.79 g/m*3 20.4 C 0 km/h
846 07-08-2008 23:05:02 19.2 C 12.7 g/m*3 19.2 C 0 km/h
847 07-08-2008 23:17:02 18.5 C 12.82 g/m*3 18.5 C 0 km/h
848 07-08-2008 23:29:01 17.9 C 12.67 g/m*3 17.9 C 0 km/h
849 07-08-2008 23:41:01 17.8 C 12.9 g/m*3 17.8 C 0 km/h
850 07-08-2008 23:53:02 17.9 C 12.98 g/m*3 17.9 C 0 km/h
Sensor: Nr:Datum:Temp:Abs-Feuchte:Windchill:Wind:
Aussen-T/F 851 08-08-2008 00:05:02 18.2 C 13.06 g/m*3 18.2 C 0 km/h
852 08-08-2008 00:17:02 18.2 C 12.9 g/m*3 18.2 C 0 km/h
853 08-08-2008 00:29:02 17.9 C 12.67 g/m*3 17.9 C 0 km/h
854 08-08-2008 00:41:02 17.8 C 12.6 g/m*3 17.8 C 0 km/h
855 08-08-2008 00:53:03 17.7 C 12.52 g/m*3 17.7 C 0 km/h
856 08-08-2008 01:05:03 17.6 C 12.45 g/m*3 17.6 C 0 km/h
857 08-08-2008 01:17:03 17.6 C 12.45 g/m*3 17.6 C 0 km/h
858 08-08-2008 01:41:03 17.7 C 12.37 g/m*3 17.7 C 0 km/h
859 08-08-2008 01:53:03 17.7 C 12.37 g/m*3 17.7 C 0 km/h
860 08-08-2008 02:05:03 17.7 C 12.22 g/m*3 17.7 C 0 km/h
861 08-08-2008 02:29:03 17.8 C 12.45 g/m*3 17.8 C 0 km/h
862 08-08-2008 02:41:04 17.7 C 12.37 g/m*3 17.7 C 0 km/h
863 08-08-2008 02:53:04 17.7 C 12.37 g/m*3 17.7 C 0 km/h
864 08-08-2008 03:05:34 17.6 C 12.3 g/m*3 17.6 C 0 km/h
865 08-08-2008 03:17:34 17.7 C 12.37 g/m*3 17.7 C 0 km/h
866 08-08-2008 03:29:34 17.7 C 12.37 g/m*3 17.7 C 0 km/h
867 08-08-2008 03:41:04 17.7 C 12.37 g/m*3 17.7 C 0 km/h
868 08-08-2008 03:53:05 17.8 C 12.29 g/m*3 17.8 C 0 km/h
869 08-08-2008 04:05:05 18.1 C 12.05 g/m*3 18.1 C 0 km/h
870 08-08-2008 04:17:35 18 C 11.83 g/m*3 18 C 0 km/h
871 08-08-2008 04:29:35 17.9 C 11.76 g/m*3 17.9 C 0 km/h
872 08-08-2008 04:41:02 17.9 C 11.6 g/m*3 17.9 C 0 km/h
873 08-08-2008 04:53:02 17.7 C 11.47 g/m*3 17.7 C 0 km/h
874 08-08-2008 05:05:02 17.7 C 11.47 g/m*3 17.7 C 0 km/h
875 08-08-2008 05:17:02 17.7 C 11.47 g/m*3 17.7 C 0 km/h
Sensor: Nr:Datum:Temp:Abs-Feuchte:Windchill:Wind:
Aussen-T/F 876 08-08-2008 05:29:01 17.6 C 11.55 g/m*3 17.6 C 0 km/h
877 08-08-2008 05:41:01 17.7 C 11.47 g/m*3 17.7 C 0 km/h
878 08-08-2008 05:53:02 17.7 C 11.32 g/m*3 17.7 C 0 km/h
879 08-08-2008 06:05:02 17.6 C 11.25 g/m*3 17.6 C 0 km/h
880 08-08-2008 06:17:02 17.7 C 11.16 g/m*3 17.7 C 0 km/h
881 08-08-2008 06:29:02 17.8 C 11.23 g/m*3 17.8 C 0 km/h
882 08-08-2008 06:41:02 17.7 C 11.47 g/m*3 17.7 C 0 km/h
883 08-08-2008 06:53:33 17.1 C 11.65 g/m*3 17.1 C 0 km/h
884 08-08-2008 07:05:33 17.2 C 11.72 g/m*3 17.2 C 0 km/h
885 08-08-2008 07:17:33 17.7 C 11.62 g/m*3 17.7 C 0 km/h
886 08-08-2008 07:29:33 18 C 11.21 g/m*3 18 C 0 km/h
887 08-08-2008 07:41:33 17.7 C 11.16 g/m*3 17.7 C 0 km/h
888 08-08-2008 07:53:33 16.6 C 11.72 g/m*3 16.6 C 0 km/h
889 08-08-2008 08:17:34 16.3 C 11.93 g/m*3 16.3 C 0 km/h
890 08-08-2008 08:29:34 16.6 C 12.29 g/m*3 16.6 C 0 km/h
891 08-08-2008 08:41:34 16.9 C 12.37 g/m*3 16.9 C 0 km/h
892 08-08-2008 09:05:34 17 C 11.72 g/m*3 17 C 0 km/h
893 08-08-2008 09:17:34 17 C 11.87 g/m*3 17 C 0 km/h
894 08-08-2008 09:29:34 16.8 C 11.87 g/m*3 16.8 C 0 km/h
895 08-08-2008 09:41:03 17.2 C 12.15 g/m*3 17.2 C 0 km/h
896 08-08-2008 09:53:03 17.5 C 12.08 g/m*3 17.5 C 0 km/h
897 08-08-2008 10:05:03 17.7 C 11.92 g/m*3 17.7 C 0 km/h
898 08-08-2008 10:17:02 17.7 C 11.62 g/m*3 17.7 C 0 km/h
899 08-08-2008 10:29:02 17.8 C 11.84 g/m*3 17.8 C 0 km/h
900 08-08-2008 10:41:02 18.2 C 11.81 g/m*3 18.2 C 0 km/h
Sensor: Nr:Datum:Temp:Abs-Feuchte:Windchill:Wind:
Aussen-T/F 901 08-08-2008 10:53:02 18.5 C 11.55 g/m*3 18.5 C 0 km/h
902 08-08-2008 11:05:02 18.8 C 11.76 g/m*3 18.8 C 0 km/h
903 08-08-2008 11:17:03 19.4 C 11.85 g/m*3 19.4 C 0 km/h
904 08-08-2008 11:29:03 20.3 C 11.78 g/m*3 20.3 C 0 km/h
905 08-08-2008 11:41:02 20.9 C 11.47 g/m*3 20.9 C 0 km/h
906 08-08-2008 11:53:02 21.9 C 11 g/m*3 21.9 C 0 km/h
907 08-08-2008 12:05:02 21.7 C 10.68 g/m*3 21.7 C 0 km/h
908 08-08-2008 12:17:03 21.4 C 10.87 g/m*3 21.4 C 0 km/h
909 08-08-2008 12:29:03 21.7 C 11.06 g/m*3 21.7 C 0 km/h
910 08-08-2008 12:41:02 16.9 C 10.64 g/m*3 16.9 C 0 km/h
911 08-08-2008 12:53:02 16 C 11.44 g/m*3 16 C 0 km/h
912 08-08-2008 13:05:02 17.8 C 13.2 g/m*3 17.8 C 0 km/h
913 08-08-2008 13:17:02 19.2 C 13.85 g/m*3 19.2 C 0 km/h
914 08-08-2008 13:29:02 20.9 C 13.11 g/m*3 20.9 C 0 km/h
915 08-08-2008 13:41:02 21.8 C 12.28 g/m*3 21.8 C 0 km/h
916 08-08-2008 13:53:01 20.8 C 13.04 g/m*3 20.8 C 0 km/h
917 08-08-2008 14:05:02 20.4 C 13.27 g/m*3 20.4 C 0 km/h
918 08-08-2008 14:17:02 20.3 C 14.07 g/m*3 20.3 C 0 km/h
919 08-08-2008 14:29:02 21.1 C 13.82 g/m*3 21.1 C 0 km/h
920 08-08-2008 14:41:02 22 C 13.78 g/m*3 22 C 0 km/h
921 08-08-2008 14:53:02 22.7 C 12.73 g/m*3 22.7 C 0 km/h
922 08-08-2008 15:05:02 21.7 C 12.02 g/m*3 21.7 C 0 km/h
923 08-08-2008 15:17:02 19.2 C 11.71 g/m*3 19.2 C 0 km/h
924 08-08-2008 15:29:03 20 C 12.96 g/m*3 20 C 0 km/h
925 08-08-2008 15:41:03 21.9 C 11.77 g/m*3 21.9 C 0 km/h
Sensor: Nr:Datum:Temp:Abs-Feuchte:Windchill:Wind:
Aussen-T/F 926 08-08-2008 15:53:03 22.1 C 11.52 g/m*3 22.1 C 0 km/h
927 08-08-2008 16:05:03 21.1 C 9.58 g/m*3 21.1 C 0 km/h
928 08-08-2008 16:17:02 21.1 C 9.95 g/m*3 21.1 C 0 km/h
929 08-08-2008 16:29:02 22.7 C 9.7 g/m*3 22.7 C 0 km/h
930 08-08-2008 16:41:02 22.1 C 9.17 g/m*3 22.1 C 0 km/h
931 08-08-2008 16:53:01 21.6 C 9.48 g/m*3 21.6 C 0 km/h
932 08-08-2008 17:05:01 21.8 C 9.21 g/m*3 21.8 C 0 km/h
933 08-08-2008 17:17:01 21.8 C 9.4 g/m*3 21.8 C 0 km/h
934 08-08-2008 17:29:01 21.4 C 9.19 g/m*3 21.4 C 0 km/h
935 08-08-2008 17:41:01 19.7 C 9.85 g/m*3 19.7 C 0 km/h
936 08-08-2008 17:53:02 18.7 C 11.05 g/m*3 18.7 C 0 km/h
937 08-08-2008 18:05:02 18.9 C 11.66 g/m*3 18.9 C 0 km/h
938 08-08-2008 18:17:02 19.5 C 11.24 g/m*3 19.5 C 0 km/h
939 08-08-2008 18:29:02 19.5 C 10.74 g/m*3 19.5 C 0 km/h
940 08-08-2008 18:41:02 19.4 C 10.51 g/m*3 19.4 C 0 km/h
941 08-08-2008 18:53:28 19.3 C 10.28 g/m*3 19.3 C 0 km/h
942 08-08-2008 19:05:02 19.4 C 10.34 g/m*3 19.4 C 0 km/h
943 08-08-2008 19:17:03 19.4 C 10.34 g/m*3 19.4 C 0 km/h
944 08-08-2008 19:29:03 19.3 C 10.28 g/m*3 19.3 C 0 km/h
945 08-08-2008 19:41:03 19.3 C 10.12 g/m*3 19.3 C 0 km/h
946 08-08-2008 19:53:02 19.3 C 10.12 g/m*3 19.3 C 0 km/h
947 08-08-2008 20:05:03 19 C 10.27 g/m*3 19 C 0 km/h
948 08-08-2008 20:17:02 17.8 C 11.08 g/m*3 17.8 C 0 km/h
949 08-08-2008 20:29:02 17.5 C 11.18 g/m*3 17.5 C 0 km/h
950 08-08-2008 20:41:03 16.8 C 11.58 g/m*3 16.8 C 0 km/h
Sensor: Nr:Datum:Temp:Abs-Feuchte:Windchill:Wind:
Aussen-T/F 951 08-08-2008 20:53:02 16.5 C 11.8 g/m*3 16.5 C 0 km/h
952 08-08-2008 21:05:02 16.4 C 12 g/m*3 16.4 C 0 km/h
953 08-08-2008 21:17:02 16.3 C 12.07 g/m*3 16.3 C 0 km/h
954 08-08-2008 21:29:01 16.3 C 12.21 g/m*3 16.3 C 0 km/h
955 08-08-2008 21:41:01 16.5 C 12.22 g/m*3 16.5 C 0 km/h
956 08-08-2008 21:54:01 16.6 C 12.15 g/m*3 16.6 C 0 km/h
957 08-08-2008 22:06:01 16.7 C 12.08 g/m*3 16.7 C 0 km/h
958 08-08-2008 22:18:01 16.7 C 11.94 g/m*3 16.7 C 0 km/h
959 08-08-2008 22:30:01 16.8 C 11.87 g/m*3 16.8 C 0 km/h
960 08-08-2008 22:42:01 16.4 C 11.58 g/m*3 16.4 C 0 km/h
961 08-08-2008 22:54:01 16.1 C 11.93 g/m*3 16.1 C 0 km/h
962 08-08-2008 23:06:01 16 C 11.99 g/m*3 16 C 0 km/h
963 08-08-2008 23:18:01 16 C 12.13 g/m*3 16 C 0 km/h
964 08-08-2008 23:30:02 16.1 C 12.34 g/m*3 16.1 C 0 km/h
965 08-08-2008 23:42:02 16.2 C 12.41 g/m*3 16.2 C 0 km/h
966 08-08-2008 23:54:02 16.1 C 12.2 g/m*3 16.1 C 0 km/h
967 09-08-2008 00:06:02 16 C 11.99 g/m*3 16 C 0 km/h
968 09-08-2008 00:18:02 16.1 C 12.06 g/m*3 16.1 C 0 km/h
969 09-08-2008 00:30:02 16.2 C 12 g/m*3 16.2 C 0 km/h
970 09-08-2008 00:42:02 16.2 C 11.86 g/m*3 16.2 C 0 km/h
971 09-08-2008 00:54:02 16.1 C 11.65 g/m*3 16.1 C 0 km/h
972 09-08-2008 01:06:02 15.9 C 11.51 g/m*3 15.9 C 0 km/h
973 09-08-2008 01:18:02 15.7 C 11.37 g/m*3 15.7 C 0 km/h
974 09-08-2008 01:30:02 15.4 C 11.3 g/m*3 15.4 C 0 km/h
975 09-08-2008 01:42:02 15.1 C 11.09 g/m*3 15.1 C 0 km/h
Sensor: Nr:Datum:Temp:Abs-Feuchte:Windchill:Wind:
Aussen-T/F 976 09-08-2008 01:54:02 14.9 C 11.22 g/m*3 14.9 C 0 km/h
977 09-08-2008 02:06:02 14.9 C 11.22 g/m*3 14.9 C 0 km/h
978 09-08-2008 02:18:02 14.7 C 11.08 g/m*3 14.7 C 0 km/h
979 09-08-2008 02:30:02 14.5 C 10.94 g/m*3 14.5 C 0 km/h
980 09-08-2008 02:42:02 14.5 C 10.94 g/m*3 14.5 C 0 km/h
981 09-08-2008 02:54:02 14.4 C 10.88 g/m*3 14.4 C 0 km/h
982 09-08-2008 03:06:02 14.4 C 10.88 g/m*3 14.4 C 0 km/h
983 09-08-2008 03:18:03 14.5 C 10.7 g/m*3 14.5 C 0 km/h
984 09-08-2008 03:30:03 14.5 C 10.32 g/m*3 14.5 C 0 km/h
985 09-08-2008 03:42:03 14.4 C 10.26 g/m*3 14.4 C 0 km/h
986 09-08-2008 03:54:03 14.4 C 10.26 g/m*3 14.4 C 0 km/h
987 09-08-2008 04:06:03 14.5 C 10.45 g/m*3 14.5 C 0 km/h
988 09-08-2008 04:18:03 14.5 C 10.45 g/m*3 14.5 C 0 km/h
989 09-08-2008 04:30:03 14.5 C 10.57 g/m*3 14.5 C 0 km/h
990 09-08-2008 04:42:03 14.6 C 10.64 g/m*3 14.6 C 0 km/h
991 09-08-2008 04:54:03 14.6 C 10.64 g/m*3 14.6 C 0 km/h
992 09-08-2008 05:06:03 14.7 C 10.58 g/m*3 14.7 C 0 km/h
993 09-08-2008 05:18:03 14.6 C 10.51 g/m*3 14.6 C 0 km/h
994 09-08-2008 05:30:03 14.6 C 10.51 g/m*3 14.6 C 0 km/h
995 09-08-2008 05:42:03 14.6 C 10.39 g/m*3 14.6 C 0 km/h
996 09-08-2008 05:54:03 14.7 C 10.2 g/m*3 14.7 C 0 km/h
997 09-08-2008 06:06:03 14.7 C 10.07 g/m*3 14.7 C 0 km/h
998 09-08-2008 06:18:03 14.9 C 9.81 g/m*3 14.9 C 0 km/h
999 09-08-2008 06:30:03 14.9 C 9.69 g/m*3 14.9 C 0 km/h
1000 09-08-2008 06:42:03 14.9 C 9.69 g/m*3 14.9 C 0 km/h
Sensor: Nr:Datum:Temp:Abs-Feuchte:Windchill:Wind:
Aussen-T/F 1001 09-08-2008 06:54:03 15 C 9.87 g/m*3 15 C 0 km/h
1002 09-08-2008 07:06:03 15 C 9.75 g/m*3 15 C 0 km/h
1003 09-08-2008 07:18:04 14.9 C 9.43 g/m*3 14.9 C 0 km/h
1004 09-08-2008 07:30:04 14.8 C 9.37 g/m*3 14.8 C 0 km/h
1005 09-08-2008 07:42:04 15 C 9.36 g/m*3 15 C 0 km/h
1006 09-08-2008 07:54:04 15.1 C 9.29 g/m*3 15.1 C 0 km/h
1007 09-08-2008 08:06:02 14.7 C 9.19 g/m*3 14.7 C 0 km/h
1008 09-08-2008 08:18:02 14.7 C 9.44 g/m*3 14.7 C 0 km/h
1009 09-08-2008 08:30:02 15.1 C 9.42 g/m*3 15.1 C 0 km/h
1010 09-08-2008 08:42:01 15.7 C 9.1 g/m*3 15.7 C 0 km/h
1011 09-08-2008 08:54:02 16.2 C 9.38 g/m*3 16.2 C 0 km/h
1012 09-08-2008 09:06:02 16.3 C 9.02 g/m*3 16.3 C 0 km/h
1013 09-08-2008 09:18:02 16.3 C 9.43 g/m*3 16.3 C 0 km/h
1014 09-08-2008 09:30:02 16.8 C 9.72 g/m*3 16.8 C 0 km/h
1015 09-08-2008 09:42:02 17.1 C 9.17 g/m*3 17.1 C 0 km/h
1016 09-08-2008 09:54:02 16.6 C 9.04 g/m*3 16.6 C 0 km/h
1017 09-08-2008 10:06:02 17.6 C 8.85 g/m*3 17.6 C 0 km/h
1018 09-08-2008 10:18:01 17.9 C 8.09 g/m*3 17.9 C 0 km/h
1019 09-08-2008 10:30:01 18.1 C 7.73 g/m*3 18.1 C 0 km/h
1020 09-08-2008 10:42:02 18.5 C 7.91 g/m*3 18.5 C 0 km/h
1021 09-08-2008 10:54:02 18.6 C 6.84 g/m*3 18.6 C 0 km/h
1022 09-08-2008 11:06:02 19 C 7.66 g/m*3 19 C 0 km/h
1023 09-08-2008 11:18:02 20.2 C 6.64 g/m*3 20.2 C 0 km/h
1024 09-08-2008 11:30:02 19.9 C 7.22 g/m*3 19.9 C 0 km/h
1025 09-08-2008 11:42:02 20.4 C 6.72 g/m*3 20.4 C 0 km/h
Sensor: Nr:Datum:Temp:Abs-Feuchte:Windchill:Wind:
Aussen-T/F 1026 09-08-2008 11:54:02 20.7 C 6.48 g/m*3 20.7 C 0 km/h
1027 09-08-2008 12:06:01 20.9 C 6.19 g/m*3 20.9 C 0 km/h
1028 09-08-2008 12:18:02 21.9 C 6.18 g/m*3 21.9 C 0 km/h
1029 09-08-2008 12:30:02 22.5 C 6.19 g/m*3 22.5 C 0 km/h
1030 09-08-2008 12:42:01 21.5 C 6.03 g/m*3 21.5 C 0 km/h
1031 09-08-2008 12:54:02 22.3 C 5.73 g/m*3 22.3 C 0 km/h
1032 09-08-2008 13:06:01 22.4 C 5.56 g/m*3 22.4 C 0 km/h
1033 09-08-2008 13:18:02 23.1 C 5.37 g/m*3 23.1 C 0 km/h
1034 09-08-2008 13:30:02 23.5 C 5.29 g/m*3 23.5 C 0 km/h
1035 09-08-2008 13:42:01 23.5 C 5.5 g/m*3 23.5 C 0 km/h
1036 09-08-2008 13:54:03 22.9 C 5.11 g/m*3 22.9 C 0 km/h
1037 09-08-2008 14:06:02 23.2 C 5.61 g/m*3 23.2 C 0 km/h
1038 09-08-2008 14:18:03 23 C 5.34 g/m*3 23 C 0 km/h
1039 09-08-2008 14:30:03 23.2 C 5.2 g/m*3 23.2 C 0 km/h
1040 09-08-2008 14:42:02 24.4 C 5.56 g/m*3 24.4 C 0 km/h
1041 09-08-2008 14:54:02 25.2 C 5.12 g/m*3 25.2 C 0 km/h
1042 09-08-2008 15:06:03 24.3 C 5.53 g/m*3 24.3 C 0 km/h
1043 09-08-2008 15:18:03 24.9 C 5.72 g/m*3 24.9 C 0 km/h
1044 09-08-2008 15:30:03 25.6 C 5.48 g/m*3 25.6 C 0 km/h
1045 09-08-2008 15:42:03 26.1 C 5.63 g/m*3 26.1 C 0 km/h
1046 09-08-2008 15:54:02 26.1 C 5.39 g/m*3 26.1 C 0 km/h
1047 09-08-2008 16:06:03 25.9 C 5.33 g/m*3 25.9 C 0 km/h
1048 09-08-2008 16:18:02 25.9 C 6.05 g/m*3 25.9 C 0 km/h
1049 09-08-2008 16:30:02 25.4 C 5.65 g/m*3 25.4 C 0 km/h
1050 09-08-2008 16:42:03 24.8 C 5.92 g/m*3 24.8 C 0 km/h
Sensor: Nr:Datum:Temp:Abs-Feuchte:Windchill:Wind:
Aussen-T/F 1051 09-08-2008 16:54:03 24.8 C 5.92 g/m*3 24.8 C 0 km/h
1052 09-08-2008 17:06:02 26.3 C 5.94 g/m*3 26.3 C 0 km/h
1053 09-08-2008 17:18:02 26.4 C 5.48 g/m*3 26.4 C 0 km/h
1054 09-08-2008 17:30:02 25.4 C 5.89 g/m*3 25.4 C 0 km/h
1055 09-08-2008 17:42:02 24.9 C 5.95 g/m*3 24.9 C 0 km/h
1056 09-08-2008 17:54:01 26 C 6.09 g/m*3 26 C 0 km/h
1057 09-08-2008 18:06:02 26.2 C 6.15 g/m*3 26.2 C 0 km/h
1058 09-08-2008 18:18:01 25.2 C 6.05 g/m*3 25.2 C 0 km/h
1059 09-08-2008 18:30:01 25 C 6.22 g/m*3 25 C 0 km/h
1060 09-08-2008 18:42:02 25.9 C 6.29 g/m*3 25.9 C 0 km/h
1061 09-08-2008 18:54:01 25.8 C 6.74 g/m*3 25.8 C 0 km/h
1062 09-08-2008 19:06:02 25.3 C 6.79 g/m*3 25.3 C 0 km/h
1063 09-08-2008 19:18:02 24.9 C 7.1 g/m*3 24.9 C 0 km/h
1064 09-08-2008 19:30:02 23.9 C 7.14 g/m*3 23.9 C 0 km/h
1065 09-08-2008 19:42:01 23.8 C 7.1 g/m*3 23.8 C 0 km/h
1066 09-08-2008 19:54:01 23.3 C 7.32 g/m*3 23.3 C 0 km/h
1067 09-08-2008 20:06:02 22.9 C 7.56 g/m*3 22.9 C 0 km/h
1068 09-08-2008 20:18:01 22.3 C 7.7 g/m*3 22.3 C 0 km/h
1069 09-08-2008 20:30:01 21.6 C 7.78 g/m*3 21.6 C 0 km/h
1070 09-08-2008 20:42:02 21 C 7.69 g/m*3 21 C 0 km/h
1071 09-08-2008 20:54:02 20.7 C 8.1 g/m*3 20.7 C 0 km/h
1072 09-08-2008 21:06:02 20 C 7.95 g/m*3 20 C 0 km/h
1073 09-08-2008 21:18:02 19.9 C 8.25 g/m*3 19.9 C 0 km/h
1074 09-08-2008 21:30:02 19.8 C 8.2 g/m*3 19.8 C 0 km/h
1075 09-08-2008 21:42:02 19.6 C 8.27 g/m*3 19.6 C 0 km/h
Sensor: Nr:Datum:Temp:Abs-Feuchte:Windchill:Wind:
Aussen-T/F 1076 09-08-2008 21:54:02 19.5 C 8.39 g/m*3 19.5 C 0 km/h
1077 09-08-2008 22:06:01 19.3 C 8.63 g/m*3 19.3 C 0 km/h
1078 09-08-2008 22:18:02 19 C 8.8 g/m*3 19 C 0 km/h
1079 09-08-2008 22:30:02 19 C 8.8 g/m*3 19 C 0 km/h
1080 09-08-2008 22:42:01 18.9 C 9.23 g/m*3 18.9 C 0 km/h
1081 09-08-2008 22:54:02 18.9 C 9.23 g/m*3 18.9 C 0 km/h
1082 09-08-2008 23:06:01 18.8 C 9.34 g/m*3 18.8 C 0 km/h
1083 09-08-2008 23:18:02 18.7 C 9.13 g/m*3 18.7 C 0 km/h
1084 09-08-2008 23:30:02 18.4 C 9.28 g/m*3 18.4 C 0 km/h
1085 09-08-2008 23:43:02 18.2 C 9.33 g/m*3 18.2 C 0 km/h
1086 09-08-2008 23:55:02 18 C 9.37 g/m*3 18 C 0 km/h
1087 10-08-2008 00:07:02 17.8 C 9.56 g/m*3 17.8 C 0 km/h
1088 10-08-2008 00:19:02 17.7 C 9.51 g/m*3 17.7 C 0 km/h
1089 10-08-2008 00:31:02 17.7 C 9.51 g/m*3 17.7 C 0 km/h
1090 10-08-2008 00:43:02 17.9 C 9.77 g/m*3 17.9 C 0 km/h
1091 10-08-2008 00:55:02 17.9 C 9.77 g/m*3 17.9 C 0 km/h
1092 10-08-2008 01:07:02 18 C 9.68 g/m*3 18 C 0 km/h
1093 10-08-2008 01:19:02 18.1 C 9.73 g/m*3 18.1 C 0 km/h
1094 10-08-2008 01:31:02 17.9 C 9.77 g/m*3 17.9 C 0 km/h
1095 10-08-2008 01:43:02 17.9 C 9.92 g/m*3 17.9 C 0 km/h
1096 10-08-2008 01:55:02 18 C 9.83 g/m*3 18 C 0 km/h
1097 10-08-2008 02:07:02 17.9 C 10.08 g/m*3 17.9 C 0 km/h
1098 10-08-2008 02:19:02 17.7 C 10.11 g/m*3 17.7 C 0 km/h
1099 10-08-2008 02:31:02 18 C 10.14 g/m*3 18 C 0 km/h
1100 10-08-2008 02:43:02 18.1 C 9.73 g/m*3 18.1 C 0 km/h
Sensor: Nr:Datum:Temp:Abs-Feuchte:Windchill:Wind:
Aussen-T/F 1101 10-08-2008 02:55:02 18.3 C 9.85 g/m*3 18.3 C 0 km/h
1102 10-08-2008 03:07:02 18.3 C 9.69 g/m*3 18.3 C 0 km/h
1103 10-08-2008 03:19:03 18.2 C 9.79 g/m*3 18.2 C 0 km/h
1104 10-08-2008 03:31:03 18.2 C 9.79 g/m*3 18.2 C 0 km/h
1105 10-08-2008 03:43:03 18.2 C 9.64 g/m*3 18.2 C 0 km/h
1106 10-08-2008 03:55:03 17.7 C 10.11 g/m*3 17.7 C 0 km/h
1107 10-08-2008 04:07:03 17.6 C 10.2 g/m*3 17.6 C 0 km/h
1108 10-08-2008 04:19:03 18 C 9.68 g/m*3 18 C 0 km/h
1109 10-08-2008 04:31:03 17.9 C 9.77 g/m*3 17.9 C 0 km/h
1110 10-08-2008 04:43:03 18 C 9.68 g/m*3 18 C 0 km/h
1111 10-08-2008 04:55:03 18 C 9.68 g/m*3 18 C 0 km/h
1112 10-08-2008 05:07:03 18 C 9.68 g/m*3 18 C 0 km/h
1113 10-08-2008 05:19:03 17.9 C 9.47 g/m*3 17.9 C 0 km/h
1114 10-08-2008 05:31:03 17.9 C 9.47 g/m*3 17.9 C 0 km/h
1115 10-08-2008 05:43:03 17.9 C 9.47 g/m*3 17.9 C 0 km/h
1116 10-08-2008 05:55:03 18.2 C 9.33 g/m*3 18.2 C 0 km/h
1117 10-08-2008 06:07:03 18.2 C 9.33 g/m*3 18.2 C 0 km/h
1118 10-08-2008 06:19:03 18.2 C 9.17 g/m*3 18.2 C 0 km/h
1119 10-08-2008 06:31:03 18.1 C 9.27 g/m*3 18.1 C 0 km/h
1120 10-08-2008 06:43:03 17.5 C 9.99 g/m*3 17.5 C 0 km/h
1121 10-08-2008 06:55:03 17.7 C 10.26 g/m*3 17.7 C 0 km/h
1122 10-08-2008 07:07:04 17.9 C 10.08 g/m*3 17.9 C 0 km/h
1123 10-08-2008 07:19:04 18.1 C 9.89 g/m*3 18.1 C 0 km/h
1124 10-08-2008 07:31:04 18.1 C 9.89 g/m*3 18.1 C 0 km/h
1125 10-08-2008 07:43:04 18.4 C 9.75 g/m*3 18.4 C 0 km/h
Sensor: Nr:Datum:Temp:Abs-Feuchte:Windchill:Wind:
Aussen-T/F 1126 10-08-2008 07:55:04 18.8 C 9.66 g/m*3 18.8 C 0 km/h
1127 10-08-2008 08:07:04 19.2 C 9.07 g/m*3 19.2 C 0 km/h
1128 10-08-2008 08:19:04 19.4 C 9.01 g/m*3 19.4 C 0 km/h
1129 10-08-2008 08:31:04 19.5 C 9.06 g/m*3 19.5 C 0 km/h
1130 10-08-2008 08:43:04 19.7 C 9 g/m*3 19.7 C 0 km/h
1131 10-08-2008 08:55:04 19.9 C 8.93 g/m*3 19.9 C 0 km/h
1132 10-08-2008 09:07:02 19.9 C 9.11 g/m*3 19.9 C 0 km/h
1133 10-08-2008 09:19:02 20.2 C 9.09 g/m*3 20.2 C 0 km/h
1134 10-08-2008 09:31:02 20.2 C 8.92 g/m*3 20.2 C 0 km/h
1135 10-08-2008 09:43:02 20.3 C 8.97 g/m*3 20.3 C 0 km/h
1136 10-08-2008 09:55:02 20.1 C 9.04 g/m*3 20.1 C 0 km/h
1137 10-08-2008 10:07:02 20 C 9.16 g/m*3 20 C 0 km/h
1138 10-08-2008 10:19:02 19.9 C 9.79 g/m*3 19.9 C 0 km/h
1139 10-08-2008 10:31:02 19.5 C 9.9 g/m*3 19.5 C 0 km/h
1140 10-08-2008 10:43:02 19.6 C 10.13 g/m*3 19.6 C 0 km/h
1141 10-08-2008 10:55:02 20 C 10.02 g/m*3 20 C 0 km/h
1142 10-08-2008 11:07:02 20 C 9.68 g/m*3 20 C 0 km/h
1143 10-08-2008 11:19:02 19 C 10.27 g/m*3 19 C 0 km/h
1144 10-08-2008 11:31:02 18.8 C 10.79 g/m*3 18.8 C 0 km/h
1145 10-08-2008 11:43:02 18.5 C 10.44 g/m*3 18.5 C 0 km/h
1146 10-08-2008 11:58:02 19.3 C 10.12 g/m*3 19.3 C 0 km/h
1147 10-08-2008 12:10:01 19.6 C 9.96 g/m*3 19.6 C 0 km/h
1148 10-08-2008 12:22:02 20 C 9.68 g/m*3 20 C 0 km/h
1149 10-08-2008 12:34:01 20.7 C 9.9 g/m*3 20.7 C 0 km/h
1150 10-08-2008 12:46:02 20.9 C 9.29 g/m*3 20.9 C 0 km/h
Sensor: Nr:Datum:Temp:Abs-Feuchte:Windchill:Wind:
Aussen-T/F 1151 10-08-2008 12:58:02 21.2 C 9.27 g/m*3 21.2 C 0 km/h
1152 10-08-2008 13:10:02 21.5 C 8.86 g/m*3 21.5 C 0 km/h
1153 10-08-2008 13:22:02 21.1 C 9.03 g/m*3 21.1 C 0 km/h
1154 10-08-2008 13:34:02 21.5 C 9.05 g/m*3 21.5 C 0 km/h
1155 10-08-2008 13:46:02 22.3 C 8.49 g/m*3 22.3 C 0 km/h
1156 10-08-2008 13:58:02 22.8 C 8.33 g/m*3 22.8 C 0 km/h
1157 10-08-2008 14:10:02 22.6 C 8.24 g/m*3 22.6 C 0 km/h
1158 10-08-2008 14:22:02 22.4 C 8.14 g/m*3 22.4 C 0 km/h
1159 10-08-2008 14:34:02 21.6 C 8.91 g/m*3 21.6 C 0 km/h
1160 10-08-2008 14:46:02 20.7 C 9.54 g/m*3 20.7 C 0 km/h
1161 10-08-2008 14:58:02 21.5 C 10.18 g/m*3 21.5 C 0 km/h
1162 10-08-2008 15:10:01 22.6 C 9.24 g/m*3 22.6 C 0 km/h
1163 10-08-2008 15:22:02 22.7 C 9.5 g/m*3 22.7 C 0 km/h
1164 10-08-2008 15:34:01 22.6 C 9.84 g/m*3 22.6 C 0 km/h
1165 10-08-2008 15:46:02 22.2 C 8.83 g/m*3 22.2 C 0 km/h
1166 10-08-2008 15:58:02 22.6 C 8.24 g/m*3 22.6 C 0 km/h
1167 10-08-2008 16:10:02 23.2 C 8.11 g/m*3 23.2 C 0 km/h
1168 10-08-2008 16:22:02 24.5 C 8.06 g/m*3 24.5 C 0 km/h
1169 10-08-2008 16:34:02 24 C 7.61 g/m*3 24 C 0 km/h
1170 10-08-2008 16:46:02 23.8 C 7.74 g/m*3 23.8 C 0 km/h
1171 10-08-2008 16:58:02 24 C 7.4 g/m*3 24 C 0 km/h
1172 10-08-2008 17:10:02 23.8 C 7.74 g/m*3 23.8 C 0 km/h
1173 10-08-2008 17:22:02 23.9 C 7.79 g/m*3 23.9 C 0 km/h
1174 10-08-2008 17:34:01 24 C 7.4 g/m*3 24 C 0 km/h
1175 10-08-2008 17:46:02 23.8 C 7.53 g/m*3 23.8 C 0 km/h
Sensor: Nr:Datum:Temp:Abs-Feuchte:Windchill:Wind:
Aussen-T/F 1176 10-08-2008 17:58:02 23.7 C 7.91 g/m*3 23.7 C 0 km/h
1177 10-08-2008 18:10:02 23.5 C 7.61 g/m*3 23.5 C 0 km/h
1178 10-08-2008 18:22:01 23.7 C 7.91 g/m*3 23.7 C 0 km/h
1179 10-08-2008 18:34:03 23.9 C 7.79 g/m*3 23.9 C 0 km/h
1180 10-08-2008 18:46:03 23.6 C 7.87 g/m*3 23.6 C 0 km/h
1181 10-08-2008 18:58:03 23.3 C 8.36 g/m*3 23.3 C 0 km/h
1182 10-08-2008 19:10:02 23.3 C 8.36 g/m*3 23.3 C 0 km/h
1183 10-08-2008 19:22:03 22.9 C 8.58 g/m*3 22.9 C 0 km/h
1184 10-08-2008 19:34:02 22.5 C 8.39 g/m*3 22.5 C 0 km/h
1185 10-08-2008 19:46:02 22.2 C 8.44 g/m*3 22.2 C 0 km/h
1186 10-08-2008 19:58:02 21.9 C 9.07 g/m*3 21.9 C 0 km/h
1187 10-08-2008 20:10:02 21.7 C 8.97 g/m*3 21.7 C 0 km/h
1188 10-08-2008 20:22:02 21.3 C 9.13 g/m*3 21.3 C 0 km/h
1189 10-08-2008 20:34:02 21 C 8.98 g/m*3 21 C 0 km/h
1190 10-08-2008 20:46:02 21 C 9.16 g/m*3 21 C 0 km/h
1191 10-08-2008 20:58:02 20.8 C 9.42 g/m*3 20.8 C 0 km/h
1192 10-08-2008 21:10:03 20.6 C 9.31 g/m*3 20.6 C 0 km/h
1193 10-08-2008 21:22:02 20.6 C 9.31 g/m*3 20.6 C 0 km/h
1194 10-08-2008 21:34:03 20.4 C 9.55 g/m*3 20.4 C 0 km/h
1195 10-08-2008 21:46:02 20.2 C 9.44 g/m*3 20.2 C 0 km/h
1196 10-08-2008 21:58:03 20 C 9.51 g/m*3 20 C 0 km/h
1197 10-08-2008 22:10:01 19.6 C 9.79 g/m*3 19.6 C 0 km/h
1198 10-08-2008 22:23:02 19.4 C 9.84 g/m*3 19.4 C 0 km/h
1199 10-08-2008 22:35:02 19.1 C 9.84 g/m*3 19.1 C 0 km/h
1200 10-08-2008 22:47:02 19.1 C 10 g/m*3 19.1 C 0 km/h
Sensor: Nr:Datum:Temp:Abs-Feuchte:Windchill:Wind:
Aussen-T/F 1201 10-08-2008 22:59:02 19 C 9.78 g/m*3 19 C 0 km/h
1202 10-08-2008 23:11:02 18.8 C 9.82 g/m*3 18.8 C 0 km/h
1203 10-08-2008 23:23:02 18.7 C 9.77 g/m*3 18.7 C 0 km/h
1204 10-08-2008 23:35:03 18.5 C 9.65 g/m*3 18.5 C 0 km/h
1205 10-08-2008 23:47:03 18.4 C 9.44 g/m*3 18.4 C 0 km/h
1206 10-08-2008 23:59:03 18.3 C 9.07 g/m*3 18.3 C 0 km/h
1207 11-08-2008 00:11:03 18.1 C 9.12 g/m*3 18.1 C 0 km/h
1208 11-08-2008 00:23:03 18.1 C 9.27 g/m*3 18.1 C 0 km/h
1209 11-08-2008 00:35:03 18.1 C 9.27 g/m*3 18.1 C 0 km/h
1210 11-08-2008 00:47:03 18.1 C 9.27 g/m*3 18.1 C 0 km/h
1211 11-08-2008 00:59:03 18.2 C 9.33 g/m*3 18.2 C 0 km/h
1212 11-08-2008 01:11:03 18.4 C 9.28 g/m*3 18.4 C 0 km/h
1213 11-08-2008 01:23:03 18.6 C 9.39 g/m*3 18.6 C 0 km/h
1214 11-08-2008 01:35:03 18.7 C 9.45 g/m*3 18.7 C 0 km/h
1215 11-08-2008 01:47:03 18.5 C 9.65 g/m*3 18.5 C 0 km/h
1216 11-08-2008 01:59:03 18.3 C 9.69 g/m*3 18.3 C 0 km/h
1217 11-08-2008 02:11:03 18 C 9.68 g/m*3 18 C 0 km/h
1218 11-08-2008 02:23:03 17.6 C 9.9 g/m*3 17.6 C 0 km/h
1219 11-08-2008 02:35:03 17.3 C 10.02 g/m*3 17.3 C 0 km/h
1220 11-08-2008 02:47:03 17.4 C 10.23 g/m*3 17.4 C 0 km/h
1221 11-08-2008 02:59:03 17.5 C 10.44 g/m*3 17.5 C 0 km/h
1222 11-08-2008 03:11:03 17.5 C 10.59 g/m*3 17.5 C 0 km/h
1223 11-08-2008 03:23:03 17.5 C 10.59 g/m*3 17.5 C 0 km/h
1224 11-08-2008 03:35:04 17.7 C 10.56 g/m*3 17.7 C 0 km/h
1225 11-08-2008 03:47:04 17.7 C 10.56 g/m*3 17.7 C 0 km/h
Sensor: Nr:Datum:Temp:Abs-Feuchte:Windchill:Wind:
Aussen-T/F 1226 11-08-2008 03:59:04 17.5 C 10.44 g/m*3 17.5 C 0 km/h
1227 11-08-2008 04:11:04 17.4 C 10.37 g/m*3 17.4 C 0 km/h
1228 11-08-2008 04:23:04 17.1 C 10.19 g/m*3 17.1 C 0 km/h
1229 11-08-2008 04:35:04 16.8 C 10.15 g/m*3 16.8 C 0 km/h
1230 11-08-2008 04:47:04 16.6 C 10.03 g/m*3 16.6 C 0 km/h
1231 11-08-2008 04:59:04 16 C 9.67 g/m*3 16 C 0 km/h
1232 11-08-2008 05:11:04 15.7 C 9.63 g/m*3 15.7 C 0 km/h
1233 11-08-2008 05:23:04 15.6 C 9.71 g/m*3 15.6 C 0 km/h
1234 11-08-2008 05:35:04 15.9 C 9.62 g/m*3 15.9 C 0 km/h
1235 11-08-2008 05:47:04 15.8 C 9.69 g/m*3 15.8 C 0 km/h
1236 11-08-2008 05:59:04 15.4 C 9.59 g/m*3 15.4 C 0 km/h
1237 11-08-2008 06:11:02 15.1 C 9.68 g/m*3 15.1 C 0 km/h
1238 11-08-2008 06:23:02 14.8 C 9.88 g/m*3 14.8 C 0 km/h
1239 11-08-2008 06:35:02 15 C 10.13 g/m*3 15 C 0 km/h
1240 11-08-2008 06:47:02 15.2 C 10.12 g/m*3 15.2 C 0 km/h
1241 11-08-2008 06:59:02 15 C 10 g/m*3 15 C 0 km/h
1242 11-08-2008 07:11:02 14.9 C 10.2 g/m*3 14.9 C 0 km/h
1243 11-08-2008 07:23:02 14.9 C 10.2 g/m*3 14.9 C 0 km/h
1244 11-08-2008 07:35:02 15 C 10.26 g/m*3 15 C 0 km/h
1245 11-08-2008 07:47:02 15.4 C 10.51 g/m*3 15.4 C 0 km/h
1246 11-08-2008 07:59:02 15.6 C 10.37 g/m*3 15.6 C 0 km/h
1247 11-08-2008 08:11:01 15.5 C 10.31 g/m*3 15.5 C 0 km/h
1248 11-08-2008 08:23:02 15.9 C 10.56 g/m*3 15.9 C 0 km/h
1249 11-08-2008 08:35:01 16.3 C 10.41 g/m*3 16.3 C 0 km/h
1250 11-08-2008 08:47:02 16.7 C 10.37 g/m*3 16.7 C 0 km/h
Sensor: Nr:Datum:Temp:Abs-Feuchte:Windchill:Wind:
Aussen-T/F 1251 11-08-2008 08:59:02 17.5 C 10.14 g/m*3 17.5 C 0 km/h
1252 11-08-2008 09:11:01 18.2 C 10.41 g/m*3 18.2 C 0 km/h
1253 11-08-2008 09:23:02 19.1 C 10.16 g/m*3 19.1 C 0 km/h
1254 11-08-2008 09:35:02 19.6 C 10.13 g/m*3 19.6 C 0 km/h
1255 11-08-2008 09:47:02 20.2 C 9.97 g/m*3 20.2 C 0 km/h
1256 11-08-2008 09:59:03 20.8 C 9.78 g/m*3 20.8 C 0 km/h
1257 11-08-2008 10:11:02 20.9 C 9.47 g/m*3 20.9 C 0 km/h
1258 11-08-2008 10:23:02 21 C 9.53 g/m*3 21 C 0 km/h
1259 11-08-2008 10:35:01 21.3 C 9.51 g/m*3 21.3 C 0 km/h
1260 11-08-2008 10:47:02 21.6 C 8.72 g/m*3 21.6 C 0 km/h
1261 11-08-2008 10:59:02 21.9 C 8.1 g/m*3 21.9 C 0 km/h
1262 11-08-2008 11:11:01 22.4 C 8.14 g/m*3 22.4 C 0 km/h
1263 11-08-2008 11:23:02 22.5 C 7.99 g/m*3 22.5 C 0 km/h
1264 11-08-2008 11:35:01 22.1 C 8.2 g/m*3 22.1 C 0 km/h
1265 11-08-2008 11:47:01 22.6 C 8.84 g/m*3 22.6 C 0 km/h
1266 11-08-2008 11:59:01 22 C 8.73 g/m*3 22 C 0 km/h
1267 11-08-2008 12:11:02 22.7 C 8.49 g/m*3 22.7 C 0 km/h
1268 11-08-2008 12:23:01 23.4 C 8.41 g/m*3 23.4 C 0 km/h
1269 11-08-2008 12:35:02 23.7 C 7.91 g/m*3 23.7 C 0 km/h
1270 11-08-2008 12:47:02 24.2 C 7.26 g/m*3 24.2 C 0 km/h
1271 11-08-2008 12:59:02 24.1 C 7 g/m*3 24.1 C 0 km/h
1272 11-08-2008 13:11:03 25.2 C 7.22 g/m*3 25.2 C 0 km/h
1273 11-08-2008 13:23:02 25.9 C 6.78 g/m*3 25.9 C 0 km/h
1274 11-08-2008 13:35:02 26 C 6.33 g/m*3 26 C 0 km/h
1275 11-08-2008 13:47:02 25.8 C 6.5 g/m*3 25.8 C 0 km/h
Sensor: Nr:Datum:Temp:Abs-Feuchte:Windchill:Wind:
Aussen-T/F 1276 11-08-2008 13:59:02 26.4 C 6.22 g/m*3 26.4 C 0 km/h
1277 11-08-2008 14:11:02 26.2 C 5.91 g/m*3 26.2 C 0 km/h
1278 11-08-2008 14:23:02 26.5 C 6.26 g/m*3 26.5 C 0 km/h
1279 11-08-2008 14:35:02 27.1 C 6.47 g/m*3 27.1 C 0 km/h
1280 11-08-2008 14:47:01 27.2 C 6.25 g/m*3 27.2 C 0 km/h
1281 11-08-2008 14:59:01 27 C 5.66 g/m*3 27 C 0 km/h
1282 11-08-2008 15:11:02 27.8 C 6.72 g/m*3 27.8 C 0 km/h
1283 11-08-2008 15:23:01 27.4 C 5.26 g/m*3 27.4 C 0 km/h
1284 11-08-2008 15:35:02 26.7 C 5.32 g/m*3 26.7 C 0 km/h
1285 11-08-2008 15:47:02 26.7 C 5.82 g/m*3 26.7 C 0 km/h
1286 11-08-2008 15:59:02 26.8 C 5.85 g/m*3 26.8 C 0 km/h
1287 11-08-2008 16:11:01 26.8 C 5.85 g/m*3 26.8 C 0 km/h
1288 11-08-2008 16:23:02 26.2 C 5.91 g/m*3 26.2 C 0 km/h
1289 11-08-2008 16:35:02 26.2 C 6.15 g/m*3 26.2 C 0 km/h
1290 11-08-2008 16:47:02 25.7 C 6.46 g/m*3 25.7 C 0 km/h
1291 11-08-2008 16:59:02 25 C 6.22 g/m*3 25 C 0 km/h
1292 11-08-2008 17:11:01 25 C 6.22 g/m*3 25 C 0 km/h
1293 11-08-2008 17:23:02 24.5 C 6.49 g/m*3 24.5 C 0 km/h
1294 11-08-2008 17:35:01 24.3 C 6.86 g/m*3 24.3 C 0 km/h
1295 11-08-2008 17:47:02 23.9 C 6.71 g/m*3 23.9 C 0 km/h
1296 11-08-2008 17:59:03 23.9 C 6.49 g/m*3 23.9 C 0 km/h
1297 11-08-2008 18:11:02 23.9 C 6.92 g/m*3 23.9 C 0 km/h
1298 11-08-2008 18:23:02 22.9 C 7.97 g/m*3 22.9 C 0 km/h
1299 11-08-2008 18:35:02 23.3 C 7.95 g/m*3 23.3 C 0 km/h
1300 11-08-2008 18:47:02 23.2 C 8.11 g/m*3 23.2 C 0 km/h
Sensor: Nr:Datum:Temp:Abs-Feuchte:Windchill:Wind:
Aussen-T/F 1301 11-08-2008 18:59:02 22.6 C 8.64 g/m*3 22.6 C 0 km/h
1302 11-08-2008 19:11:02 22.7 C 8.28 g/m*3 22.7 C 0 km/h
1303 11-08-2008 19:23:02 22.9 C 8.79 g/m*3 22.9 C 0 km/h
1304 11-08-2008 19:35:01 22.9 C 8.79 g/m*3 22.9 C 0 km/h
1305 11-08-2008 19:47:02 22.5 C 9.19 g/m*3 22.5 C 0 km/h
1306 11-08-2008 19:59:02 22.1 C 8.98 g/m*3 22.1 C 0 km/h
1307 11-08-2008 20:11:02 21.9 C 9.46 g/m*3 21.9 C 0 km/h
1308 11-08-2008 20:23:01 21.5 C 9.43 g/m*3 21.5 C 0 km/h
1309 11-08-2008 20:35:02 21.2 C 9.45 g/m*3 21.2 C 0 km/h
1310 11-08-2008 20:47:02 21.1 C 9.4 g/m*3 21.1 C 0 km/h
1311 11-08-2008 20:59:02 20.6 C 9.84 g/m*3 20.6 C 0 km/h
1312 11-08-2008 21:11:02 20.1 C 9.91 g/m*3 20.1 C 0 km/h
1313 11-08-2008 21:23:02 19.9 C 10.31 g/m*3 19.9 C 0 km/h
1314 11-08-2008 21:35:02 19.7 C 10.19 g/m*3 19.7 C 0 km/h
1315 11-08-2008 21:47:02 19.9 C 10.14 g/m*3 19.9 C 0 km/h
1316 11-08-2008 21:59:02 20.1 C 10.08 g/m*3 20.1 C 0 km/h
1317 11-08-2008 22:11:03 19.8 C 10.25 g/m*3 19.8 C 0 km/h
1318 11-08-2008 22:24:33 19.9 C 10.65 g/m*3 19.9 C 0 km/h
1319 11-08-2008 22:36:33 20 C 10.71 g/m*3 20 C 0 km/h
1320 11-08-2008 22:48:33 20 C 10.89 g/m*3 20 C 0 km/h
1321 11-08-2008 23:00:33 19.8 C 10.93 g/m*3 19.8 C 0 km/h
1322 11-08-2008 23:12:33 19.9 C 11.17 g/m*3 19.9 C 0 km/h
1323 11-08-2008 23:24:34 19.7 C 11.04 g/m*3 19.7 C 0 km/h
1324 11-08-2008 23:36:34 19.5 C 11.24 g/m*3 19.5 C 0 km/h
1325 11-08-2008 23:48:34 19.1 C 11.64 g/m*3 19.1 C 0 km/h
Sensor: Nr:Datum:Temp:Abs-Feuchte:Windchill:Wind:
Aussen-T/F 1326 12-08-2008 00:00:34 18.6 C 11.78 g/m*3 18.6 C 0 km/h
1327 12-08-2008 00:12:34 18.3 C 11.88 g/m*3 18.3 C 0 km/h
1328 12-08-2008 00:24:34 18.2 C 12.12 g/m*3 18.2 C 0 km/h
1329 12-08-2008 00:36:34 17.9 C 12.37 g/m*3 17.9 C 0 km/h
1330 12-08-2008 00:48:34 17.7 C 12.52 g/m*3 17.7 C 0 km/h
1331 12-08-2008 01:00:34 17.3 C 12.37 g/m*3 17.3 C 0 km/h
1332 12-08-2008 01:12:34 17 C 12.3 g/m*3 17 C 0 km/h
1333 12-08-2008 01:24:34 17.2 C 12.59 g/m*3 17.2 C 0 km/h
1334 12-08-2008 01:36:34 17.5 C 12.82 g/m*3 17.5 C 0 km/h
1335 12-08-2008 01:48:34 17.2 C 12.59 g/m*3 17.2 C 0 km/h
1336 12-08-2008 02:00:34 17.1 C 12.66 g/m*3 17.1 C 0 km/h
1337 12-08-2008 02:12:34 17 C 12.59 g/m*3 17 C 0 km/h
1338 12-08-2008 02:24:34 16.8 C 12.58 g/m*3 16.8 C 0 km/h
1339 12-08-2008 02:36:34 16.8 C 12.72 g/m*3 16.8 C 0 km/h
1340 12-08-2008 02:48:34 16.6 C 12.57 g/m*3 16.6 C 0 km/h
1341 12-08-2008 03:00:34 16.7 C 12.65 g/m*3 16.7 C 0 km/h
1342 12-08-2008 03:12:34 16.8 C 12.72 g/m*3 16.8 C 0 km/h
1343 12-08-2008 03:24:34 16.9 C 12.8 g/m*3 16.9 C 0 km/h
1344 12-08-2008 03:36:35 16.8 C 12.58 g/m*3 16.8 C 0 km/h
1345 12-08-2008 03:48:35 16.4 C 12.28 g/m*3 16.4 C 0 km/h
1346 12-08-2008 04:00:35 16.2 C 12.14 g/m*3 16.2 C 0 km/h
1347 12-08-2008 04:12:35 16 C 11.85 g/m*3 16 C 0 km/h
1348 12-08-2008 04:24:35 15.8 C 11.85 g/m*3 15.8 C 0 km/h
1349 12-08-2008 04:36:35 16 C 11.99 g/m*3 16 C 0 km/h
1350 12-08-2008 04:48:35 15.8 C 11.98 g/m*3 15.8 C 0 km/h
Sensor: Nr:Datum:Temp:Abs-Feuchte:Windchill:Wind:
Aussen-T/F 1351 12-08-2008 05:00:35 16 C 11.99 g/m*3 16 C 0 km/h
1352 12-08-2008 05:12:35 16.3 C 12.21 g/m*3 16.3 C 0 km/h
1353 12-08-2008 05:24:35 16.2 C 12.14 g/m*3 16.2 C 0 km/h
1354 12-08-2008 05:36:35 16.2 C 12 g/m*3 16.2 C 0 km/h
1355 12-08-2008 05:48:35 16.2 C 12 g/m*3 16.2 C 0 km/h
1356 12-08-2008 06:00:35 16.1 C 11.93 g/m*3 16.1 C 0 km/h
1357 12-08-2008 06:12:35 16 C 11.85 g/m*3 16 C 0 km/h
1358 12-08-2008 06:24:35 16 C 11.85 g/m*3 16 C 0 km/h
1359 12-08-2008 06:36:35 16.1 C 12.06 g/m*3 16.1 C 0 km/h
1360 12-08-2008 06:48:35 16 C 11.85 g/m*3 16 C 0 km/h
1361 12-08-2008 07:00:35 16.1 C 12.06 g/m*3 16.1 C 0 km/h
1362 12-08-2008 07:12:04 16.1 C 12.06 g/m*3 16.1 C 0 km/h
1363 12-08-2008 07:24:03 16.1 C 12.06 g/m*3 16.1 C 0 km/h
1364 12-08-2008 07:36:03 16.2 C 12.14 g/m*3 16.2 C 0 km/h
1365 12-08-2008 07:48:02 16.2 C 12.27 g/m*3 16.2 C 0 km/h
1366 12-08-2008 08:00:02 16.2 C 12.27 g/m*3 16.2 C 0 km/h
1367 12-08-2008 08:12:02 16.6 C 12.71 g/m*3 16.6 C 0 km/h
1368 12-08-2008 08:24:02 16.8 C 12.87 g/m*3 16.8 C 0 km/h
1369 12-08-2008 08:36:02 16.8 C 12.72 g/m*3 16.8 C 0 km/h
1370 12-08-2008 08:48:02 16.9 C 12.8 g/m*3 16.9 C 0 km/h
1371 12-08-2008 09:00:02 16.6 C 12.57 g/m*3 16.6 C 0 km/h
1372 12-08-2008 09:12:02 16.6 C 12.71 g/m*3 16.6 C 0 km/h
1373 12-08-2008 09:24:02 16.9 C 12.94 g/m*3 16.9 C 0 km/h
1374 12-08-2008 09:36:03 17 C 12.88 g/m*3 17 C 0 km/h
1375 12-08-2008 09:48:02 17.2 C 13.03 g/m*3 17.2 C 0 km/h
Sensor: Nr:Datum:Temp:Abs-Feuchte:Windchill:Wind:
Aussen-T/F 1376 12-08-2008 10:00:02 17.2 C 13.03 g/m*3 17.2 C 0 km/h
1377 12-08-2008 10:12:02 17.3 C 12.96 g/m*3 17.3 C 0 km/h
1378 12-08-2008 10:24:02 17.4 C 13.04 g/m*3 17.4 C 0 km/h
1379 12-08-2008 10:36:02 17.6 C 13.2 g/m*3 17.6 C 0 km/h
1380 12-08-2008 10:48:02 17.6 C 13.35 g/m*3 17.6 C 0 km/h
1381 12-08-2008 11:00:02 17.9 C 13.59 g/m*3 17.9 C 0 km/h
1382 12-08-2008 11:12:02 18 C 13.52 g/m*3 18 C 0 km/h
1383 12-08-2008 11:24:02 18.2 C 13.68 g/m*3 18.2 C 0 km/h
1384 12-08-2008 11:36:02 18.4 C 13.84 g/m*3 18.4 C 0 km/h
1385 12-08-2008 11:48:02 18.9 C 14.26 g/m*3 18.9 C 0 km/h
1386 12-08-2008 12:00:02 19.5 C 14.27 g/m*3 19.5 C 0 km/h
1387 12-08-2008 12:12:01 19.7 C 14.09 g/m*3 19.7 C 0 km/h
1388 12-08-2008 12:24:02 20.5 C 14.41 g/m*3 20.5 C 0 km/h
1389 12-08-2008 12:36:01 21.1 C 14.19 g/m*3 21.1 C 0 km/h
1390 12-08-2008 12:48:01 21.9 C 14.09 g/m*3 21.9 C 0 km/h
1391 12-08-2008 13:00:01 22.4 C 13.7 g/m*3 22.4 C 0 km/h
1392 12-08-2008 13:12:02 22.1 C 13.27 g/m*3 22.1 C 0 km/h
1393 12-08-2008 13:24:01 22.4 C 13.31 g/m*3 22.4 C 0 km/h
1394 12-08-2008 13:36:02 21.8 C 13.24 g/m*3 21.8 C 0 km/h
1395 12-08-2008 13:48:02 21.3 C 13.42 g/m*3 21.3 C 0 km/h
1396 12-08-2008 14:00:02 20.7 C 13.68 g/m*3 20.7 C 0 km/h
1397 12-08-2008 14:12:02 21.2 C 13.9 g/m*3 21.2 C 0 km/h
1398 12-08-2008 14:24:02 22.2 C 13.55 g/m*3 22.2 C 0 km/h
1399 12-08-2008 14:36:02 23.4 C 13.46 g/m*3 23.4 C 0 km/h
1400 12-08-2008 14:48:02 23.5 C 13.11 g/m*3 23.5 C 0 km/h
Sensor: Nr:Datum:Temp:Abs-Feuchte:Windchill:Wind:
Aussen-T/F 1401 12-08-2008 15:00:02 22.8 C 12.4 g/m*3 22.8 C 0 km/h
1402 12-08-2008 15:12:02 22.9 C 12.47 g/m*3 22.9 C 0 km/h
1403 12-08-2008 15:24:02 22.2 C 12.17 g/m*3 22.2 C 0 km/h
1404 12-08-2008 15:36:03 21.4 C 12.75 g/m*3 21.4 C 0 km/h
1405 12-08-2008 15:48:02 20.6 C 13.07 g/m*3 20.6 C 0 km/h
1406 12-08-2008 16:00:02 19.7 C 13.92 g/m*3 19.7 C 0 km/h
1407 12-08-2008 16:12:03 19.9 C 14.43 g/m*3 19.9 C 0 km/h
1408 12-08-2008 16:24:02 20.9 C 14.93 g/m*3 20.9 C 0 km/h
1409 12-08-2008 16:36:03 21.5 C 14.9 g/m*3 21.5 C 0 km/h
1410 12-08-2008 16:48:02 21.2 C 12.97 g/m*3 21.2 C 0 km/h
1411 12-08-2008 17:00:02 21.6 C 12.52 g/m*3 21.6 C 0 km/h
1412 12-08-2008 17:12:02 21.5 C 12.45 g/m*3 21.5 C 0 km/h
1413 12-08-2008 17:24:02 21.5 C 12.07 g/m*3 21.5 C 0 km/h
1414 12-08-2008 17:36:02 21.3 C 12.86 g/m*3 21.3 C 0 km/h
1415 12-08-2008 17:48:02 21.4 C 12.37 g/m*3 21.4 C 0 km/h
1416 12-08-2008 18:00:02 21.4 C 12 g/m*3 21.4 C 0 km/h
1417 12-08-2008 18:12:02 21.3 C 11.93 g/m*3 21.3 C 0 km/h
1418 12-08-2008 18:24:02 21.5 C 12.26 g/m*3 21.5 C 0 km/h
1419 12-08-2008 18:36:03 21.9 C 12.16 g/m*3 21.9 C 0 km/h
1420 12-08-2008 18:48:02 21.8 C 11.32 g/m*3 21.8 C 0 km/h
1421 12-08-2008 19:00:02 21.9 C 11.39 g/m*3 21.9 C 0 km/h
1422 12-08-2008 19:12:02 22.3 C 11.65 g/m*3 22.3 C 0 km/h
1423 12-08-2008 19:24:02 22.6 C 11.05 g/m*3 22.6 C 0 km/h
1424 12-08-2008 19:36:02 22.5 C 10.79 g/m*3 22.5 C 0 km/h
1425 12-08-2008 19:48:02 22.6 C 10.65 g/m*3 22.6 C 0 km/h
Sensor: Nr:Datum:Temp:Abs-Feuchte:Windchill:Wind:
Aussen-T/F 1426 12-08-2008 20:00:02 22.5 C 10.39 g/m*3 22.5 C 0 km/h
1427 12-08-2008 20:12:01 22.8 C 10.36 g/m*3 22.8 C 0 km/h
1428 12-08-2008 20:24:02 22.5 C 10.39 g/m*3 22.5 C 0 km/h
1429 12-08-2008 20:36:01 21.8 C 10.55 g/m*3 21.8 C 0 km/h
1430 12-08-2008 20:48:01 21.2 C 10.56 g/m*3 21.2 C 0 km/h
1431 12-08-2008 21:00:01 20.7 C 10.62 g/m*3 20.7 C 0 km/h
1432 12-08-2008 21:12:02 20.2 C 10.84 g/m*3 20.2 C 0 km/h
1433 12-08-2008 21:24:02 20 C 11.06 g/m*3 20 C 0 km/h
1434 12-08-2008 21:36:02 19.7 C 11.38 g/m*3 19.7 C 0 km/h
1435 12-08-2008 21:48:03 19.4 C 11.68 g/m*3 19.4 C 0 km/h
1436 12-08-2008 22:00:03 19.1 C 11.8 g/m*3 19.1 C 0 km/h
1437 12-08-2008 22:12:02 19 C 11.57 g/m*3 19 C 0 km/h
1438 12-08-2008 22:24:02 18.9 C 11.83 g/m*3 18.9 C 0 km/h
1439 12-08-2008 22:36:02 18.6 C 11.62 g/m*3 18.6 C 0 km/h
1440 12-08-2008 22:48:02 18.4 C 11.48 g/m*3 18.4 C 0 km/h
1441 12-08-2008 23:00:03 18.6 C 11.46 g/m*3 18.6 C 0 km/h
1442 12-08-2008 23:12:02 18.9 C 11.18 g/m*3 18.9 C 0 km/h
1443 12-08-2008 23:25:03 19.3 C 11.11 g/m*3 19.3 C 0 km/h
1444 12-08-2008 23:37:03 16.6 C 9.89 g/m*3 16.6 C 0 km/h
1445 12-08-2008 23:49:03 15.6 C 9.97 g/m*3 15.6 C 0 km/h
1446 13-08-2008 00:01:03 15.2 C 9.99 g/m*3 15.2 C 0 km/h
1447 13-08-2008 00:13:03 15 C 10.26 g/m*3 15 C 0 km/h
1448 13-08-2008 00:25:03 14.7 C 10.2 g/m*3 14.7 C 0 km/h
1449 13-08-2008 00:37:03 14.4 C 10.14 g/m*3 14.4 C 0 km/h
1450 13-08-2008 00:49:04 14.2 C 10.14 g/m*3 14.2 C 0 km/h
Sensor: Nr:Datum:Temp:Abs-Feuchte:Windchill:Wind:
Aussen-T/F 1451 13-08-2008 01:01:04 14.2 C 10.26 g/m*3 14.2 C 0 km/h
1452 13-08-2008 01:13:04 14.3 C 10.44 g/m*3 14.3 C 0 km/h
1453 13-08-2008 01:25:04 14.3 C 10.57 g/m*3 14.3 C 0 km/h
1454 13-08-2008 01:37:04 14.3 C 10.57 g/m*3 14.3 C 0 km/h
1455 13-08-2008 01:49:04 14.6 C 10.76 g/m*3 14.6 C 0 km/h
1456 13-08-2008 02:01:04 14.6 C 10.76 g/m*3 14.6 C 0 km/h
1457 13-08-2008 02:13:04 14.7 C 10.83 g/m*3 14.7 C 0 km/h
1458 13-08-2008 02:25:04 14.5 C 10.7 g/m*3 14.5 C 0 km/h
1459 13-08-2008 02:37:04 14.3 C 10.57 g/m*3 14.3 C 0 km/h
1460 13-08-2008 02:49:04 14.2 C 10.5 g/m*3 14.2 C 0 km/h
1461 13-08-2008 03:01:04 14.2 C 10.62 g/m*3 14.2 C 0 km/h
1462 13-08-2008 03:13:04 14.3 C 10.81 g/m*3 14.3 C 0 km/h
1463 13-08-2008 03:25:04 14.3 C 10.81 g/m*3 14.3 C 0 km/h
1464 13-08-2008 03:37:04 14.3 C 10.69 g/m*3 14.3 C 0 km/h
1465 13-08-2008 03:49:04 14.2 C 10.62 g/m*3 14.2 C 0 km/h
1466 13-08-2008 04:01:04 14.1 C 10.56 g/m*3 14.1 C 0 km/h
1467 13-08-2008 04:13:04 14.4 C 10.38 g/m*3 14.4 C 0 km/h
1468 13-08-2008 04:25:04 14.7 C 10.07 g/m*3 14.7 C 0 km/h
1469 13-08-2008 04:37:04 15 C 9.49 g/m*3 15 C 0 km/h
1470 13-08-2008 04:49:05 15.4 C 9.2 g/m*3 15.4 C 0 km/h
1471 13-08-2008 05:01:05 15.2 C 9.09 g/m*3 15.2 C 0 km/h
1472 13-08-2008 05:13:05 15.4 C 8.93 g/m*3 15.4 C 0 km/h
1473 13-08-2008 05:25:05 15.4 C 8.93 g/m*3 15.4 C 0 km/h
1474 13-08-2008 05:37:05 15.6 C 8.78 g/m*3 15.6 C 0 km/h
1475 13-08-2008 05:49:05 15.8 C 8.62 g/m*3 15.8 C 0 km/h
Sensor: Nr:Datum:Temp:Abs-Feuchte:Windchill:Wind:
Aussen-T/F 1476 13-08-2008 06:01:05 15.8 C 8.62 g/m*3 15.8 C 0 km/h
1477 13-08-2008 06:13:05 15.9 C 8.53 g/m*3 15.9 C 0 km/h
1478 13-08-2008 06:25:05 15.9 C 8.53 g/m*3 15.9 C 0 km/h
1479 13-08-2008 06:37:03 15.9 C 8.53 g/m*3 15.9 C 0 km/h
1480 13-08-2008 06:49:02 15.7 C 8.43 g/m*3 15.7 C 0 km/h
1481 13-08-2008 07:01:02 15.8 C 8.48 g/m*3 15.8 C 0 km/h
1482 13-08-2008 07:13:02 15.9 C 8.53 g/m*3 15.9 C 0 km/h
1483 13-08-2008 07:25:03 15.9 C 8.53 g/m*3 15.9 C 0 km/h
1484 13-08-2008 07:37:02 16.4 C 8.51 g/m*3 16.4 C 0 km/h
1485 13-08-2008 07:49:02 16.6 C 8.33 g/m*3 16.6 C 0 km/h
1486 13-08-2008 08:01:02 16.5 C 8.43 g/m*3 16.5 C 0 km/h
1487 13-08-2008 08:13:02 16.6 C 8.33 g/m*3 16.6 C 0 km/h
1488 13-08-2008 08:25:02 16.8 C 8.44 g/m*3 16.8 C 0 km/h
1489 13-08-2008 08:37:02 16.9 C 8.2 g/m*3 16.9 C 0 km/h
1490 13-08-2008 08:49:01 16.8 C 8.15 g/m*3 16.8 C 0 km/h
1491 13-08-2008 09:01:02 17.1 C 8.01 g/m*3 17.1 C 0 km/h
1492 13-08-2008 09:13:02 17.4 C 8.15 g/m*3 17.4 C 0 km/h
1493 13-08-2008 09:25:02 17.7 C 8 g/m*3 17.7 C 0 km/h
1494 13-08-2008 09:37:02 17.6 C 8.1 g/m*3 17.6 C 0 km/h
1495 13-08-2008 09:49:02 17.6 C 7.95 g/m*3 17.6 C 0 km/h
1496 13-08-2008 10:01:02 18.1 C 7.88 g/m*3 18.1 C 0 km/h
1497 13-08-2008 10:13:03 18.3 C 7.82 g/m*3 18.3 C 0 km/h
1498 13-08-2008 10:25:02 18.3 C 7.97 g/m*3 18.3 C 0 km/h
1499 13-08-2008 10:37:02 18.5 C 7.91 g/m*3 18.5 C 0 km/h
1500 13-08-2008 10:49:02 17 C 8.54 g/m*3 17 C 0 km/h
Sensor: Nr:Datum:Temp:Abs-Feuchte:Windchill:Wind:
Aussen-T/F 1501 13-08-2008 11:01:03 17.2 C 9.08 g/m*3 17.2 C 0 km/h
1502 13-08-2008 11:13:03 18.1 C 9.12 g/m*3 18.1 C 0 km/h
1503 13-08-2008 11:25:02 18.3 C 8.6 g/m*3 18.3 C 0 km/h
1504 13-08-2008 11:37:03 19.3 C 8.46 g/m*3 19.3 C 0 km/h
1505 13-08-2008 11:49:02 19.7 C 8.15 g/m*3 19.7 C 0 km/h
1506 13-08-2008 12:01:02 20 C 8.12 g/m*3 20 C 0 km/h
1507 13-08-2008 12:13:02 20 C 7.78 g/m*3 20 C 0 km/h
1508 13-08-2008 12:25:02 19.7 C 7.47 g/m*3 19.7 C 0 km/h
1509 13-08-2008 12:37:02 20.7 C 7.74 g/m*3 20.7 C 0 km/h
1510 13-08-2008 12:49:03 21.3 C 7.46 g/m*3 21.3 C 0 km/h
1511 13-08-2008 13:01:02 20.8 C 7.24 g/m*3 20.8 C 0 km/h
1512 13-08-2008 13:13:02 21.2 C 7.41 g/m*3 21.2 C 0 km/h
1513 13-08-2008 13:25:02 21.4 C 7.5 g/m*3 21.4 C 0 km/h
1514 13-08-2008 13:37:02 21.2 C 7.41 g/m*3 21.2 C 0 km/h
1515 13-08-2008 13:49:02 21.2 C 7.41 g/m*3 21.2 C 0 km/h
1516 13-08-2008 14:01:02 21.6 C 7.59 g/m*3 21.6 C 0 km/h
1517 13-08-2008 14:13:02 21.7 C 7.82 g/m*3 21.7 C 0 km/h
1518 13-08-2008 14:25:02 22.5 C 7.59 g/m*3 22.5 C 0 km/h
1519 13-08-2008 14:37:02 22 C 7.38 g/m*3 22 C 0 km/h
1520 13-08-2008 14:49:02 21.6 C 7.59 g/m*3 21.6 C 0 km/h
1521 13-08-2008 15:01:02 19.1 C 6.56 g/m*3 19.1 C 0 km/h
1522 13-08-2008 15:13:02 19.1 C 10.98 g/m*3 19.1 C 0 km/h
1523 13-08-2008 15:25:02 20.5 C 10.32 g/m*3 20.5 C 0 km/h
1524 13-08-2008 15:37:02 20.4 C 9.38 g/m*3 20.4 C 0 km/h
1525 13-08-2008 15:49:02 22.2 C 8.83 g/m*3 22.2 C 0 km/h
Sensor: Nr:Datum:Temp:Abs-Feuchte:Windchill:Wind:
Aussen-T/F 1526 13-08-2008 16:01:02 22.6 C 8.24 g/m*3 22.6 C 0 km/h
1527 13-08-2008 16:13:02 23.6 C 7.87 g/m*3 23.6 C 0 km/h
1528 13-08-2008 16:25:02 23.5 C 6.98 g/m*3 23.5 C 0 km/h
1529 13-08-2008 16:37:02 23.8 C 6.88 g/m*3 23.8 C 0 km/h
1530 13-08-2008 16:49:02 24.3 C 6.86 g/m*3 24.3 C 0 km/h
1531 13-08-2008 17:01:02 24.1 C 6.35 g/m*3 24.1 C 0 km/h
1532 13-08-2008 17:13:02 23.5 C 6.56 g/m*3 23.5 C 0 km/h
1533 13-08-2008 17:25:02 24.3 C 6.64 g/m*3 24.3 C 0 km/h
1534 13-08-2008 17:37:02 23.8 C 6.45 g/m*3 23.8 C 0 km/h
1535 13-08-2008 17:49:02 23.4 C 6.52 g/m*3 23.4 C 0 km/h
1536 13-08-2008 18:01:02 23.3 C 6.48 g/m*3 23.3 C 0 km/h
1537 13-08-2008 18:13:02 23.6 C 6.59 g/m*3 23.6 C 0 km/h
1538 13-08-2008 18:25:02 23.5 C 6.56 g/m*3 23.5 C 0 km/h
1539 13-08-2008 18:37:02 22.6 C 6.63 g/m*3 22.6 C 0 km/h
1540 13-08-2008 18:49:02 22 C 6.79 g/m*3 22 C 0 km/h
1541 13-08-2008 19:01:02 21.6 C 7.59 g/m*3 21.6 C 0 km/h
1542 13-08-2008 19:13:02 21.7 C 7.25 g/m*3 21.7 C 0 km/h
1543 13-08-2008 19:25:02 21.6 C 6.83 g/m*3 21.6 C 0 km/h
1544 13-08-2008 19:37:02 21.3 C 6.9 g/m*3 21.3 C 0 km/h
1545 13-08-2008 19:49:01 21.2 C 7.04 g/m*3 21.2 C 0 km/h
1546 13-08-2008 20:01:02 19.4 C 8.01 g/m*3 19.4 C 0 km/h
1547 13-08-2008 20:13:02 19.5 C 8.39 g/m*3 19.5 C 0 km/h
1548 13-08-2008 20:25:01 19.5 C 8.56 g/m*3 19.5 C 0 km/h
1549 13-08-2008 20:37:02 19.6 C 8.44 g/m*3 19.6 C 0 km/h
1550 13-08-2008 20:49:02 19.5 C 8.39 g/m*3 19.5 C 0 km/h
Sensor: Nr:Datum:Temp:Abs-Feuchte:Windchill:Wind:
Aussen-T/F 1551 13-08-2008 21:01:02 19.7 C 6.96 g/m*3 19.7 C 0 km/h
1552 13-08-2008 21:13:02 19.8 C 6.83 g/m*3 19.8 C 0 km/h
1553 13-08-2008 21:25:02 19.5 C 6.88 g/m*3 19.5 C 0 km/h
1554 13-08-2008 21:37:03 18.8 C 7.41 g/m*3 18.8 C 0 km/h
1555 13-08-2008 21:50:04 18.7 C 7.52 g/m*3 18.7 C 0 km/h
1556 13-08-2008 22:02:04 18.3 C 7.66 g/m*3 18.3 C 0 km/h
1557 13-08-2008 22:14:04 18.3 C 7.66 g/m*3 18.3 C 0 km/h
1558 13-08-2008 22:26:04 18.4 C 7.55 g/m*3 18.4 C 0 km/h
1559 13-08-2008 22:38:04 18 C 7.68 g/m*3 18 C 0 km/h
1560 13-08-2008 22:50:04 17.8 C 7.89 g/m*3 17.8 C 0 km/h
1561 13-08-2008 23:02:04 17.8 C 7.74 g/m*3 17.8 C 0 km/h
1562 13-08-2008 23:14:04 17.4 C 7.85 g/m*3 17.4 C 0 km/h
1563 13-08-2008 23:26:04 17.3 C 7.96 g/m*3 17.3 C 0 km/h
1564 13-08-2008 23:38:04 17.1 C 8.01 g/m*3 17.1 C 0 km/h
1565 13-08-2008 23:50:04 17 C 8.25 g/m*3 17 C 0 km/h
1566 14-08-2008 00:02:04 17.1 C 8.3 g/m*3 17.1 C 0 km/h
1567 14-08-2008 00:14:04 16.8 C 8.29 g/m*3 16.8 C 0 km/h
1568 14-08-2008 00:26:04 16.4 C 8.23 g/m*3 16.4 C 0 km/h
1569 14-08-2008 00:38:04 16.2 C 8.27 g/m*3 16.2 C 0 km/h
1570 14-08-2008 00:50:04 16.4 C 8.51 g/m*3 16.4 C 0 km/h
1571 14-08-2008 01:02:04 16.4 C 8.51 g/m*3 16.4 C 0 km/h
1572 14-08-2008 01:14:04 16.4 C 8.65 g/m*3 16.4 C 0 km/h
1573 14-08-2008 01:26:05 16.1 C 8.5 g/m*3 16.1 C 0 km/h
1574 14-08-2008 01:38:05 15.9 C 8.67 g/m*3 15.9 C 0 km/h
1575 14-08-2008 01:50:05 15.8 C 8.62 g/m*3 15.8 C 0 km/h
Sensor: Nr:Datum:Temp:Abs-Feuchte:Windchill:Wind:
Aussen-T/F 1576 14-08-2008 02:02:05 16 C 8.58 g/m*3 16 C 0 km/h
1577 14-08-2008 02:14:05 16 C 8.58 g/m*3 16 C 0 km/h
1578 14-08-2008 02:26:05 15.8 C 8.62 g/m*3 15.8 C 0 km/h
1579 14-08-2008 02:38:05 15.4 C 8.67 g/m*3 15.4 C 0 km/h
1580 14-08-2008 02:50:05 15.3 C 8.88 g/m*3 15.3 C 0 km/h
1581 14-08-2008 03:02:05 15.1 C 8.77 g/m*3 15.1 C 0 km/h
1582 14-08-2008 03:14:05 15 C 8.85 g/m*3 15 C 0 km/h
1583 14-08-2008 03:26:05 14.9 C 8.92 g/m*3 14.9 C 0 km/h
1584 14-08-2008 03:38:05 14.8 C 8.99 g/m*3 14.8 C 0 km/h
1585 14-08-2008 03:50:05 14.7 C 8.94 g/m*3 14.7 C 0 km/h
1586 14-08-2008 04:02:05 14.5 C 8.95 g/m*3 14.5 C 0 km/h
1587 14-08-2008 04:14:05 14.5 C 9.08 g/m*3 14.5 C 0 km/h
1588 14-08-2008 04:26:05 14.3 C 8.97 g/m*3 14.3 C 0 km/h
1589 14-08-2008 04:38:05 14.1 C 8.98 g/m*3 14.1 C 0 km/h
1590 14-08-2008 04:50:05 13.9 C 8.99 g/m*3 13.9 C 0 km/h
1591 14-08-2008 05:02:05 13.9 C 9.11 g/m*3 13.9 C 0 km/h
1592 14-08-2008 05:14:05 13.8 C 9.17 g/m*3 13.8 C 0 km/h
1593 14-08-2008 05:26:05 13.6 C 9.06 g/m*3 13.6 C 0 km/h
1594 14-08-2008 05:38:06 13.6 C 9.06 g/m*3 13.6 C 0 km/h
1595 14-08-2008 05:50:06 13.5 C 9.12 g/m*3 13.5 C 0 km/h
1596 14-08-2008 06:02:06 13.6 C 9.06 g/m*3 13.6 C 0 km/h
1597 14-08-2008 06:14:06 13.6 C 9.06 g/m*3 13.6 C 0 km/h
1598 14-08-2008 06:26:03 13.7 C 9.12 g/m*3 13.7 C 0 km/h
1599 14-08-2008 06:38:04 13.7 C 9.12 g/m*3 13.7 C 0 km/h
1600 14-08-2008 06:50:02 13.7 C 9.12 g/m*3 13.7 C 0 km/h
Sensor: Nr:Datum:Temp:Abs-Feuchte:Windchill:Wind:
Aussen-T/F 1601 14-08-2008 07:02:02 13.8 C 9.06 g/m*3 13.8 C 0 km/h
1602 14-08-2008 07:14:02 13.8 C 9.06 g/m*3 13.8 C 0 km/h
1603 14-08-2008 07:26:02 13.8 C 9.06 g/m*3 13.8 C 0 km/h
1604 14-08-2008 07:38:01 14 C 9.05 g/m*3 14 C 0 km/h
1605 14-08-2008 07:50:02 14.1 C 9.1 g/m*3 14.1 C 0 km/h
1606 14-08-2008 08:02:01 14.3 C 8.97 g/m*3 14.3 C 0 km/h
1607 14-08-2008 08:14:01 14.5 C 9.08 g/m*3 14.5 C 0 km/h
1608 14-08-2008 08:26:02 14.6 C 9.13 g/m*3 14.6 C 0 km/h
1609 14-08-2008 08:38:01 14.9 C 9.05 g/m*3 14.9 C 0 km/h
1610 14-08-2008 08:50:02 15.4 C 8.41 g/m*3 15.4 C 0 km/h
1611 14-08-2008 09:02:01 15.8 C 8.21 g/m*3 15.8 C 0 km/h
1612 14-08-2008 09:14:01 16.1 C 7.95 g/m*3 16.1 C 0 km/h
1613 14-08-2008 09:26:02 16.4 C 7.82 g/m*3 16.4 C 0 km/h
1614 14-08-2008 09:38:02 16.8 C 7.15 g/m*3 16.8 C 0 km/h
1615 14-08-2008 09:50:02 17.1 C 7.13 g/m*3 17.1 C 0 km/h
1616 14-08-2008 10:02:02 17.4 C 7.11 g/m*3 17.4 C 0 km/h
1617 14-08-2008 10:14:02 17.8 C 7.13 g/m*3 17.8 C 0 km/h
1618 14-08-2008 10:26:01 18.1 C 7.11 g/m*3 18.1 C 0 km/h
1619 14-08-2008 10:38:02 18.3 C 6.88 g/m*3 18.3 C 0 km/h
1620 14-08-2008 10:50:02 18.8 C 7.09 g/m*3 18.8 C 0 km/h
1621 14-08-2008 11:02:02 19.1 C 7.05 g/m*3 19.1 C 0 km/h
1622 14-08-2008 11:14:02 19.5 C 7.05 g/m*3 19.5 C 0 km/h
1623 14-08-2008 11:26:02 19.8 C 7 g/m*3 19.8 C 0 km/h
1624 14-08-2008 11:38:02 20.3 C 7.03 g/m*3 20.3 C 0 km/h
1625 14-08-2008 11:50:02 20.4 C 6.72 g/m*3 20.4 C 0 km/h
Sensor: Nr:Datum:Temp:Abs-Feuchte:Windchill:Wind:
Aussen-T/F 1626 14-08-2008 12:02:02 20.8 C 6.34 g/m*3 20.8 C 0 km/h
1627 14-08-2008 12:14:02 21.2 C 6.12 g/m*3 21.2 C 0 km/h
1628 14-08-2008 12:26:01 22 C 6.02 g/m*3 22 C 0 km/h
1629 14-08-2008 12:38:02 21.9 C 5.79 g/m*3 21.9 C 0 km/h
1630 14-08-2008 12:50:02 22 C 5.43 g/m*3 22 C 0 km/h
1631 14-08-2008 13:02:02 22.9 C 6.13 g/m*3 22.9 C 0 km/h
1632 14-08-2008 13:14:02 23.2 C 6.03 g/m*3 23.2 C 0 km/h
1633 14-08-2008 13:26:02 23.4 C 6.31 g/m*3 23.4 C 0 km/h
1634 14-08-2008 13:38:02 24 C 6.09 g/m*3 24 C 0 km/h
1635 14-08-2008 13:50:02 23.4 C 6.31 g/m*3 23.4 C 0 km/h
1636 14-08-2008 14:02:01 23.4 C 5.89 g/m*3 23.4 C 0 km/h
1637 14-08-2008 14:14:01 23.1 C 5.79 g/m*3 23.1 C 0 km/h
1638 14-08-2008 14:26:02 23 C 5.76 g/m*3 23 C 0 km/h
1639 14-08-2008 14:38:01 23.4 C 6.1 g/m*3 23.4 C 0 km/h
1640 14-08-2008 14:50:02 24.1 C 5.69 g/m*3 24.1 C 0 km/h
1641 14-08-2008 15:02:01 24.3 C 5.53 g/m*3 24.3 C 0 km/h
1642 14-08-2008 15:14:01 24.2 C 5.5 g/m*3 24.2 C 0 km/h
1643 14-08-2008 15:26:02 24.4 C 5.56 g/m*3 24.4 C 0 km/h
1644 14-08-2008 15:38:01 24.5 C 5.6 g/m*3 24.5 C 0 km/h
1645 14-08-2008 15:50:01 24.8 C 5.46 g/m*3 24.8 C 0 km/h
1646 14-08-2008 16:02:01 25.2 C 5.35 g/m*3 25.2 C 0 km/h
1647 14-08-2008 16:14:01 25.1 C 5.56 g/m*3 25.1 C 0 km/h
1648 14-08-2008 16:26:01 25.5 C 5.21 g/m*3 25.5 C 0 km/h
1649 14-08-2008 16:38:01 25.6 C 5 g/m*3 25.6 C 0 km/h
1650 14-08-2008 16:50:01 26.2 C 5.17 g/m*3 26.2 C 0 km/h
Sensor: Nr:Datum:Temp:Abs-Feuchte:Windchill:Wind:
Aussen-T/F 1651 14-08-2008 17:02:02 25.1 C 5.09 g/m*3 25.1 C 0 km/h
1652 14-08-2008 17:14:03 26.7 C 5.06 g/m*3 26.7 C 0 km/h
1653 14-08-2008 17:26:01 26.5 C 5.01 g/m*3 26.5 C 0 km/h
1654 14-08-2008 17:38:02 26.7 C 5.06 g/m*3 26.7 C 0 km/h
1655 14-08-2008 17:50:01 26.6 C 5.03 g/m*3 26.6 C 0 km/h
1656 14-08-2008 18:02:02 26.7 C 5.06 g/m*3 26.7 C 0 km/h
1657 14-08-2008 18:14:02 26.8 C 5.09 g/m*3 26.8 C 0 km/h
1658 14-08-2008 18:26:01 26.8 C 5.09 g/m*3 26.8 C 0 km/h
1659 14-08-2008 18:38:02 26.2 C 4.92 g/m*3 26.2 C 0 km/h
1660 14-08-2008 18:50:02 26.4 C 4.98 g/m*3 26.4 C 0 km/h
1661 14-08-2008 19:02:02 25.8 C 4.82 g/m*3 25.8 C 0 km/h
1662 14-08-2008 19:14:02 25.1 C 5.09 g/m*3 25.1 C 0 km/h
1663 14-08-2008 19:26:02 23.8 C 5.59 g/m*3 23.8 C 0 km/h
1664 14-08-2008 19:38:02 23.7 C 5.56 g/m*3 23.7 C 0 km/h
1665 14-08-2008 19:50:01 23.6 C 5.96 g/m*3 23.6 C 0 km/h
1666 14-08-2008 20:02:02 22.8 C 5.69 g/m*3 22.8 C 0 km/h
1667 14-08-2008 20:14:02 22.6 C 6.03 g/m*3 22.6 C 0 km/h
1668 14-08-2008 20:26:01 21.8 C 5.95 g/m*3 21.8 C 0 km/h
1669 14-08-2008 20:38:02 20.9 C 6.19 g/m*3 20.9 C 0 km/h
1670 14-08-2008 20:50:02 20.5 C 6.23 g/m*3 20.5 C 0 km/h
1671 14-08-2008 21:02:02 19.9 C 6.19 g/m*3 19.9 C 0 km/h
1672 14-08-2008 21:14:02 19.4 C 6.17 g/m*3 19.4 C 0 km/h
1673 14-08-2008 21:26:02 19 C 6.03 g/m*3 19 C 0 km/h
1674 14-08-2008 21:38:01 18.8 C 6.6 g/m*3 18.8 C 0 km/h
1675 14-08-2008 21:51:03 18.6 C 6.68 g/m*3 18.6 C 0 km/h
Sensor: Nr:Datum:Temp:Abs-Feuchte:Windchill:Wind:
Aussen-T/F 1676 14-08-2008 22:03:03 18.3 C 6.88 g/m*3 18.3 C 0 km/h
1677 14-08-2008 22:15:03 18.1 C 6.8 g/m*3 18.1 C 0 km/h
1678 14-08-2008 22:27:03 18.1 C 6.64 g/m*3 18.1 C 0 km/h
1679 14-08-2008 22:39:03 17.9 C 6.87 g/m*3 17.9 C 0 km/h
1680 14-08-2008 22:51:03 17.5 C 7.01 g/m*3 17.5 C 0 km/h
1681 14-08-2008 23:03:03 17.5 C 7.01 g/m*3 17.5 C 0 km/h
1682 14-08-2008 23:15:03 17.4 C 7.41 g/m*3 17.4 C 0 km/h
1683 14-08-2008 23:27:03 17.2 C 7.47 g/m*3 17.2 C 0 km/h
1684 14-08-2008 23:39:03 17 C 7.38 g/m*3 17 C 0 km/h
1685 14-08-2008 23:51:03 17.1 C 7.42 g/m*3 17.1 C 0 km/h
1686 15-08-2008 00:03:03 17 C 7.38 g/m*3 17 C 0 km/h
1687 15-08-2008 00:15:03 17 C 7.52 g/m*3 17 C 0 km/h
1688 15-08-2008 00:27:03 16.8 C 7.72 g/m*3 16.8 C 0 km/h
1689 15-08-2008 00:39:03 16.8 C 7.58 g/m*3 16.8 C 0 km/h
1690 15-08-2008 00:51:03 16.7 C 7.67 g/m*3 16.7 C 0 km/h
1691 15-08-2008 01:03:03 16.6 C 7.63 g/m*3 16.6 C 0 km/h
1692 15-08-2008 01:15:04 16.7 C 7.67 g/m*3 16.7 C 0 km/h
1693 15-08-2008 01:27:04 16.5 C 7.72 g/m*3 16.5 C 0 km/h
1694 15-08-2008 01:39:04 16.3 C 7.77 g/m*3 16.3 C 0 km/h
1695 15-08-2008 01:51:04 16.1 C 7.68 g/m*3 16.1 C 0 km/h
1696 15-08-2008 02:03:04 16.1 C 7.68 g/m*3 16.1 C 0 km/h
1697 15-08-2008 02:15:04 16 C 7.77 g/m*3 16 C 0 km/h
1698 15-08-2008 02:27:04 15.9 C 7.99 g/m*3 15.9 C 0 km/h
1699 15-08-2008 02:39:04 15.7 C 7.89 g/m*3 15.7 C 0 km/h
1700 15-08-2008 02:51:04 15.6 C 7.85 g/m*3 15.6 C 0 km/h
Sensor: Nr:Datum:Temp:Abs-Feuchte:Windchill:Wind:
Aussen-T/F 1701 15-08-2008 03:03:04 15.6 C 7.98 g/m*3 15.6 C 0 km/h
1702 15-08-2008 03:15:04 15.5 C 8.06 g/m*3 15.5 C 0 km/h
1703 15-08-2008 03:27:04 15.5 C 8.06 g/m*3 15.5 C 0 km/h
1704 15-08-2008 03:39:04 15.2 C 8.05 g/m*3 15.2 C 0 km/h
1705 15-08-2008 03:51:04 15.2 C 8.18 g/m*3 15.2 C 0 km/h
1706 15-08-2008 04:03:04 14.9 C 8.28 g/m*3 14.9 C 0 km/h
1707 15-08-2008 04:15:04 14.7 C 8.31 g/m*3 14.7 C 0 km/h
1708 15-08-2008 04:27:04 14.5 C 8.33 g/m*3 14.5 C 0 km/h
1709 15-08-2008 04:39:04 14.6 C 8.38 g/m*3 14.6 C 0 km/h
1710 15-08-2008 04:51:04 14.6 C 8.38 g/m*3 14.6 C 0 km/h
1711 15-08-2008 05:03:05 14.5 C 8.33 g/m*3 14.5 C 0 km/h
1712 15-08-2008 05:15:05 14.3 C 8.35 g/m*3 14.3 C 0 km/h
1713 15-08-2008 05:27:05 14 C 8.32 g/m*3 14 C 0 km/h
1714 15-08-2008 05:39:05 13.8 C 8.46 g/m*3 13.8 C 0 km/h
1715 15-08-2008 05:51:05 13.8 C 8.46 g/m*3 13.8 C 0 km/h
1716 15-08-2008 06:03:05 13.7 C 8.53 g/m*3 13.7 C 0 km/h
1717 15-08-2008 06:15:05 13.6 C 8.47 g/m*3 13.6 C 0 km/h
1718 15-08-2008 06:27:05 13.6 C 8.47 g/m*3 13.6 C 0 km/h
1719 15-08-2008 06:39:05 13.5 C 8.54 g/m*3 13.5 C 0 km/h
1720 15-08-2008 06:51:01 13.5 C 8.54 g/m*3 13.5 C 0 km/h
1721 15-08-2008 07:03:02 13.4 C 8.6 g/m*3 13.4 C 0 km/h
1722 15-08-2008 07:15:01 13.3 C 8.55 g/m*3 13.3 C 0 km/h
1723 15-08-2008 07:27:01 13 C 8.51 g/m*3 13 C 0 km/h
1724 15-08-2008 07:39:02 12.8 C 8.62 g/m*3 12.8 C 0 km/h
1725 15-08-2008 07:51:02 12.8 C 8.74 g/m*3 12.8 C 0 km/h
Sensor: Nr:Datum:Temp:Abs-Feuchte:Windchill:Wind:
Aussen-T/F 1726 15-08-2008 08:03:02 12.9 C 8.79 g/m*3 12.9 C 0 km/h
1727 15-08-2008 08:15:02 13 C 8.73 g/m*3 13 C 0 km/h
1728 15-08-2008 08:27:02 13.3 C 8.9 g/m*3 13.3 C 0 km/h
1729 15-08-2008 08:39:02 13.5 C 8.77 g/m*3 13.5 C 0 km/h
1730 15-08-2008 08:51:02 13.8 C 8.82 g/m*3 13.8 C 0 km/h
1731 15-08-2008 09:03:03 14.1 C 8.86 g/m*3 14.1 C 0 km/h
1732 15-08-2008 09:15:02 14.4 C 8.65 g/m*3 14.4 C 0 km/h
1733 15-08-2008 09:27:03 15 C 8.98 g/m*3 15 C 0 km/h
1734 15-08-2008 09:39:02 16 C 8.86 g/m*3 16 C 0 km/h
1735 15-08-2008 09:51:02 16.8 C 8.72 g/m*3 16.8 C 0 km/h
1736 15-08-2008 10:03:02 17.2 C 8.05 g/m*3 17.2 C 0 km/h
1737 15-08-2008 10:15:02 17.7 C 8.15 g/m*3 17.7 C 0 km/h
1738 15-08-2008 10:27:02 18.1 C 8.19 g/m*3 18.1 C 0 km/h
1739 15-08-2008 10:39:02 18.4 C 8.02 g/m*3 18.4 C 0 km/h
1740 15-08-2008 10:51:01 18.9 C 7.94 g/m*3 18.9 C 0 km/h
1741 15-08-2008 11:03:02 19.3 C 7.3 g/m*3 19.3 C 0 km/h
1742 15-08-2008 11:15:01 19.9 C 7.56 g/m*3 19.9 C 0 km/h
1743 15-08-2008 11:27:01 20.6 C 7.52 g/m*3 20.6 C 0 km/h
1744 15-08-2008 11:39:01 20.8 C 7.42 g/m*3 20.8 C 0 km/h
1745 15-08-2008 11:51:02 20.5 C 7.3 g/m*3 20.5 C 0 km/h
1746 15-08-2008 12:03:02 21.2 C 7.23 g/m*3 21.2 C 0 km/h
1747 15-08-2008 12:15:02 22.1 C 7.22 g/m*3 22.1 C 0 km/h
1748 15-08-2008 12:27:02 22.8 C 7.52 g/m*3 22.8 C 0 km/h
1749 15-08-2008 12:39:02 23 C 6.99 g/m*3 23 C 0 km/h
1750 15-08-2008 12:51:02 22.7 C 7.07 g/m*3 22.7 C 0 km/h
Sensor: Nr:Datum:Temp:Abs-Feuchte:Windchill:Wind:
Aussen-T/F 1751 15-08-2008 13:03:03 21.6 C 7.21 g/m*3 21.6 C 0 km/h
1752 15-08-2008 13:15:02 22 C 6.79 g/m*3 22 C 0 km/h
1753 15-08-2008 13:27:02 21.7 C 6.87 g/m*3 21.7 C 0 km/h
1754 15-08-2008 13:39:03 22.1 C 6.83 g/m*3 22.1 C 0 km/h
1755 15-08-2008 13:51:02 22.7 C 6.67 g/m*3 22.7 C 0 km/h
1756 15-08-2008 14:03:01 22.3 C 7.7 g/m*3 22.3 C 0 km/h
1757 15-08-2008 14:15:02 19.6 C 8.61 g/m*3 19.6 C 0 km/h
1758 15-08-2008 14:27:02 19.2 C 8.08 g/m*3 19.2 C 0 km/h
1759 15-08-2008 14:39:01 19.7 C 7.81 g/m*3 19.7 C 0 km/h
1760 15-08-2008 14:51:02 20.5 C 8.36 g/m*3 20.5 C 0 km/h
1761 15-08-2008 15:03:01 22.7 C 7.07 g/m*3 22.7 C 0 km/h
1762 15-08-2008 15:21:02 20.6 C 7.87 g/m*3 20.6 C 0 km/h
1763 15-08-2008 15:33:01 20.7 C 8.1 g/m*3 20.7 C 0 km/h
1764 15-08-2008 15:45:02 22 C 8.15 g/m*3 22 C 0 km/h
1765 15-08-2008 15:57:02 22.6 C 7.23 g/m*3 22.6 C 0 km/h
1766 15-08-2008 16:09:01 22.9 C 7.56 g/m*3 22.9 C 0 km/h
1767 15-08-2008 16:21:02 23.6 C 7.02 g/m*3 23.6 C 0 km/h
1768 15-08-2008 16:33:01 24.8 C 6.83 g/m*3 24.8 C 0 km/h
1769 15-08-2008 16:45:01 26.1 C 6.12 g/m*3 26.1 C 0 km/h
1770 15-08-2008 16:57:01 24.8 C 6.15 g/m*3 24.8 C 0 km/h
1771 15-08-2008 17:09:01 23.8 C 6.67 g/m*3 23.8 C 0 km/h
1772 15-08-2008 17:21:01 24.4 C 6.9 g/m*3 24.4 C 0 km/h
1773 15-08-2008 17:33:01 25.3 C 6.55 g/m*3 25.3 C 0 km/h
1774 15-08-2008 17:45:01 24.3 C 7.08 g/m*3 24.3 C 0 km/h
1775 15-08-2008 17:57:01 23.6 C 7.44 g/m*3 23.6 C 0 km/h
Sensor: Nr:Datum:Temp:Abs-Feuchte:Windchill:Wind:
Aussen-T/F 1776 15-08-2008 18:09:02 24 C 6.74 g/m*3 24 C 0 km/h
1777 15-08-2008 18:21:01 24 C 6.96 g/m*3 24 C 0 km/h
1778 15-08-2008 18:33:02 23.4 C 6.94 g/m*3 23.4 C 0 km/h
1779 15-08-2008 18:45:03 23.8 C 6.88 g/m*3 23.8 C 0 km/h
1780 15-08-2008 18:57:03 24.1 C 7 g/m*3 24.1 C 0 km/h
1781 15-08-2008 19:09:02 24.6 C 6.98 g/m*3 24.6 C 0 km/h
1782 15-08-2008 19:21:02 24.6 C 6.75 g/m*3 24.6 C 0 km/h
1783 15-08-2008 19:33:02 24.7 C 7.02 g/m*3 24.7 C 0 km/h
1784 15-08-2008 19:45:01 24.2 C 7.26 g/m*3 24.2 C 0 km/h
1785 15-08-2008 19:57:01 22 C 7.38 g/m*3 22 C 0 km/h
1786 15-08-2008 20:09:02 20.6 C 7.52 g/m*3 20.6 C 0 km/h
1787 15-08-2008 20:21:01 19.9 C 7.56 g/m*3 19.9 C 0 km/h
1788 15-08-2008 20:33:02 19.4 C 7.51 g/m*3 19.4 C 0 km/h
1789 15-08-2008 20:45:03 19.1 C 7.54 g/m*3 19.1 C 0 km/h
1790 15-08-2008 20:57:03 18.9 C 7.78 g/m*3 18.9 C 0 km/h
1791 15-08-2008 21:09:02 18.4 C 7.86 g/m*3 18.4 C 0 km/h
1792 15-08-2008 21:21:02 18.1 C 7.57 g/m*3 18.1 C 0 km/h
1793 15-08-2008 21:33:02 18.2 C 8.08 g/m*3 18.2 C 0 km/h
1794 15-08-2008 21:45:01 18 C 7.99 g/m*3 18 C 0 km/h
1795 15-08-2008 21:57:01 17.7 C 8.6 g/m*3 17.7 C 0 km/h
1796 15-08-2008 22:10:03 17.1 C 9.03 g/m*3 17.1 C 0 km/h
1797 15-08-2008 22:22:03 17.1 C 8.88 g/m*3 17.1 C 0 km/h
1798 15-08-2008 22:34:03 16.8 C 8.72 g/m*3 16.8 C 0 km/h
1799 15-08-2008 22:46:03 16.7 C 8.67 g/m*3 16.7 C 0 km/h
1800 15-08-2008 22:58:03 17 C 8.25 g/m*3 17 C 0 km/h
Sensor: Nr:Datum:Temp:Abs-Feuchte:Windchill:Wind:
Aussen-T/F 1801 15-08-2008 23:10:03 17 C 8.25 g/m*3 17 C 0 km/h
1802 15-08-2008 23:22:03 16.7 C 8.38 g/m*3 16.7 C 0 km/h
1803 15-08-2008 23:34:03 16.3 C 8.32 g/m*3 16.3 C 0 km/h
1804 15-08-2008 23:46:04 16 C 8.31 g/m*3 16 C 0 km/h
1805 15-08-2008 23:58:04 15.8 C 8.35 g/m*3 15.8 C 0 km/h
1806 16-08-2008 00:10:04 15.4 C 8.41 g/m*3 15.4 C 0 km/h
1807 16-08-2008 00:22:04 15.4 C 8.41 g/m*3 15.4 C 0 km/h
1808 16-08-2008 00:34:04 15.1 C 8.51 g/m*3 15.1 C 0 km/h
1809 16-08-2008 00:46:04 14.8 C 8.36 g/m*3 14.8 C 0 km/h
1810 16-08-2008 00:58:04 14.7 C 8.56 g/m*3 14.7 C 0 km/h
1811 16-08-2008 01:10:04 14.4 C 8.65 g/m*3 14.4 C 0 km/h
1812 16-08-2008 01:22:04 14.1 C 8.5 g/m*3 14.1 C 0 km/h
1813 16-08-2008 01:34:04 14.1 C 8.62 g/m*3 14.1 C 0 km/h
1814 16-08-2008 01:46:04 13.9 C 8.63 g/m*3 13.9 C 0 km/h
1815 16-08-2008 01:58:04 13.9 C 8.75 g/m*3 13.9 C 0 km/h
1816 16-08-2008 02:10:04 13.7 C 8.64 g/m*3 13.7 C 0 km/h
1817 16-08-2008 02:22:04 13.5 C 8.66 g/m*3 13.5 C 0 km/h
1818 16-08-2008 02:34:04 13.4 C 8.6 g/m*3 13.4 C 0 km/h
1819 16-08-2008 02:46:04 13.2 C 8.5 g/m*3 13.2 C 0 km/h
1820 16-08-2008 02:58:04 13.1 C 8.56 g/m*3 13.1 C 0 km/h
1821 16-08-2008 03:10:04 12.9 C 8.57 g/m*3 12.9 C 0 km/h
1822 16-08-2008 03:22:04 12.7 C 8.68 g/m*3 12.7 C 0 km/h
1823 16-08-2008 03:34:04 12.5 C 8.58 g/m*3 12.5 C 0 km/h
1824 16-08-2008 03:46:04 12.4 C 8.52 g/m*3 12.4 C 0 km/h
1825 16-08-2008 03:58:05 12.4 C 8.63 g/m*3 12.4 C 0 km/h
Sensor: Nr:Datum:Temp:Abs-Feuchte:Windchill:Wind:
Aussen-T/F 1826 16-08-2008 04:10:05 12.1 C 8.47 g/m*3 12.1 C 0 km/h
1827 16-08-2008 04:22:05 12 C 8.63 g/m*3 12 C 0 km/h
1828 16-08-2008 04:34:05 11.8 C 8.63 g/m*3 11.8 C 0 km/h
1829 16-08-2008 04:46:05 11.6 C 8.63 g/m*3 11.6 C 0 km/h
1830 16-08-2008 04:58:05 11.5 C 8.57 g/m*3 11.5 C 0 km/h
1831 16-08-2008 05:10:05 11.4 C 8.52 g/m*3 11.4 C 0 km/h
1832 16-08-2008 05:22:05 11.2 C 8.41 g/m*3 11.2 C 0 km/h
1833 16-08-2008 05:34:05 11.1 C 8.36 g/m*3 11.1 C 0 km/h
1834 16-08-2008 05:46:05 11 C 8.41 g/m*3 11 C 0 km/h
1835 16-08-2008 05:58:05 10.8 C 8.3 g/m*3 10.8 C 0 km/h
1836 16-08-2008 06:10:05 10.8 C 8.3 g/m*3 10.8 C 0 km/h
1837 16-08-2008 06:22:05 10.7 C 8.25 g/m*3 10.7 C 0 km/h
1838 16-08-2008 06:34:05 10.6 C 8.2 g/m*3 10.6 C 0 km/h
1839 16-08-2008 06:46:05 10.5 C 8.24 g/m*3 10.5 C 0 km/h
1840 16-08-2008 06:58:05 10.5 C 8.24 g/m*3 10.5 C 0 km/h
1841 16-08-2008 07:10:05 10.6 C 8.3 g/m*3 10.6 C 0 km/h
1842 16-08-2008 07:22:02 10.7 C 8.25 g/m*3 10.7 C 0 km/h
1843 16-08-2008 07:34:03 10.8 C 8.3 g/m*3 10.8 C 0 km/h
1844 16-08-2008 07:46:02 10.9 C 8.36 g/m*3 10.9 C 0 km/h
1845 16-08-2008 07:58:02 11 C 8.41 g/m*3 11 C 0 km/h
1846 16-08-2008 08:10:02 11.1 C 8.46 g/m*3 11.1 C 0 km/h
1847 16-08-2008 08:22:02 11.4 C 8.62 g/m*3 11.4 C 0 km/h
1848 16-08-2008 08:34:02 11.6 C 8.73 g/m*3 11.6 C 0 km/h
1849 16-08-2008 08:46:03 12 C 8.74 g/m*3 12 C 0 km/h
1850 16-08-2008 08:58:03 12.2 C 8.63 g/m*3 12.2 C 0 km/h
Sensor: Nr:Datum:Temp:Abs-Feuchte:Windchill:Wind:
Aussen-T/F 1851 16-08-2008 09:10:02 12.6 C 8.74 g/m*3 12.6 C 0 km/h
1852 16-08-2008 09:22:03 13 C 8.62 g/m*3 13 C 0 km/h
1853 16-08-2008 09:34:02 13.5 C 8.77 g/m*3 13.5 C 0 km/h
1854 16-08-2008 09:46:02 14.1 C 8.74 g/m*3 14.1 C 0 km/h
1855 16-08-2008 09:58:02 14.7 C 8.69 g/m*3 14.7 C 0 km/h
1856 16-08-2008 10:10:02 15.3 C 8.75 g/m*3 15.3 C 0 km/h
1857 16-08-2008 10:22:02 16.1 C 8.77 g/m*3 16.1 C 0 km/h
1858 16-08-2008 10:34:02 16.7 C 8.81 g/m*3 16.7 C 0 km/h
1859 16-08-2008 10:46:02 17.4 C 8.74 g/m*3 17.4 C 0 km/h
1860 16-08-2008 10:58:02 18.1 C 8.5 g/m*3 18.1 C 0 km/h
1861 16-08-2008 11:10:01 18.9 C 8.59 g/m*3 18.9 C 0 km/h
1862 16-08-2008 11:22:02 20 C 8.64 g/m*3 20 C 0 km/h
1863 16-08-2008 11:34:01 20.7 C 8.28 g/m*3 20.7 C 0 km/h
1864 16-08-2008 11:46:01 20.4 C 7.78 g/m*3 20.4 C 0 km/h
1865 16-08-2008 11:58:01 20.8 C 7.97 g/m*3 20.8 C 0 km/h
1866 16-08-2008 12:10:01 21.4 C 7.31 g/m*3 21.4 C 0 km/h
1867 16-08-2008 12:22:01 22.1 C 6.83 g/m*3 22.1 C 0 km/h
1868 16-08-2008 12:34:01 22.5 C 6.99 g/m*3 22.5 C 0 km/h
1869 16-08-2008 12:46:01 22.4 C 6.16 g/m*3 22.4 C 0 km/h
1870 16-08-2008 12:58:01 22.5 C 5.79 g/m*3 22.5 C 0 km/h
1871 16-08-2008 13:10:02 22.7 C 5.66 g/m*3 22.7 C 0 km/h
1872 16-08-2008 13:22:01 23.5 C 5.5 g/m*3 23.5 C 0 km/h
1873 16-08-2008 13:34:02 24.8 C 5.92 g/m*3 24.8 C 0 km/h
1874 16-08-2008 13:46:02 25.1 C 5.32 g/m*3 25.1 C 0 km/h
1875 16-08-2008 13:58:03 25.2 C 4.89 g/m*3 25.2 C 0 km/h
Sensor: Nr:Datum:Temp:Abs-Feuchte:Windchill:Wind:
Aussen-T/F 1876 16-08-2008 14:10:02 24.8 C 5.01 g/m*3 24.8 C 0 km/h
1877 16-08-2008 14:22:02 25.7 C 5.51 g/m*3 25.7 C 0 km/h
1878 16-08-2008 14:34:01 26.7 C 5.06 g/m*3 26.7 C 0 km/h
1879 16-08-2008 14:46:02 26.8 C 5.09 g/m*3 26.8 C 0 km/h
1880 16-08-2008 14:58:02 27.2 C 5.2 g/m*3 27.2 C 0 km/h
1881 16-08-2008 15:10:02 27.8 C 5.38 g/m*3 27.8 C 0 km/h
1882 16-08-2008 15:22:02 28.3 C 5.53 g/m*3 28.3 C 0 km/h
1883 16-08-2008 15:34:02 28.8 C 5.68 g/m*3 28.8 C 0 km/h
1884 16-08-2008 15:46:01 29.4 C 5.87 g/m*3 29.4 C 0 km/h
1885 16-08-2008 15:58:01 29.9 C 6.03 g/m*3 29.9 C 0 km/h
1886 16-08-2008 16:10:02 30.2 C 6.13 g/m*3 30.2 C 0 km/h
1887 16-08-2008 16:22:01 29.8 C 6 g/m*3 29.8 C 0 km/h
1888 16-08-2008 16:34:02 29.8 C 6 g/m*3 29.8 C 0 km/h
1889 16-08-2008 16:46:02 30.2 C 6.13 g/m*3 30.2 C 0 km/h
1890 16-08-2008 16:58:02 30.6 C 6.26 g/m*3 30.6 C 0 km/h
1891 16-08-2008 17:10:02 30.9 C 6.37 g/m*3 30.9 C 0 km/h
1892 16-08-2008 17:22:02 29.2 C 5.81 g/m*3 29.2 C 0 km/h
1893 16-08-2008 17:34:02 28.6 C 5.62 g/m*3 28.6 C 0 km/h
1894 16-08-2008 17:46:02 29 C 5.74 g/m*3 29 C 0 km/h
1895 16-08-2008 17:58:02 29.5 C 5.9 g/m*3 29.5 C 0 km/h
1896 16-08-2008 18:10:01 30.3 C 6.16 g/m*3 30.3 C 0 km/h
1897 16-08-2008 18:22:02 30.3 C 6.16 g/m*3 30.3 C 0 km/h
1898 16-08-2008 18:34:01 30.3 C 6.16 g/m*3 30.3 C 0 km/h
1899 16-08-2008 18:46:01 30.1 C 6.1 g/m*3 30.1 C 0 km/h
1900 16-08-2008 18:58:01 29.7 C 5.97 g/m*3 29.7 C 0 km/h
Sensor: Nr:Datum:Temp:Abs-Feuchte:Windchill:Wind:
Aussen-T/F 1901 16-08-2008 19:10:02 28.4 C 5.56 g/m*3 28.4 C 0 km/h
1902 16-08-2008 19:22:01 26.5 C 6.26 g/m*3 26.5 C 0 km/h
1903 16-08-2008 19:34:02 24.9 C 6.18 g/m*3 24.9 C 0 km/h
1904 16-08-2008 19:46:01 23.6 C 6.38 g/m*3 23.6 C 0 km/h
1905 16-08-2008 19:58:01 22.8 C 6.3 g/m*3 22.8 C 0 km/h
1906 16-08-2008 20:10:02 22 C 6.4 g/m*3 22 C 0 km/h
1907 16-08-2008 20:22:02 21.3 C 6.52 g/m*3 21.3 C 0 km/h
1908 16-08-2008 20:34:02 20.8 C 6.7 g/m*3 20.8 C 0 km/h
1909 16-08-2008 20:46:02 20.6 C 6.8 g/m*3 20.6 C 0 km/h
1910 16-08-2008 20:58:02 19.6 C 6.92 g/m*3 19.6 C 0 km/h
1911 16-08-2008 21:10:02 19.2 C 6.76 g/m*3 19.2 C 0 km/h
1912 16-08-2008 21:22:01 19 C 6.84 g/m*3 19 C 0 km/h
1913 16-08-2008 21:34:02 18.9 C 6.97 g/m*3 18.9 C 0 km/h
1914 16-08-2008 21:46:02 18.7 C 7.04 g/m*3 18.7 C 0 km/h
1915 16-08-2008 21:58:02 18.6 C 7.16 g/m*3 18.6 C 0 km/h
1916 16-08-2008 22:10:02 18.5 C 7.28 g/m*3 18.5 C 0 km/h
1917 16-08-2008 22:23:02 18.5 C 7.28 g/m*3 18.5 C 0 km/h
1918 16-08-2008 22:35:02 18.2 C 7.15 g/m*3 18.2 C 0 km/h
1919 16-08-2008 22:47:02 18.2 C 7.15 g/m*3 18.2 C 0 km/h
1920 16-08-2008 22:59:02 18 C 7.07 g/m*3 18 C 0 km/h
1921 16-08-2008 23:11:02 17.8 C 7.59 g/m*3 17.8 C 0 km/h
1922 16-08-2008 23:23:02 17.5 C 7.75 g/m*3 17.5 C 0 km/h
1923 16-08-2008 23:35:02 17.3 C 7.37 g/m*3 17.3 C 0 km/h
1924 16-08-2008 23:47:02 17.1 C 7.42 g/m*3 17.1 C 0 km/h
1925 16-08-2008 23:59:03 16.9 C 7.19 g/m*3 16.9 C 0 km/h
Sensor: Nr:Datum:Temp:Abs-Feuchte:Windchill:Wind:
Aussen-T/F 1926 17-08-2008 00:11:03 16.6 C 7.06 g/m*3 16.6 C 0 km/h
1927 17-08-2008 00:23:03 16.2 C 7.03 g/m*3 16.2 C 0 km/h
1928 17-08-2008 00:35:03 16.1 C 7.26 g/m*3 16.1 C 0 km/h
1929 17-08-2008 00:47:03 15.9 C 7.31 g/m*3 15.9 C 0 km/h
1930 17-08-2008 00:59:03 15.8 C 7.4 g/m*3 15.8 C 0 km/h
1931 17-08-2008 01:11:03 15.6 C 7.45 g/m*3 15.6 C 0 km/h
1932 17-08-2008 01:23:03 15.3 C 7.44 g/m*3 15.3 C 0 km/h
1933 17-08-2008 01:35:03 15.1 C 7.48 g/m*3 15.1 C 0 km/h
1934 17-08-2008 01:47:03 14.9 C 7.52 g/m*3 14.9 C 0 km/h
1935 17-08-2008 01:59:03 14.8 C 7.6 g/m*3 14.8 C 0 km/h
1936 17-08-2008 02:11:03 14.7 C 7.55 g/m*3 14.7 C 0 km/h
1937 17-08-2008 02:23:03 14.4 C 7.54 g/m*3 14.4 C 0 km/h
1938 17-08-2008 02:35:03 14.4 C 7.66 g/m*3 14.4 C 0 km/h
1939 17-08-2008 02:47:03 14.3 C 7.62 g/m*3 14.3 C 0 km/h
1940 17-08-2008 02:59:03 14.1 C 7.65 g/m*3 14.1 C 0 km/h
1941 17-08-2008 03:11:03 13.8 C 7.86 g/m*3 13.8 C 0 km/h
1942 17-08-2008 03:23:03 13.7 C 7.82 g/m*3 13.7 C 0 km/h
1943 17-08-2008 03:35:03 13.7 C 7.82 g/m*3 13.7 C 0 km/h
1944 17-08-2008 03:47:03 13.5 C 7.72 g/m*3 13.5 C 0 km/h
1945 17-08-2008 03:59:03 13.6 C 7.77 g/m*3 13.6 C 0 km/h
1946 17-08-2008 04:11:04 13.4 C 7.79 g/m*3 13.4 C 0 km/h
1947 17-08-2008 04:23:04 13.1 C 7.76 g/m*3 13.1 C 0 km/h
1948 17-08-2008 04:35:04 13.1 C 7.87 g/m*3 13.1 C 0 km/h
1949 17-08-2008 04:47:04 12.9 C 7.89 g/m*3 12.9 C 0 km/h
1950 17-08-2008 04:59:04 12.9 C 7.89 g/m*3 12.9 C 0 km/h
Sensor: Nr:Datum:Temp:Abs-Feuchte:Windchill:Wind:
Aussen-T/F 1951 17-08-2008 05:11:04 12.8 C 7.95 g/m*3 12.8 C 0 km/h
1952 17-08-2008 05:23:04 12.7 C 7.9 g/m*3 12.7 C 0 km/h
1953 17-08-2008 05:35:04 12.5 C 7.92 g/m*3 12.5 C 0 km/h
1954 17-08-2008 05:47:04 12.3 C 7.82 g/m*3 12.3 C 0 km/h
1955 17-08-2008 05:59:04 12.4 C 7.98 g/m*3 12.4 C 0 km/h
1956 17-08-2008 06:11:04 12.2 C 7.88 g/m*3 12.2 C 0 km/h
1957 17-08-2008 06:23:04 12.1 C 7.94 g/m*3 12.1 C 0 km/h
1958 17-08-2008 06:35:04 11.9 C 8.05 g/m*3 11.9 C 0 km/h
1959 17-08-2008 06:47:04 11.9 C 8.05 g/m*3 11.9 C 0 km/h
1960 17-08-2008 06:59:04 12 C 7.99 g/m*3 12 C 0 km/h
1961 17-08-2008 07:11:04 12 C 7.99 g/m*3 12 C 0 km/h
1962 17-08-2008 07:23:04 12 C 8.1 g/m*3 12 C 0 km/h
1963 17-08-2008 07:35:04 12 C 8.1 g/m*3 12 C 0 km/h
1964 17-08-2008 07:47:04 12.1 C 8.15 g/m*3 12.1 C 0 km/h
1965 17-08-2008 07:59:04 12.5 C 8.36 g/m*3 12.5 C 0 km/h
1966 17-08-2008 08:11:05 12.5 C 8.36 g/m*3 12.5 C 0 km/h
1967 17-08-2008 08:23:05 12.6 C 8.3 g/m*3 12.6 C 0 km/h
1968 17-08-2008 08:35:05 12.9 C 8.45 g/m*3 12.9 C 0 km/h
1969 17-08-2008 08:47:05 13.2 C 8.38 g/m*3 13.2 C 0 km/h
1970 17-08-2008 08:59:05 13.6 C 8.47 g/m*3 13.6 C 0 km/h
1971 17-08-2008 09:11:02 13.9 C 8.51 g/m*3 13.9 C 0 km/h
1972 17-08-2008 09:23:03 14.6 C 8.51 g/m*3 14.6 C 0 km/h
1973 17-08-2008 09:35:03 15.1 C 8.39 g/m*3 15.1 C 0 km/h
1974 17-08-2008 09:47:01 15.5 C 8.46 g/m*3 15.5 C 0 km/h
1975 17-08-2008 09:59:01 16.2 C 8.69 g/m*3 16.2 C 0 km/h
Sensor: Nr:Datum:Temp:Abs-Feuchte:Windchill:Wind:
Aussen-T/F 1976 17-08-2008 10:11:03 17.1 C 8.88 g/m*3 17.1 C 0 km/h
1977 17-08-2008 10:23:02 17.8 C 8.95 g/m*3 17.8 C 0 km/h
1978 17-08-2008 10:35:02 18.7 C 9.13 g/m*3 18.7 C 0 km/h
1979 17-08-2008 10:47:02 19.6 C 8.95 g/m*3 19.6 C 0 km/h
1980 17-08-2008 10:59:02 20.2 C 8.92 g/m*3 20.2 C 0 km/h
1981 17-08-2008 11:11:03 21 C 8.61 g/m*3 21 C 0 km/h
1982 17-08-2008 11:23:03 21.8 C 8.83 g/m*3 21.8 C 0 km/h
1983 17-08-2008 11:35:03 22.5 C 8.19 g/m*3 22.5 C 0 km/h
1984 17-08-2008 11:47:02 22.9 C 7.77 g/m*3 22.9 C 0 km/h
1985 17-08-2008 11:59:02 23.1 C 7.23 g/m*3 23.1 C 0 km/h
1986 17-08-2008 12:11:02 23.7 C 6.84 g/m*3 23.7 C 0 km/h
1987 17-08-2008 12:23:02 24.3 C 6.64 g/m*3 24.3 C 0 km/h
1988 17-08-2008 12:35:02 24.1 C 5.69 g/m*3 24.1 C 0 km/h
1989 17-08-2008 12:47:03 24.5 C 5.6 g/m*3 24.5 C 0 km/h
1990 17-08-2008 12:59:03 24.5 C 4.7 g/m*3 24.5 C 0 km/h
1991 17-08-2008 13:11:02 25 C 4.83 g/m*3 25 C 0 km/h
1992 17-08-2008 13:23:02 25.5 C 4.73 g/m*3 25.5 C 0 km/h
1993 17-08-2008 13:35:02 26.4 C 4.98 g/m*3 26.4 C 0 km/h
1994 17-08-2008 13:47:02 26.1 C 4.9 g/m*3 26.1 C 0 km/h
1995 17-08-2008 13:59:02 26.6 C 5.03 g/m*3 26.6 C 0 km/h
1996 17-08-2008 14:11:02 26.3 C 4.95 g/m*3 26.3 C 0 km/h
1997 17-08-2008 14:23:01 26.2 C 5.17 g/m*3 26.2 C 0 km/h
1998 17-08-2008 14:35:01 26.8 C 5.35 g/m*3 26.8 C 0 km/h
1999 17-08-2008 14:47:01 26.8 C 5.6 g/m*3 26.8 C 0 km/h
2000 17-08-2008 14:59:01 25.9 C 5.57 g/m*3 25.9 C 0 km/h
Sensor: Nr:Datum:Temp:Abs-Feuchte:Windchill:Wind:
Aussen-T/F 2001 17-08-2008 15:11:02 25.1 C 5.56 g/m*3 25.1 C 0 km/h
2002 17-08-2008 15:23:01 25.3 C 5.62 g/m*3 25.3 C 0 km/h
2003 17-08-2008 15:35:01 25.7 C 5.99 g/m*3 25.7 C 0 km/h
2004 17-08-2008 15:47:02 27.6 C 5.59 g/m*3 27.6 C 0 km/h
2005 17-08-2008 15:59:02 28.5 C 5.87 g/m*3 28.5 C 0 km/h
2006 17-08-2008 16:11:02 27.9 C 5.68 g/m*3 27.9 C 0 km/h
2007 17-08-2008 16:23:02 27.1 C 5.69 g/m*3 27.1 C 0 km/h
2008 17-08-2008 16:35:01 27.1 C 5.43 g/m*3 27.1 C 0 km/h
2009 17-08-2008 16:47:02 26.3 C 5.45 g/m*3 26.3 C 0 km/h
2010 17-08-2008 16:59:02 26.6 C 5.54 g/m*3 26.6 C 0 km/h
2011 17-08-2008 17:11:01 26.3 C 5.69 g/m*3 26.3 C 0 km/h
2012 17-08-2008 17:23:02 26 C 5.84 g/m*3 26 C 0 km/h
2013 17-08-2008 17:35:01 25.9 C 6.54 g/m*3 25.9 C 0 km/h
2014 17-08-2008 17:47:01 25.4 C 6.12 g/m*3 25.4 C 0 km/h
2015 17-08-2008 17:59:01 25.4 C 6.83 g/m*3 25.4 C 0 km/h
2016 17-08-2008 18:11:02 25.2 C 6.98 g/m*3 25.2 C 0 km/h
2017 17-08-2008 18:23:01 25.2 C 6.52 g/m*3 25.2 C 0 km/h
2018 17-08-2008 18:35:02 24.9 C 6.87 g/m*3 24.9 C 0 km/h
2019 17-08-2008 18:47:02 24.6 C 6.75 g/m*3 24.6 C 0 km/h
2020 17-08-2008 18:59:02 24.6 C 6.98 g/m*3 24.6 C 0 km/h
2021 17-08-2008 19:11:02 25.4 C 7.06 g/m*3 25.4 C 0 km/h
2022 17-08-2008 19:23:02 24.8 C 7.28 g/m*3 24.8 C 0 km/h
2023 17-08-2008 19:35:02 23.9 C 7.79 g/m*3 23.9 C 0 km/h
2024 17-08-2008 19:47:01 23.7 C 7.7 g/m*3 23.7 C 0 km/h
2025 17-08-2008 19:59:01 24.1 C 7.88 g/m*3 24.1 C 0 km/h
Sensor: Nr:Datum:Temp:Abs-Feuchte:Windchill:Wind:
Aussen-T/F 2026 17-08-2008 20:11:01 23.3 C 7.95 g/m*3 23.3 C 0 km/h
2027 17-08-2008 20:23:01 22.1 C 7.81 g/m*3 22.1 C 0 km/h
2028 17-08-2008 20:35:02 21.4 C 8.06 g/m*3 21.4 C 0 km/h
2029 17-08-2008 20:47:02 21.1 C 7.92 g/m*3 21.1 C 0 km/h
2030 17-08-2008 20:59:02 20.8 C 8.33 g/m*3 20.8 C 0 km/h
2031 17-08-2008 21:11:02 20.8 C 8.15 g/m*3 20.8 C 0 km/h
2032 17-08-2008 21:23:02 21 C 8.06 g/m*3 21 C 0 km/h
2033 17-08-2008 21:35:02 20.1 C 9.56 g/m*3 20.1 C 0 km/h
2034 17-08-2008 21:47:02 17.7 C 11.32 g/m*3 17.7 C 0 km/h
2035 17-08-2008 21:59:02 17.3 C 11.93 g/m*3 17.3 C 0 km/h
2036 17-08-2008 22:11:01 17.4 C 12.3 g/m*3 17.4 C 0 km/h
2037 17-08-2008 22:23:02 17.6 C 12.6 g/m*3 17.6 C 0 km/h
2038 17-08-2008 22:36:02 17.3 C 12.08 g/m*3 17.3 C 0 km/h
2039 17-08-2008 22:48:02 17.2 C 11.86 g/m*3 17.2 C 0 km/h
2040 17-08-2008 23:00:02 17 C 11.72 g/m*3 17 C 0 km/h
2041 17-08-2008 23:12:02 16.8 C 11.58 g/m*3 16.8 C 0 km/h
2042 17-08-2008 23:24:02 16.5 C 11.37 g/m*3 16.5 C 0 km/h
2043 17-08-2008 23:36:02 16.3 C 11.38 g/m*3 16.3 C 0 km/h
2044 17-08-2008 23:48:02 16.1 C 11.24 g/m*3 16.1 C 0 km/h
2045 18-08-2008 00:00:02 16.1 C 11.24 g/m*3 16.1 C 0 km/h
2046 18-08-2008 00:12:02 16 C 11.17 g/m*3 16 C 0 km/h
2047 18-08-2008 00:24:02 16.1 C 11.24 g/m*3 16.1 C 0 km/h
2048 18-08-2008 00:36:03 16.1 C 11.24 g/m*3 16.1 C 0 km/h
2049 18-08-2008 00:48:03 16.4 C 11.45 g/m*3 16.4 C 0 km/h
2050 18-08-2008 01:00:03 16.5 C 11.37 g/m*3 16.5 C 0 km/h
Sensor: Nr:Datum:Temp:Abs-Feuchte:Windchill:Wind:
Aussen-T/F 2051 18-08-2008 01:12:03 16.5 C 11.37 g/m*3 16.5 C 0 km/h
2052 18-08-2008 01:24:03 16.6 C 11.44 g/m*3 16.6 C 0 km/h
2053 18-08-2008 01:36:03 16.5 C 11.37 g/m*3 16.5 C 0 km/h
2054 18-08-2008 01:48:03 16.6 C 11.44 g/m*3 16.6 C 0 km/h
2055 18-08-2008 02:00:03 16.6 C 11.44 g/m*3 16.6 C 0 km/h
2056 18-08-2008 02:12:03 16.6 C 11.44 g/m*3 16.6 C 0 km/h
2057 18-08-2008 02:24:03 16.6 C 11.44 g/m*3 16.6 C 0 km/h
2058 18-08-2008 02:36:03 16.7 C 11.51 g/m*3 16.7 C 0 km/h
2059 18-08-2008 02:48:03 16.4 C 11.31 g/m*3 16.4 C 0 km/h
2060 18-08-2008 03:00:03 16.3 C 11.38 g/m*3 16.3 C 0 km/h
2061 18-08-2008 03:12:03 16.2 C 11.31 g/m*3 16.2 C 0 km/h
2062 18-08-2008 03:24:03 16 C 11.17 g/m*3 16 C 0 km/h
2063 18-08-2008 03:36:03 15.8 C 11.31 g/m*3 15.8 C 0 km/h
2064 18-08-2008 03:48:03 15.5 C 11.1 g/m*3 15.5 C 0 km/h
2065 18-08-2008 04:00:03 15.4 C 11.04 g/m*3 15.4 C 0 km/h
2066 18-08-2008 04:12:03 15.4 C 11.17 g/m*3 15.4 C 0 km/h
2067 18-08-2008 04:24:03 15.4 C 11.17 g/m*3 15.4 C 0 km/h
2068 18-08-2008 04:36:03 15.4 C 11.17 g/m*3 15.4 C 0 km/h
2069 18-08-2008 04:48:04 15.5 C 11.24 g/m*3 15.5 C 0 km/h
2070 18-08-2008 05:00:04 15.5 C 11.24 g/m*3 15.5 C 0 km/h
2071 18-08-2008 05:12:04 15.7 C 11.51 g/m*3 15.7 C 0 km/h
2072 18-08-2008 05:24:04 15.8 C 11.44 g/m*3 15.8 C 0 km/h
2073 18-08-2008 05:36:04 15.7 C 11.24 g/m*3 15.7 C 0 km/h
2074 18-08-2008 05:48:04 15.8 C 11.44 g/m*3 15.8 C 0 km/h
2075 18-08-2008 06:00:04 15.9 C 11.38 g/m*3 15.9 C 0 km/h
Sensor: Nr:Datum:Temp:Abs-Feuchte:Windchill:Wind:
Aussen-T/F 2076 18-08-2008 06:12:04 15.9 C 11.38 g/m*3 15.9 C 0 km/h
2077 18-08-2008 06:24:04 15.5 C 11.1 g/m*3 15.5 C 0 km/h
2078 18-08-2008 06:36:04 15.3 C 10.97 g/m*3 15.3 C 0 km/h
2079 18-08-2008 06:48:02 15.2 C 11.03 g/m*3 15.2 C 0 km/h
2080 18-08-2008 07:00:03 15.2 C 11.03 g/m*3 15.2 C 0 km/h
2081 18-08-2008 07:12:02 15.2 C 11.16 g/m*3 15.2 C 0 km/h
2082 18-08-2008 07:24:02 15.2 C 11.16 g/m*3 15.2 C 0 km/h
2083 18-08-2008 07:36:02 15.2 C 11.29 g/m*3 15.2 C 0 km/h
2084 18-08-2008 07:48:02 15.3 C 11.36 g/m*3 15.3 C 0 km/h
2085 18-08-2008 08:00:02 15.5 C 11.5 g/m*3 15.5 C 0 km/h
2086 18-08-2008 08:12:01 15.9 C 11.65 g/m*3 15.9 C 0 km/h
2087 18-08-2008 08:24:02 16.4 C 11.72 g/m*3 16.4 C 0 km/h
2088 18-08-2008 08:36:01 16.8 C 11.72 g/m*3 16.8 C 0 km/h
2089 18-08-2008 08:48:02 17.1 C 11.5 g/m*3 17.1 C 0 km/h
2090 18-08-2008 09:00:02 17.9 C 11.76 g/m*3 17.9 C 0 km/h
2091 18-08-2008 09:12:01 18.3 C 11.57 g/m*3 18.3 C 0 km/h
2092 18-08-2008 09:24:01 18.8 C 11.76 g/m*3 18.8 C 0 km/h
2093 18-08-2008 09:36:01 19.6 C 11.65 g/m*3 19.6 C 0 km/h
2094 18-08-2008 09:48:02 20 C 10.89 g/m*3 20 C 0 km/h
2095 18-08-2008 10:00:02 20.1 C 10.95 g/m*3 20.1 C 0 km/h
2096 18-08-2008 10:12:02 20.4 C 10.79 g/m*3 20.4 C 0 km/h
2097 18-08-2008 10:24:02 20.6 C 11.1 g/m*3 20.6 C 0 km/h
2098 18-08-2008 10:36:02 21 C 10.62 g/m*3 21 C 0 km/h
2099 18-08-2008 10:48:02 21.3 C 10.44 g/m*3 21.3 C 0 km/h
2100 18-08-2008 11:00:02 21.6 C 10.24 g/m*3 21.6 C 0 km/h
Sensor: Nr:Datum:Temp:Abs-Feuchte:Windchill:Wind:
Aussen-T/F 2101 18-08-2008 11:12:02 22 C 10.48 g/m*3 22 C 0 km/h
2102 18-08-2008 11:24:03 22.5 C 10.39 g/m*3 22.5 C 0 km/h
2103 18-08-2008 11:36:02 22.7 C 9.7 g/m*3 22.7 C 0 km/h
2104 18-08-2008 11:48:02 23.2 C 9.77 g/m*3 23.2 C 0 km/h
2105 18-08-2008 12:00:02 23.8 C 9.46 g/m*3 23.8 C 0 km/h
2106 18-08-2008 12:12:02 23.9 C 9.52 g/m*3 23.9 C 0 km/h
2107 18-08-2008 12:24:02 23.5 C 9.52 g/m*3 23.5 C 0 km/h
2108 18-08-2008 12:36:02 23.6 C 9.36 g/m*3 23.6 C 0 km/h
2109 18-08-2008 12:48:01 23.5 C 9.31 g/m*3 23.5 C 0 km/h
2110 18-08-2008 13:00:01 23.7 C 9.41 g/m*3 23.7 C 0 km/h
2111 18-08-2008 13:12:02 24.1 C 9.41 g/m*3 24.1 C 0 km/h
2112 18-08-2008 13:24:01 24.8 C 9.1 g/m*3 24.8 C 0 km/h
2113 18-08-2008 13:36:02 25.5 C 9 g/m*3 25.5 C 0 km/h
2114 18-08-2008 13:48:02 25.9 C 8.72 g/m*3 25.9 C 0 km/h
2115 18-08-2008 14:00:02 24.7 C 8.6 g/m*3 24.7 C 0 km/h
2116 18-08-2008 14:12:02 24.6 C 8.78 g/m*3 24.6 C 0 km/h
2117 18-08-2008 14:24:02 23.9 C 9.3 g/m*3 23.9 C 0 km/h
2118 18-08-2008 14:36:02 24.7 C 9.05 g/m*3 24.7 C 0 km/h
2119 18-08-2008 14:48:01 25.3 C 8.66 g/m*3 25.3 C 0 km/h
2120 18-08-2008 15:00:01 25.4 C 8.48 g/m*3 25.4 C 0 km/h
2121 18-08-2008 15:12:01 25.5 C 8.29 g/m*3 25.5 C 0 km/h
2122 18-08-2008 15:24:01 25.3 C 8.19 g/m*3 25.3 C 0 km/h
2123 18-08-2008 15:36:02 25.2 C 8.15 g/m*3 25.2 C 0 km/h
2124 18-08-2008 15:48:02 25.1 C 8.1 g/m*3 25.1 C 0 km/h
2125 18-08-2008 16:00:02 25.4 C 8.71 g/m*3 25.4 C 0 km/h
Sensor: Nr:Datum:Temp:Abs-Feuchte:Windchill:Wind:
Aussen-T/F 2126 18-08-2008 16:12:02 25.7 C 9.1 g/m*3 25.7 C 0 km/h
2127 18-08-2008 16:24:02 26.2 C 8.62 g/m*3 26.2 C 0 km/h
2128 18-08-2008 16:36:02 26.4 C 8.46 g/m*3 26.4 C 0 km/h
2129 18-08-2008 16:48:02 27.9 C 8.11 g/m*3 27.9 C 0 km/h
2130 18-08-2008 17:00:02 29 C 7.76 g/m*3 29 C 0 km/h
2131 18-08-2008 17:12:02 29.8 C 7.2 g/m*3 29.8 C 0 km/h
2132 18-08-2008 17:24:02 29.4 C 7.34 g/m*3 29.4 C 0 km/h
2133 18-08-2008 17:36:02 28.6 C 7.03 g/m*3 28.6 C 0 km/h
2134 18-08-2008 17:48:02 29.7 C 6.86 g/m*3 29.7 C 0 km/h
2135 18-08-2008 18:00:02 30 C 6.97 g/m*3 30 C 0 km/h
2136 18-08-2008 18:12:03 29.6 C 6.83 g/m*3 29.6 C 0 km/h
2137 18-08-2008 18:24:02 28.5 C 6.99 g/m*3 28.5 C 0 km/h
2138 18-08-2008 18:36:03 28.9 C 7.14 g/m*3 28.9 C 0 km/h
2139 18-08-2008 18:48:02 28 C 7.07 g/m*3 28 C 0 km/h
2140 18-08-2008 19:00:03 28 C 7.34 g/m*3 28 C 0 km/h
2141 18-08-2008 19:12:01 28 C 7.34 g/m*3 28 C 0 km/h
2142 18-08-2008 19:24:02 27.5 C 7.67 g/m*3 27.5 C 0 km/h
2143 18-08-2008 19:36:01 27.6 C 7.71 g/m*3 27.6 C 0 km/h
2144 18-08-2008 19:48:02 28.2 C 8.25 g/m*3 28.2 C 0 km/h
2145 18-08-2008 20:00:02 27.5 C 8.2 g/m*3 27.5 C 0 km/h
2146 18-08-2008 20:12:01 26.3 C 8.66 g/m*3 26.3 C 0 km/h
2147 18-08-2008 20:24:02 25.3 C 8.9 g/m*3 25.3 C 0 km/h
2148 18-08-2008 20:36:01 24.6 C 9.23 g/m*3 24.6 C 0 km/h
2149 18-08-2008 20:48:03 24.1 C 9.19 g/m*3 24.1 C 0 km/h
2150 18-08-2008 21:00:03 23.7 C 9.63 g/m*3 23.7 C 0 km/h
Sensor: Nr:Datum:Temp:Abs-Feuchte:Windchill:Wind:
Aussen-T/F 2151 18-08-2008 21:12:02 23.4 C 9.25 g/m*3 23.4 C 0 km/h
2152 18-08-2008 21:24:03 23 C 9.45 g/m*3 23 C 0 km/h
2153 18-08-2008 21:36:02 22.8 C 9.35 g/m*3 22.8 C 0 km/h
2154 18-08-2008 21:48:02 22.6 C 9.64 g/m*3 22.6 C 0 km/h
2155 18-08-2008 22:00:02 22.4 C 9.33 g/m*3 22.4 C 0 km/h
2156 18-08-2008 22:13:01 22.4 C 9.33 g/m*3 22.4 C 0 km/h
2157 18-08-2008 22:25:01 22.3 C 9.48 g/m*3 22.3 C 0 km/h
2158 18-08-2008 22:37:01 22.1 C 9.56 g/m*3 22.1 C 0 km/h
2159 18-08-2008 22:49:01 22 C 9.32 g/m*3 22 C 0 km/h
2160 18-08-2008 23:01:01 21.9 C 9.46 g/m*3 21.9 C 0 km/h
2161 18-08-2008 23:13:01 22 C 9.12 g/m*3 22 C 0 km/h
2162 18-08-2008 23:25:01 21.8 C 9.78 g/m*3 21.8 C 0 km/h
2163 18-08-2008 23:37:01 21.7 C 9.92 g/m*3 21.7 C 0 km/h
2164 18-08-2008 23:49:01 21.6 C 9.86 g/m*3 21.6 C 0 km/h
2165 19-08-2008 00:01:01 21.8 C 9.98 g/m*3 21.8 C 0 km/h
2166 19-08-2008 00:13:01 22 C 10.29 g/m*3 22 C 0 km/h
2167 19-08-2008 00:25:02 20.7 C 11.34 g/m*3 20.7 C 0 km/h
2168 19-08-2008 00:37:02 20.5 C 11.74 g/m*3 20.5 C 0 km/h
2169 19-08-2008 00:49:02 20.5 C 11.92 g/m*3 20.5 C 0 km/h
2170 19-08-2008 01:01:02 20.6 C 12.17 g/m*3 20.6 C 0 km/h
2171 19-08-2008 01:13:02 20.2 C 11.89 g/m*3 20.2 C 0 km/h
2172 19-08-2008 01:25:02 19.8 C 11.79 g/m*3 19.8 C 0 km/h
2173 19-08-2008 01:37:02 19.7 C 11.72 g/m*3 19.7 C 0 km/h
2174 19-08-2008 01:49:02 19.5 C 11.75 g/m*3 19.5 C 0 km/h
2175 19-08-2008 02:01:02 19.5 C 11.75 g/m*3 19.5 C 0 km/h
Sensor: Nr:Datum:Temp:Abs-Feuchte:Windchill:Wind:
Aussen-T/F 2176 19-08-2008 02:13:02 19.2 C 11.54 g/m*3 19.2 C 0 km/h
2177 19-08-2008 02:25:02 19.3 C 11.78 g/m*3 19.3 C 0 km/h
2178 19-08-2008 02:37:02 19.1 C 11.64 g/m*3 19.1 C 0 km/h
2179 19-08-2008 02:49:02 18.9 C 11.83 g/m*3 18.9 C 0 km/h
2180 19-08-2008 03:01:02 18.7 C 11.69 g/m*3 18.7 C 0 km/h
2181 19-08-2008 03:13:02 18.8 C 11.92 g/m*3 18.8 C 0 km/h
2182 19-08-2008 03:25:02 19 C 11.9 g/m*3 19 C 0 km/h
2183 19-08-2008 03:37:02 18.9 C 11.83 g/m*3 18.9 C 0 km/h
2184 19-08-2008 03:49:02 18.7 C 11.69 g/m*3 18.7 C 0 km/h
2185 19-08-2008 04:01:02 18.6 C 11.78 g/m*3 18.6 C 0 km/h
2186 19-08-2008 04:13:02 18.5 C 11.71 g/m*3 18.5 C 0 km/h
2187 19-08-2008 04:25:03 18.5 C 11.71 g/m*3 18.5 C 0 km/h
2188 19-08-2008 04:37:03 18.9 C 11.34 g/m*3 18.9 C 0 km/h
2189 19-08-2008 04:49:03 19.1 C 10.66 g/m*3 19.1 C 0 km/h
2190 19-08-2008 05:01:03 19.2 C 10.72 g/m*3 19.2 C 0 km/h
2191 19-08-2008 05:13:03 19 C 10.59 g/m*3 19 C 0 km/h
2192 19-08-2008 05:25:03 18.8 C 10.79 g/m*3 18.8 C 0 km/h
2193 19-08-2008 05:37:03 18.6 C 10.82 g/m*3 18.6 C 0 km/h
2194 19-08-2008 05:49:03 18.3 C 10.79 g/m*3 18.3 C 0 km/h
2195 19-08-2008 06:01:03 18.3 C 10.79 g/m*3 18.3 C 0 km/h
2196 19-08-2008 06:13:03 18.3 C 10.32 g/m*3 18.3 C 0 km/h
2197 19-08-2008 06:25:03 18.5 C 9.97 g/m*3 18.5 C 0 km/h
2198 19-08-2008 06:37:03 18.7 C 9.77 g/m*3 18.7 C 0 km/h
2199 19-08-2008 06:49:03 18.5 C 9.65 g/m*3 18.5 C 0 km/h
2200 19-08-2008 07:01:02 18.5 C 9.49 g/m*3 18.5 C 0 km/h
Sensor: Nr:Datum:Temp:Abs-Feuchte:Windchill:Wind:
Aussen-T/F 2201 19-08-2008 07:13:02 18.4 C 9.59 g/m*3 18.4 C 0 km/h
2202 19-08-2008 07:25:02 18.2 C 9.64 g/m*3 18.2 C 0 km/h
2203 19-08-2008 07:37:02 18 C 9.68 g/m*3 18 C 0 km/h
2204 19-08-2008 07:49:02 18.5 C 9.49 g/m*3 18.5 C 0 km/h
2205 19-08-2008 08:01:03 19 C 9.29 g/m*3 19 C 0 km/h
2206 19-08-2008 08:13:03 19.4 C 8.84 g/m*3 19.4 C 0 km/h
2207 19-08-2008 08:25:02 19.5 C 8.89 g/m*3 19.5 C 0 km/h
2208 19-08-2008 08:37:02 19.7 C 8.83 g/m*3 19.7 C 0 km/h
2209 19-08-2008 08:49:02 19.9 C 8.59 g/m*3 19.9 C 0 km/h
2210 19-08-2008 09:01:02 20 C 8.47 g/m*3 20 C 0 km/h
2211 19-08-2008 09:13:02 20.2 C 8.57 g/m*3 20.2 C 0 km/h
2212 19-08-2008 09:25:02 20.1 C 8.52 g/m*3 20.1 C 0 km/h
2213 19-08-2008 09:37:02 20 C 8.47 g/m*3 20 C 0 km/h
2214 19-08-2008 09:49:02 20.2 C 8.74 g/m*3 20.2 C 0 km/h
2215 19-08-2008 10:01:02 20.3 C 8.62 g/m*3 20.3 C 0 km/h
2216 19-08-2008 10:13:02 20.7 C 8.82 g/m*3 20.7 C 0 km/h
2217 19-08-2008 10:25:02 21 C 8.61 g/m*3 21 C 0 km/h
2218 19-08-2008 10:37:02 20.8 C 8.87 g/m*3 20.8 C 0 km/h
2219 19-08-2008 10:49:02 21.2 C 8.9 g/m*3 21.2 C 0 km/h
2220 19-08-2008 11:01:02 21.3 C 8.95 g/m*3 21.3 C 0 km/h
2221 19-08-2008 11:13:02 21.6 C 8.91 g/m*3 21.6 C 0 km/h
2222 19-08-2008 11:25:02 21.5 C 8.86 g/m*3 21.5 C 0 km/h
2223 19-08-2008 11:37:02 22.2 C 8.83 g/m*3 22.2 C 0 km/h
2224 19-08-2008 11:49:02 21.9 C 8.68 g/m*3 21.9 C 0 km/h
2225 19-08-2008 12:01:03 22.6 C 8.84 g/m*3 22.6 C 0 km/h
Sensor: Nr:Datum:Temp:Abs-Feuchte:Windchill:Wind:
Aussen-T/F 2226 19-08-2008 12:13:03 22.7 C 8.49 g/m*3 22.7 C 0 km/h
2227 19-08-2008 12:25:02 22.5 C 8.39 g/m*3 22.5 C 0 km/h
2228 19-08-2008 12:37:03 22.7 C 8.28 g/m*3 22.7 C 0 km/h
2229 19-08-2008 12:49:02 22.8 C 8.13 g/m*3 22.8 C 0 km/h
2230 19-08-2008 13:01:01 23 C 8.02 g/m*3 23 C 0 km/h
2231 19-08-2008 13:13:01 23.5 C 8.04 g/m*3 23.5 C 0 km/h
2232 19-08-2008 13:25:02 23.9 C 8.22 g/m*3 23.9 C 0 km/h
2233 19-08-2008 13:37:01 23.7 C 7.91 g/m*3 23.7 C 0 km/h
2234 19-08-2008 13:49:02 23.7 C 8.13 g/m*3 23.7 C 0 km/h
2235 19-08-2008 14:01:01 24.3 C 7.97 g/m*3 24.3 C 0 km/h
2236 19-08-2008 14:13:01 24.5 C 7.83 g/m*3 24.5 C 0 km/h
2237 19-08-2008 14:25:02 24.2 C 7.7 g/m*3 24.2 C 0 km/h
2238 19-08-2008 14:37:01 23.6 C 7.87 g/m*3 23.6 C 0 km/h
2239 19-08-2008 14:49:02 23.1 C 7.86 g/m*3 23.1 C 0 km/h
2240 19-08-2008 15:01:01 23.1 C 7.86 g/m*3 23.1 C 0 km/h
2241 19-08-2008 15:13:01 23.9 C 8.22 g/m*3 23.9 C 0 km/h
2242 19-08-2008 15:25:02 24.1 C 7.88 g/m*3 24.1 C 0 km/h
2243 19-08-2008 15:37:01 24.5 C 8.06 g/m*3 24.5 C 0 km/h
2244 19-08-2008 15:49:01 24.4 C 8.01 g/m*3 24.4 C 0 km/h
2245 19-08-2008 16:01:01 23.6 C 8.08 g/m*3 23.6 C 0 km/h
2246 19-08-2008 16:13:01 23.5 C 8.25 g/m*3 23.5 C 0 km/h
2247 19-08-2008 16:25:02 23.6 C 8.08 g/m*3 23.6 C 0 km/h
2248 19-08-2008 16:37:01 24 C 7.83 g/m*3 24 C 0 km/h
2249 19-08-2008 16:49:01 24.1 C 7.88 g/m*3 24.1 C 0 km/h
2250 19-08-2008 17:01:01 23.9 C 8 g/m*3 23.9 C 0 km/h
Sensor: Nr:Datum:Temp:Abs-Feuchte:Windchill:Wind:
Aussen-T/F 2251 19-08-2008 17:13:01 23.6 C 8.08 g/m*3 23.6 C 0 km/h
2252 19-08-2008 17:25:01 23.5 C 8.25 g/m*3 23.5 C 0 km/h
2253 19-08-2008 17:37:01 23.2 C 8.32 g/m*3 23.2 C 0 km/h
2254 19-08-2008 17:49:01 22.8 C 8.33 g/m*3 22.8 C 0 km/h
2255 19-08-2008 18:01:02 22.9 C 8.79 g/m*3 22.9 C 0 km/h
2256 19-08-2008 18:13:02 22.8 C 8.53 g/m*3 22.8 C 0 km/h
2257 19-08-2008 18:25:01 22.6 C 8.44 g/m*3 22.6 C 0 km/h
2258 19-08-2008 18:37:02 22.5 C 8.59 g/m*3 22.5 C 0 km/h
2259 19-08-2008 18:49:02 22.3 C 8.49 g/m*3 22.3 C 0 km/h
2260 19-08-2008 19:01:02 22.2 C 8.64 g/m*3 22.2 C 0 km/h
2261 19-08-2008 19:13:02 21.8 C 8.83 g/m*3 21.8 C 0 km/h
2262 19-08-2008 19:25:02 21.5 C 8.86 g/m*3 21.5 C 0 km/h
2263 19-08-2008 19:37:02 21.4 C 9.19 g/m*3 21.4 C 0 km/h
2264 19-08-2008 19:49:01 21.3 C 9.32 g/m*3 21.3 C 0 km/h
2265 19-08-2008 20:01:01 21.3 C 9.32 g/m*3 21.3 C 0 km/h
2266 19-08-2008 20:13:01 21.5 C 9.24 g/m*3 21.5 C 0 km/h
2267 19-08-2008 20:25:01 21.2 C 9.27 g/m*3 21.2 C 0 km/h
2268 19-08-2008 20:37:02 20.8 C 9.42 g/m*3 20.8 C 0 km/h
2269 19-08-2008 20:49:02 20.4 C 9.38 g/m*3 20.4 C 0 km/h
2270 19-08-2008 21:01:02 20 C 9.33 g/m*3 20 C 0 km/h
2271 19-08-2008 21:13:02 19.8 C 9.39 g/m*3 19.8 C 0 km/h
2272 19-08-2008 21:25:02 19.5 C 9.4 g/m*3 19.5 C 0 km/h
2273 19-08-2008 21:37:02 19.4 C 9.51 g/m*3 19.4 C 0 km/h
2274 19-08-2008 21:50:02 19.2 C 9.56 g/m*3 19.2 C 0 km/h
2275 19-08-2008 22:02:02 19.1 C 9.51 g/m*3 19.1 C 0 km/h
Sensor: Nr:Datum:Temp:Abs-Feuchte:Windchill:Wind:
Aussen-T/F 2276 19-08-2008 22:14:02 19 C 9.61 g/m*3 19 C 0 km/h
2277 19-08-2008 22:26:02 18.9 C 9.72 g/m*3 18.9 C 0 km/h
2278 19-08-2008 22:38:02 18.9 C 9.72 g/m*3 18.9 C 0 km/h
2279 19-08-2008 22:50:02 18.9 C 9.72 g/m*3 18.9 C 0 km/h
2280 19-08-2008 23:02:02 18.8 C 9.82 g/m*3 18.8 C 0 km/h
2281 19-08-2008 23:14:02 18.5 C 9.81 g/m*3 18.5 C 0 km/h
2282 19-08-2008 23:26:02 18.6 C 9.87 g/m*3 18.6 C 0 km/h
2283 19-08-2008 23:38:03 18.3 C 10.01 g/m*3 18.3 C 0 km/h
2284 19-08-2008 23:50:03 17.8 C 10.47 g/m*3 17.8 C 0 km/h
2285 20-08-2008 00:02:03 17.7 C 10.41 g/m*3 17.7 C 0 km/h
2286 20-08-2008 00:14:03 18.1 C 10.2 g/m*3 18.1 C 0 km/h
2287 20-08-2008 00:26:03 18.2 C 10.1 g/m*3 18.2 C 0 km/h
2288 20-08-2008 00:38:03 18.1 C 10.2 g/m*3 18.1 C 0 km/h
2289 20-08-2008 00:50:03 17.9 C 10.69 g/m*3 17.9 C 0 km/h
2290 20-08-2008 01:02:03 17.8 C 10.62 g/m*3 17.8 C 0 km/h
2291 20-08-2008 01:14:03 18.1 C 10.35 g/m*3 18.1 C 0 km/h
2292 20-08-2008 01:26:03 17 C 11.29 g/m*3 17 C 0 km/h
2293 20-08-2008 01:38:03 16.7 C 11.65 g/m*3 16.7 C 0 km/h
2294 20-08-2008 01:50:03 16.6 C 11.72 g/m*3 16.6 C 0 km/h
2295 20-08-2008 02:02:03 16.8 C 11.72 g/m*3 16.8 C 0 km/h
2296 20-08-2008 02:14:03 16.8 C 11.44 g/m*3 16.8 C 0 km/h
2297 20-08-2008 02:26:03 16.9 C 11.36 g/m*3 16.9 C 0 km/h
2298 20-08-2008 02:38:03 16.7 C 11.23 g/m*3 16.7 C 0 km/h
2299 20-08-2008 02:50:03 16.7 C 11.08 g/m*3 16.7 C 0 km/h
2300 20-08-2008 03:02:03 16.7 C 10.94 g/m*3 16.7 C 0 km/h
Sensor: Nr:Datum:Temp:Abs-Feuchte:Windchill:Wind:
Aussen-T/F 2301 20-08-2008 03:14:03 16.6 C 10.74 g/m*3 16.6 C 0 km/h
2302 20-08-2008 03:26:04 16.5 C 10.67 g/m*3 16.5 C 0 km/h
2303 20-08-2008 03:38:04 16.4 C 10.75 g/m*3 16.4 C 0 km/h
2304 20-08-2008 03:50:04 16.3 C 10.82 g/m*3 16.3 C 0 km/h
2305 20-08-2008 04:02:04 16.5 C 10.81 g/m*3 16.5 C 0 km/h
2306 20-08-2008 04:14:04 16.6 C 10.74 g/m*3 16.6 C 0 km/h
2307 20-08-2008 04:26:04 16.5 C 10.67 g/m*3 16.5 C 0 km/h
2308 20-08-2008 04:38:04 16.4 C 10.61 g/m*3 16.4 C 0 km/h
2309 20-08-2008 04:50:04 16.3 C 10.54 g/m*3 16.3 C 0 km/h
2310 20-08-2008 05:02:04 16.4 C 10.61 g/m*3 16.4 C 0 km/h
2311 20-08-2008 05:14:04 16.4 C 10.61 g/m*3 16.4 C 0 km/h
2312 20-08-2008 05:26:04 16.2 C 10.48 g/m*3 16.2 C 0 km/h
2313 20-08-2008 05:38:04 16.2 C 10.48 g/m*3 16.2 C 0 km/h
2314 20-08-2008 05:50:04 16.1 C 10.28 g/m*3 16.1 C 0 km/h
2315 20-08-2008 06:02:04 16 C 10.22 g/m*3 16 C 0 km/h
2316 20-08-2008 06:14:04 16.1 C 10.42 g/m*3 16.1 C 0 km/h
2317 20-08-2008 06:26:04 16 C 10.35 g/m*3 16 C 0 km/h
2318 20-08-2008 06:38:04 15.8 C 10.36 g/m*3 15.8 C 0 km/h
2319 20-08-2008 06:50:04 15.8 C 10.36 g/m*3 15.8 C 0 km/h
2320 20-08-2008 07:02:02 15.8 C 10.36 g/m*3 15.8 C 0 km/h
2321 20-08-2008 07:14:02 16 C 10.22 g/m*3 16 C 0 km/h
2322 20-08-2008 07:26:02 16.2 C 10.2 g/m*3 16.2 C 0 km/h
2323 20-08-2008 07:38:02 16.2 C 10.07 g/m*3 16.2 C 0 km/h
2324 20-08-2008 07:50:02 16.2 C 9.79 g/m*3 16.2 C 0 km/h
2325 20-08-2008 08:02:03 16.2 C 9.93 g/m*3 16.2 C 0 km/h
Sensor: Nr:Datum:Temp:Abs-Feuchte:Windchill:Wind:
Aussen-T/F 2326 20-08-2008 08:14:03 16.3 C 9.85 g/m*3 16.3 C 0 km/h
2327 20-08-2008 08:26:02 16.5 C 9.69 g/m*3 16.5 C 0 km/h
2328 20-08-2008 08:38:02 16.6 C 9.61 g/m*3 16.6 C 0 km/h
2329 20-08-2008 08:50:02 16.7 C 9.52 g/m*3 16.7 C 0 km/h
2330 20-08-2008 09:02:02 16.9 C 9.35 g/m*3 16.9 C 0 km/h
2331 20-08-2008 09:14:02 17 C 8.97 g/m*3 17 C 0 km/h
2332 20-08-2008 09:26:02 17.5 C 9.24 g/m*3 17.5 C 0 km/h
2333 20-08-2008 09:38:02 18 C 9.22 g/m*3 18 C 0 km/h
2334 20-08-2008 09:50:02 18.2 C 9.01 g/m*3 18.2 C 0 km/h
2335 20-08-2008 10:02:03 18.9 C 9.23 g/m*3 18.9 C 0 km/h
2336 20-08-2008 10:14:03 18.8 C 9.18 g/m*3 18.8 C 0 km/h
2337 20-08-2008 10:26:02 18.7 C 9.13 g/m*3 18.7 C 0 km/h
2338 20-08-2008 10:38:02 19.4 C 9.01 g/m*3 19.4 C 0 km/h
2339 20-08-2008 10:50:02 19.4 C 9.01 g/m*3 19.4 C 0 km/h
2340 20-08-2008 11:02:02 19.7 C 9 g/m*3 19.7 C 0 km/h
2341 20-08-2008 11:14:02 19.5 C 8.73 g/m*3 19.5 C 0 km/h
2342 20-08-2008 11:26:02 19.5 C 9.06 g/m*3 19.5 C 0 km/h
2343 20-08-2008 11:38:02 20.4 C 8.67 g/m*3 20.4 C 0 km/h
2344 20-08-2008 11:50:02 19.8 C 8.37 g/m*3 19.8 C 0 km/h
2345 20-08-2008 12:02:02 20.2 C 8.57 g/m*3 20.2 C 0 km/h
2346 20-08-2008 12:14:02 21.1 C 8.48 g/m*3 21.1 C 0 km/h
2347 20-08-2008 12:26:02 21.1 C 8.11 g/m*3 21.1 C 0 km/h
2348 20-08-2008 12:38:02 20.8 C 8.33 g/m*3 20.8 C 0 km/h
2349 20-08-2008 12:50:02 20.9 C 8.2 g/m*3 20.9 C 0 km/h
2350 20-08-2008 13:02:02 20.9 C 8.38 g/m*3 20.9 C 0 km/h
Sensor: Nr:Datum:Temp:Abs-Feuchte:Windchill:Wind:
Aussen-T/F 2351 20-08-2008 13:14:03 20.3 C 8.44 g/m*3 20.3 C 0 km/h
2352 20-08-2008 13:26:02 20.5 C 8.54 g/m*3 20.5 C 0 km/h
2353 20-08-2008 13:38:02 21.1 C 8.29 g/m*3 21.1 C 0 km/h
2354 20-08-2008 13:50:01 21.1 C 8.29 g/m*3 21.1 C 0 km/h
2355 20-08-2008 14:02:02 21.2 C 8.34 g/m*3 21.2 C 0 km/h
2356 20-08-2008 14:14:02 22 C 7.96 g/m*3 22 C 0 km/h
2357 20-08-2008 14:26:01 22.1 C 7.61 g/m*3 22.1 C 0 km/h
2358 20-08-2008 14:38:02 22.5 C 7.99 g/m*3 22.5 C 0 km/h
2359 20-08-2008 14:50:02 22.5 C 7.99 g/m*3 22.5 C 0 km/h
2360 20-08-2008 15:02:02 22.4 C 8.14 g/m*3 22.4 C 0 km/h
2361 20-08-2008 15:14:02 21.7 C 7.82 g/m*3 21.7 C 0 km/h
2362 20-08-2008 15:26:02 22.5 C 7.99 g/m*3 22.5 C 0 km/h
2363 20-08-2008 15:38:01 23 C 7.4 g/m*3 23 C 0 km/h
2364 20-08-2008 15:50:02 21.9 C 7.53 g/m*3 21.9 C 0 km/h
2365 20-08-2008 16:02:01 22.2 C 7.66 g/m*3 22.2 C 0 km/h
2366 20-08-2008 16:14:01 22.5 C 7.79 g/m*3 22.5 C 0 km/h
2367 20-08-2008 16:26:02 20.3 C 8.09 g/m*3 20.3 C 0 km/h
2368 20-08-2008 16:38:01 20.4 C 7.78 g/m*3 20.4 C 0 km/h
2369 20-08-2008 16:50:02 20.9 C 7.83 g/m*3 20.9 C 0 km/h
2370 20-08-2008 17:02:01 22.7 C 7.68 g/m*3 22.7 C 0 km/h
2371 20-08-2008 17:14:01 22.9 C 7.56 g/m*3 22.9 C 0 km/h
2372 20-08-2008 17:26:02 23.2 C 7.48 g/m*3 23.2 C 0 km/h
2373 20-08-2008 17:38:01 23.4 C 7.57 g/m*3 23.4 C 0 km/h
2374 20-08-2008 17:50:01 24.1 C 7.66 g/m*3 24.1 C 0 km/h
2375 20-08-2008 18:02:02 22.7 C 7.27 g/m*3 22.7 C 0 km/h
Sensor: Nr:Datum:Temp:Abs-Feuchte:Windchill:Wind:
Aussen-T/F 2376 20-08-2008 18:14:03 22.2 C 7.07 g/m*3 22.2 C 0 km/h
2377 20-08-2008 18:26:01 21.6 C 7.21 g/m*3 21.6 C 0 km/h
2378 20-08-2008 18:38:02 21.3 C 7.46 g/m*3 21.3 C 0 km/h
2379 20-08-2008 18:50:02 20.6 C 7.16 g/m*3 20.6 C 0 km/h
2380 20-08-2008 19:02:02 20.6 C 7.34 g/m*3 20.6 C 0 km/h
2381 20-08-2008 19:14:02 20.5 C 7.47 g/m*3 20.5 C 0 km/h
2382 20-08-2008 19:26:02 20.3 C 7.56 g/m*3 20.3 C 0 km/h
2383 20-08-2008 19:38:02 20.1 C 7.65 g/m*3 20.1 C 0 km/h
2384 20-08-2008 19:50:02 20 C 7.78 g/m*3 20 C 0 km/h
2385 20-08-2008 20:02:03 19.8 C 7.69 g/m*3 19.8 C 0 km/h
2386 20-08-2008 20:14:03 19.7 C 7.81 g/m*3 19.7 C 0 km/h
2387 20-08-2008 20:26:02 19.4 C 7.84 g/m*3 19.4 C 0 km/h
2388 20-08-2008 20:38:03 19.2 C 7.91 g/m*3 19.2 C 0 km/h
2389 20-08-2008 20:50:02 18.9 C 8.42 g/m*3 18.9 C 0 km/h
2390 20-08-2008 21:02:01 18.6 C 8.59 g/m*3 18.6 C 0 km/h
2391 20-08-2008 21:14:01 18.6 C 8.59 g/m*3 18.6 C 0 km/h
2392 20-08-2008 21:26:02 18.4 C 8.65 g/m*3 18.4 C 0 km/h
2393 20-08-2008 21:38:02 18.2 C 8.86 g/m*3 18.2 C 0 km/h
2394 20-08-2008 21:50:02 17.9 C 9.01 g/m*3 17.9 C 0 km/h
2395 20-08-2008 22:02:01 17.7 C 9.05 g/m*3 17.7 C 0 km/h
2396 20-08-2008 22:14:01 17.7 C 9.05 g/m*3 17.7 C 0 km/h
2397 20-08-2008 22:26:02 17.8 C 9.11 g/m*3 17.8 C 0 km/h
2398 20-08-2008 22:38:01 17.8 C 8.95 g/m*3 17.8 C 0 km/h
2399 20-08-2008 22:51:01 17.8 C 8.95 g/m*3 17.8 C 0 km/h
2400 20-08-2008 23:03:01 17.8 C 8.95 g/m*3 17.8 C 0 km/h
Sensor: Nr:Datum:Temp:Abs-Feuchte:Windchill:Wind:
Aussen-T/F 2401 20-08-2008 23:15:01 17.7 C 9.05 g/m*3 17.7 C 0 km/h
2402 20-08-2008 23:27:01 17.7 C 9.05 g/m*3 17.7 C 0 km/h
2403 20-08-2008 23:39:01 17.6 C 9 g/m*3 17.6 C 0 km/h
2404 20-08-2008 23:51:01 17.5 C 9.09 g/m*3 17.5 C 0 km/h
2405 21-08-2008 00:03:01 17.4 C 9.04 g/m*3 17.4 C 0 km/h
2406 21-08-2008 00:15:01 17.5 C 9.24 g/m*3 17.5 C 0 km/h
2407 21-08-2008 00:27:02 17.3 C 9.13 g/m*3 17.3 C 0 km/h
2408 21-08-2008 00:39:02 17.2 C 8.93 g/m*3 17.2 C 0 km/h
2409 21-08-2008 00:51:02 17.1 C 8.88 g/m*3 17.1 C 0 km/h
2410 21-08-2008 01:03:02 17 C 8.97 g/m*3 17 C 0 km/h
2411 21-08-2008 01:15:02 16.8 C 9.01 g/m*3 16.8 C 0 km/h
2412 21-08-2008 01:27:02 16.7 C 8.95 g/m*3 16.7 C 0 km/h
2413 21-08-2008 01:39:02 16.4 C 8.93 g/m*3 16.4 C 0 km/h
2414 21-08-2008 01:51:02 16.2 C 8.96 g/m*3 16.2 C 0 km/h
2415 21-08-2008 02:03:02 16 C 8.99 g/m*3 16 C 0 km/h
2416 21-08-2008 02:15:02 15.9 C 9.07 g/m*3 15.9 C 0 km/h
2417 21-08-2008 02:27:02 15.6 C 9.04 g/m*3 15.6 C 0 km/h
2418 21-08-2008 02:39:02 15.3 C 9.01 g/m*3 15.3 C 0 km/h
2419 21-08-2008 02:51:02 14.9 C 9.05 g/m*3 14.9 C 0 km/h
2420 21-08-2008 03:03:02 14.8 C 9.12 g/m*3 14.8 C 0 km/h
2421 21-08-2008 03:15:02 14.4 C 9.02 g/m*3 14.4 C 0 km/h
2422 21-08-2008 03:27:02 14.4 C 9.15 g/m*3 14.4 C 0 km/h
2423 21-08-2008 03:39:02 14.3 C 9.09 g/m*3 14.3 C 0 km/h
2424 21-08-2008 03:51:02 14.1 C 9.1 g/m*3 14.1 C 0 km/h
2425 21-08-2008 04:03:02 13.9 C 9.11 g/m*3 13.9 C 0 km/h
Sensor: Nr:Datum:Temp:Abs-Feuchte:Windchill:Wind:
Aussen-T/F 2426 21-08-2008 04:15:03 13.7 C 9 g/m*3 13.7 C 0 km/h
2427 21-08-2008 04:27:03 13.5 C 9.01 g/m*3 13.5 C 0 km/h
2428 21-08-2008 04:39:03 13.5 C 9.01 g/m*3 13.5 C 0 km/h
2429 21-08-2008 04:51:03 13.3 C 9.01 g/m*3 13.3 C 0 km/h
2430 21-08-2008 05:03:03 13.2 C 9.07 g/m*3 13.2 C 0 km/h
2431 21-08-2008 05:15:03 13.1 C 9.01 g/m*3 13.1 C 0 km/h
2432 21-08-2008 05:27:03 13.1 C 9.13 g/m*3 13.1 C 0 km/h
2433 21-08-2008 05:39:03 13.1 C 9.01 g/m*3 13.1 C 0 km/h
2434 21-08-2008 05:51:03 13.1 C 9.01 g/m*3 13.1 C 0 km/h
2435 21-08-2008 06:03:03 13 C 8.96 g/m*3 13 C 0 km/h
2436 21-08-2008 06:15:03 12.9 C 9.02 g/m*3 12.9 C 0 km/h
2437 21-08-2008 06:27:03 12.9 C 9.13 g/m*3 12.9 C 0 km/h
2438 21-08-2008 06:39:02 13.2 C 9.19 g/m*3 13.2 C 0 km/h
2439 21-08-2008 06:51:02 13.4 C 9.3 g/m*3 13.4 C 0 km/h
2440 21-08-2008 07:03:02 13.6 C 9.3 g/m*3 13.6 C 0 km/h
2441 21-08-2008 07:15:02 13.7 C 9.35 g/m*3 13.7 C 0 km/h
2442 21-08-2008 07:27:02 14 C 9.41 g/m*3 14 C 0 km/h
2443 21-08-2008 07:39:02 14.2 C 9.4 g/m*3 14.2 C 0 km/h
2444 21-08-2008 07:51:02 14.6 C 9.51 g/m*3 14.6 C 0 km/h
2445 21-08-2008 08:03:02 14.6 C 9.26 g/m*3 14.6 C 0 km/h
2446 21-08-2008 08:15:02 14.5 C 9.33 g/m*3 14.5 C 0 km/h
2447 21-08-2008 08:27:02 14.8 C 9.5 g/m*3 14.8 C 0 km/h
2448 21-08-2008 08:39:02 15.4 C 9.2 g/m*3 15.4 C 0 km/h
2449 21-08-2008 08:51:02 16 C 9.13 g/m*3 16 C 0 km/h
2450 21-08-2008 09:03:02 15.9 C 9.07 g/m*3 15.9 C 0 km/h
Sensor: Nr:Datum:Temp:Abs-Feuchte:Windchill:Wind:
Aussen-T/F 2451 21-08-2008 09:15:02 15.8 C 9.15 g/m*3 15.8 C 0 km/h
2452 21-08-2008 09:27:02 15.9 C 9.21 g/m*3 15.9 C 0 km/h
2453 21-08-2008 09:39:02 16.3 C 9.43 g/m*3 16.3 C 0 km/h
2454 21-08-2008 09:51:02 16.8 C 9.58 g/m*3 16.8 C 0 km/h
2455 21-08-2008 10:03:01 17.3 C 9.43 g/m*3 17.3 C 0 km/h
2456 21-08-2008 10:15:02 17.8 C 9.26 g/m*3 17.8 C 0 km/h
2457 21-08-2008 10:27:02 18.4 C 9.28 g/m*3 18.4 C 0 km/h
2458 21-08-2008 10:39:01 19.1 C 9.02 g/m*3 19.1 C 0 km/h
2459 21-08-2008 10:51:02 20.6 C 8.59 g/m*3 20.6 C 0 km/h
2460 21-08-2008 11:03:01 20.3 C 8.27 g/m*3 20.3 C 0 km/h
2461 21-08-2008 11:15:02 20.8 C 8.15 g/m*3 20.8 C 0 km/h
2462 21-08-2008 11:27:02 20.7 C 8.28 g/m*3 20.7 C 0 km/h
2463 21-08-2008 11:39:01 21.3 C 7.83 g/m*3 21.3 C 0 km/h
2464 21-08-2008 11:51:01 21.5 C 8.11 g/m*3 21.5 C 0 km/h
2465 21-08-2008 12:03:01 21.5 C 8.3 g/m*3 21.5 C 0 km/h
2466 21-08-2008 12:15:02 22.7 C 7.88 g/m*3 22.7 C 0 km/h
2467 21-08-2008 12:27:02 22.5 C 7.99 g/m*3 22.5 C 0 km/h
2468 21-08-2008 12:39:01 23.5 C 7.82 g/m*3 23.5 C 0 km/h
2469 21-08-2008 12:51:01 23.3 C 7.32 g/m*3 23.3 C 0 km/h
2470 21-08-2008 13:03:02 23.4 C 7.36 g/m*3 23.4 C 0 km/h
2471 21-08-2008 13:15:01 24.2 C 7.26 g/m*3 24.2 C 0 km/h
2472 21-08-2008 13:27:01 24.6 C 6.98 g/m*3 24.6 C 0 km/h
2473 21-08-2008 13:39:02 24.7 C 7.24 g/m*3 24.7 C 0 km/h
2474 21-08-2008 13:51:02 24.5 C 7.16 g/m*3 24.5 C 0 km/h
2475 21-08-2008 14:03:02 25.1 C 6.94 g/m*3 25.1 C 0 km/h
Sensor: Nr:Datum:Temp:Abs-Feuchte:Windchill:Wind:
Aussen-T/F 2476 21-08-2008 14:15:02 25.1 C 6.94 g/m*3 25.1 C 0 km/h
2477 21-08-2008 14:27:02 25.1 C 6.94 g/m*3 25.1 C 0 km/h
2478 21-08-2008 14:39:02 25.6 C 6.67 g/m*3 25.6 C 0 km/h
2479 21-08-2008 14:51:02 25.6 C 6.9 g/m*3 25.6 C 0 km/h
2480 21-08-2008 15:03:03 25.5 C 6.87 g/m*3 25.5 C 0 km/h
2481 21-08-2008 15:15:02 25.8 C 6.98 g/m*3 25.8 C 0 km/h
2482 21-08-2008 15:27:02 25.8 C 6.74 g/m*3 25.8 C 0 km/h
2483 21-08-2008 15:39:02 25.9 C 7.02 g/m*3 25.9 C 0 km/h
2484 21-08-2008 15:51:02 25.7 C 7.18 g/m*3 25.7 C 0 km/h
2485 21-08-2008 16:03:01 25.4 C 7.06 g/m*3 25.4 C 0 km/h
2486 21-08-2008 16:15:02 25.5 C 7.34 g/m*3 25.5 C 0 km/h
2487 21-08-2008 16:27:02 25.3 C 7.26 g/m*3 25.3 C 0 km/h
2488 21-08-2008 16:39:02 25.9 C 7.26 g/m*3 25.9 C 0 km/h
2489 21-08-2008 16:51:02 25.7 C 7.42 g/m*3 25.7 C 0 km/h
2490 21-08-2008 17:03:01 25.4 C 7.53 g/m*3 25.4 C 0 km/h
2491 21-08-2008 17:15:01 25 C 7.37 g/m*3 25 C 0 km/h
2492 21-08-2008 17:27:01 25.4 C 7.3 g/m*3 25.4 C 0 km/h
2493 21-08-2008 17:39:01 25.3 C 7.26 g/m*3 25.3 C 0 km/h
2494 21-08-2008 17:51:03 26.1 C 7.34 g/m*3 26.1 C 0 km/h
2495 21-08-2008 18:03:02 25.8 C 7.46 g/m*3 25.8 C 0 km/h
2496 21-08-2008 18:15:02 25.4 C 7.53 g/m*3 25.4 C 0 km/h
2497 21-08-2008 18:27:02 25.4 C 7.53 g/m*3 25.4 C 0 km/h
2498 21-08-2008 18:39:02 24.5 C 7.83 g/m*3 24.5 C 0 km/h
2499 21-08-2008 18:51:02 24.1 C 7.88 g/m*3 24.1 C 0 km/h
2500 21-08-2008 19:03:02 23.7 C 7.91 g/m*3 23.7 C 0 km/h
Sensor: Nr:Datum:Temp:Abs-Feuchte:Windchill:Wind:
Aussen-T/F 2501 21-08-2008 19:15:03 23.3 C 8.15 g/m*3 23.3 C 0 km/h
2502 21-08-2008 19:27:03 22.9 C 8.17 g/m*3 22.9 C 0 km/h
2503 21-08-2008 19:39:02 22.8 C 8.33 g/m*3 22.8 C 0 km/h
2504 21-08-2008 19:51:01 22.9 C 8.38 g/m*3 22.9 C 0 km/h
2505 21-08-2008 20:03:01 22.8 C 8.53 g/m*3 22.8 C 0 km/h
2506 21-08-2008 20:15:01 22.6 C 8.44 g/m*3 22.6 C 0 km/h
2507 21-08-2008 20:27:01 22.5 C 8.59 g/m*3 22.5 C 0 km/h
2508 21-08-2008 20:39:01 22.3 C 8.49 g/m*3 22.3 C 0 km/h
2509 21-08-2008 20:51:01 22.2 C 8.44 g/m*3 22.2 C 0 km/h
2510 21-08-2008 21:03:02 22 C 8.54 g/m*3 22 C 0 km/h
2511 21-08-2008 21:15:01 21.9 C 8.68 g/m*3 21.9 C 0 km/h
2512 21-08-2008 21:27:01 21.9 C 8.68 g/m*3 21.9 C 0 km/h
2513 21-08-2008 21:39:02 21.7 C 8.77 g/m*3 21.7 C 0 km/h
2514 21-08-2008 21:51:02 21.6 C 8.72 g/m*3 21.6 C 0 km/h
2515 21-08-2008 22:04:03 21.3 C 8.76 g/m*3 21.3 C 0 km/h
2516 21-08-2008 22:16:03 21.1 C 8.66 g/m*3 21.1 C 0 km/h
2517 21-08-2008 22:28:03 21 C 8.79 g/m*3 21 C 0 km/h
2518 21-08-2008 22:40:03 20.7 C 9 g/m*3 20.7 C 0 km/h
2519 21-08-2008 22:52:03 20.7 C 9 g/m*3 20.7 C 0 km/h
2520 21-08-2008 23:04:03 20.6 C 9.13 g/m*3 20.6 C 0 km/h
2521 21-08-2008 23:16:04 20.6 C 9.13 g/m*3 20.6 C 0 km/h
2522 21-08-2008 23:28:04 20.4 C 9.2 g/m*3 20.4 C 0 km/h
2523 21-08-2008 23:40:04 20.4 C 9.2 g/m*3 20.4 C 0 km/h
2524 21-08-2008 23:52:04 20.2 C 9.27 g/m*3 20.2 C 0 km/h
2525 22-08-2008 00:04:04 20.1 C 9.21 g/m*3 20.1 C 0 km/h
Sensor: Nr:Datum:Temp:Abs-Feuchte:Windchill:Wind:
Aussen-T/F 2526 22-08-2008 00:16:04 20 C 9.33 g/m*3 20 C 0 km/h
2527 22-08-2008 00:28:04 20.1 C 9.21 g/m*3 20.1 C 0 km/h
2528 22-08-2008 00:40:04 20 C 9.33 g/m*3 20 C 0 km/h
2529 22-08-2008 00:52:04 19.9 C 9.28 g/m*3 19.9 C 0 km/h
2530 22-08-2008 01:04:04 20 C 9.33 g/m*3 20 C 0 km/h
2531 22-08-2008 01:16:04 20.3 C 9.67 g/m*3 20.3 C 0 km/h
2532 22-08-2008 01:28:04 19.6 C 9.62 g/m*3 19.6 C 0 km/h
2533 22-08-2008 01:40:04 19.5 C 9.57 g/m*3 19.5 C 0 km/h
2534 22-08-2008 01:52:04 19.3 C 9.45 g/m*3 19.3 C 0 km/h
2535 22-08-2008 02:04:04 19.1 C 9.51 g/m*3 19.1 C 0 km/h
2536 22-08-2008 02:16:04 18.9 C 9.56 g/m*3 18.9 C 0 km/h
2537 22-08-2008 02:28:04 18.7 C 9.45 g/m*3 18.7 C 0 km/h
2538 22-08-2008 02:40:04 18.5 C 9.33 g/m*3 18.5 C 0 km/h
2539 22-08-2008 02:52:04 18.4 C 9.44 g/m*3 18.4 C 0 km/h
2540 22-08-2008 03:04:05 18.5 C 9.33 g/m*3 18.5 C 0 km/h
2541 22-08-2008 03:16:05 18.5 C 9.49 g/m*3 18.5 C 0 km/h
2542 22-08-2008 03:28:05 18.4 C 9.44 g/m*3 18.4 C 0 km/h
2543 22-08-2008 03:40:05 18.5 C 9.49 g/m*3 18.5 C 0 km/h
2544 22-08-2008 03:52:05 18.5 C 9.49 g/m*3 18.5 C 0 km/h
2545 22-08-2008 04:04:05 18.5 C 9.49 g/m*3 18.5 C 0 km/h
2546 22-08-2008 04:16:05 18.4 C 9.44 g/m*3 18.4 C 0 km/h
2547 22-08-2008 04:28:05 18.4 C 9.59 g/m*3 18.4 C 0 km/h
2548 22-08-2008 04:40:05 18.3 C 9.54 g/m*3 18.3 C 0 km/h
2549 22-08-2008 04:52:05 18.2 C 9.64 g/m*3 18.2 C 0 km/h
2550 22-08-2008 05:04:05 18.2 C 9.64 g/m*3 18.2 C 0 km/h
Sensor: Nr:Datum:Temp:Abs-Feuchte:Windchill:Wind:
Aussen-T/F 2551 22-08-2008 05:16:05 18.1 C 9.58 g/m*3 18.1 C 0 km/h
2552 22-08-2008 05:28:05 18.2 C 9.64 g/m*3 18.2 C 0 km/h
2553 22-08-2008 05:40:05 18.1 C 9.73 g/m*3 18.1 C 0 km/h
2554 22-08-2008 05:52:05 18 C 9.68 g/m*3 18 C 0 km/h
2555 22-08-2008 06:04:05 17.9 C 9.77 g/m*3 17.9 C 0 km/h
2556 22-08-2008 06:16:05 17.5 C 9.69 g/m*3 17.5 C 0 km/h
2557 22-08-2008 06:28:05 17.3 C 9.72 g/m*3 17.3 C 0 km/h
2558 22-08-2008 06:40:05 17 C 9.69 g/m*3 17 C 0 km/h
2559 22-08-2008 06:52:06 16.8 C 9.87 g/m*3 16.8 C 0 km/h
2560 22-08-2008 07:04:06 16.9 C 9.92 g/m*3 16.9 C 0 km/h
2561 22-08-2008 07:16:02 16.8 C 10.01 g/m*3 16.8 C 0 km/h
2562 22-08-2008 07:28:02 17 C 10.13 g/m*3 17 C 0 km/h
2563 22-08-2008 07:40:03 17.2 C 10.1 g/m*3 17.2 C 0 km/h
2564 22-08-2008 07:52:01 17.6 C 10.35 g/m*3 17.6 C 0 km/h
2565 22-08-2008 08:04:01 17.7 C 10.26 g/m*3 17.7 C 0 km/h
2566 22-08-2008 08:16:01 17.8 C 10.32 g/m*3 17.8 C 0 km/h
2567 22-08-2008 08:28:01 18 C 9.98 g/m*3 18 C 0 km/h
2568 22-08-2008 08:40:01 17.9 C 9.92 g/m*3 17.9 C 0 km/h
2569 22-08-2008 08:52:02 17.7 C 9.96 g/m*3 17.7 C 0 km/h
2570 22-08-2008 09:04:02 17.8 C 10.02 g/m*3 17.8 C 0 km/h
2571 22-08-2008 09:16:02 18.1 C 9.89 g/m*3 18.1 C 0 km/h
2572 22-08-2008 09:28:02 18.7 C 10.09 g/m*3 18.7 C 0 km/h
2573 22-08-2008 09:40:02 19.3 C 10.12 g/m*3 19.3 C 0 km/h
2574 22-08-2008 09:52:02 20 C 10.02 g/m*3 20 C 0 km/h
2575 22-08-2008 10:04:02 20.6 C 10.02 g/m*3 20.6 C 0 km/h
Sensor: Nr:Datum:Temp:Abs-Feuchte:Windchill:Wind:
Aussen-T/F 2576 22-08-2008 10:16:02 21.2 C 9.82 g/m*3 21.2 C 0 km/h
2577 22-08-2008 10:28:02 22.2 C 9.82 g/m*3 22.2 C 0 km/h
2578 22-08-2008 10:40:02 22.9 C 9.61 g/m*3 22.9 C 0 km/h
2579 22-08-2008 10:52:02 23.3 C 9.41 g/m*3 23.3 C 0 km/h
2580 22-08-2008 11:04:02 23.6 C 9.36 g/m*3 23.6 C 0 km/h
2581 22-08-2008 11:16:02 24.4 C 9.12 g/m*3 24.4 C 0 km/h
2582 22-08-2008 11:28:02 24.9 C 8.93 g/m*3 24.9 C 0 km/h
2583 22-08-2008 11:40:02 24.5 C 9.4 g/m*3 24.5 C 0 km/h
2584 22-08-2008 11:52:02 24.9 C 9.16 g/m*3 24.9 C 0 km/h
2585 22-08-2008 12:04:02 24.8 C 8.88 g/m*3 24.8 C 0 km/h
2586 22-08-2008 12:16:02 24.8 C 9.1 g/m*3 24.8 C 0 km/h
2587 22-08-2008 12:28:02 24.8 C 8.88 g/m*3 24.8 C 0 km/h
2588 22-08-2008 12:40:02 24.5 C 8.95 g/m*3 24.5 C 0 km/h
2589 22-08-2008 12:52:02 24.5 C 9.18 g/m*3 24.5 C 0 km/h
2590 22-08-2008 13:04:02 24.3 C 9.07 g/m*3 24.3 C 0 km/h
2591 22-08-2008 13:16:02 24.2 C 9.24 g/m*3 24.2 C 0 km/h
2592 22-08-2008 13:28:02 23.4 C 9.88 g/m*3 23.4 C 0 km/h
2593 22-08-2008 13:40:02 22.9 C 10.22 g/m*3 22.9 C 0 km/h
2594 22-08-2008 13:52:02 21.5 C 10.94 g/m*3 21.5 C 0 km/h
2595 22-08-2008 14:04:01 19.1 C 11.31 g/m*3 19.1 C 0 km/h
2596 22-08-2008 14:16:02 18.1 C 12.05 g/m*3 18.1 C 0 km/h
2597 22-08-2008 14:28:02 17.9 C 12.67 g/m*3 17.9 C 0 km/h
2598 22-08-2008 14:40:01 18.2 C 12.9 g/m*3 18.2 C 0 km/h
2599 22-08-2008 14:52:02 18.1 C 12.82 g/m*3 18.1 C 0 km/h
2600 22-08-2008 15:04:01 18.4 C 13.21 g/m*3 18.4 C 0 km/h
Sensor: Nr:Datum:Temp:Abs-Feuchte:Windchill:Wind:
Aussen-T/F 2601 22-08-2008 15:16:02 18.5 C 13.29 g/m*3 18.5 C 0 km/h
2602 22-08-2008 15:28:02 18 C 13.21 g/m*3 18 C 0 km/h
2603 22-08-2008 15:40:01 17.9 C 13.44 g/m*3 17.9 C 0 km/h
2604 22-08-2008 15:52:03 18.3 C 13.76 g/m*3 18.3 C 0 km/h
2605 22-08-2008 16:04:02 18.5 C 13.92 g/m*3 18.5 C 0 km/h
2606 22-08-2008 16:16:03 18.3 C 13.76 g/m*3 18.3 C 0 km/h
2607 22-08-2008 16:28:03 18.5 C 13.92 g/m*3 18.5 C 0 km/h
2608 22-08-2008 16:40:03 18.2 C 13.68 g/m*3 18.2 C 0 km/h
2609 22-08-2008 16:52:02 17.9 C 13.59 g/m*3 17.9 C 0 km/h
2610 22-08-2008 17:04:02 17.8 C 13.36 g/m*3 17.8 C 0 km/h
2611 22-08-2008 17:16:01 17.8 C 13.36 g/m*3 17.8 C 0 km/h
2612 22-08-2008 17:28:01 17.7 C 13.28 g/m*3 17.7 C 0 km/h
2613 22-08-2008 17:40:02 17.5 C 13.12 g/m*3 17.5 C 0 km/h
2614 22-08-2008 17:52:02 17.5 C 13.12 g/m*3 17.5 C 0 km/h
2615 22-08-2008 18:04:02 17.5 C 13.12 g/m*3 17.5 C 0 km/h
2616 22-08-2008 18:16:02 16.1 C 11.79 g/m*3 16.1 C 0 km/h
2617 22-08-2008 18:28:02 15.7 C 11.51 g/m*3 15.7 C 0 km/h
2618 22-08-2008 18:40:02 15.5 C 11.5 g/m*3 15.5 C 0 km/h
2619 22-08-2008 18:52:02 15.6 C 11.84 g/m*3 15.6 C 0 km/h
2620 22-08-2008 19:04:02 15.4 C 11.69 g/m*3 15.4 C 0 km/h
2621 22-08-2008 19:16:02 15.2 C 11.68 g/m*3 15.2 C 0 km/h
2622 22-08-2008 19:28:02 15.2 C 11.81 g/m*3 15.2 C 0 km/h
2623 22-08-2008 19:40:02 15.4 C 11.96 g/m*3 15.4 C 0 km/h
2624 22-08-2008 19:52:02 15.4 C 12.09 g/m*3 15.4 C 0 km/h
2625 22-08-2008 20:04:01 15.4 C 12.09 g/m*3 15.4 C 0 km/h
Sensor: Nr:Datum:Temp:Abs-Feuchte:Windchill:Wind:
Aussen-T/F 2626 22-08-2008 20:16:02 15.3 C 12.01 g/m*3 15.3 C 0 km/h
2627 22-08-2008 20:28:02 15.3 C 12.01 g/m*3 15.3 C 0 km/h
2628 22-08-2008 20:40:01 15.4 C 12.22 g/m*3 15.4 C 0 km/h
2629 22-08-2008 20:52:02 15.4 C 12.22 g/m*3 15.4 C 0 km/h
2630 22-08-2008 21:04:01 15.4 C 12.22 g/m*3 15.4 C 0 km/h
2631 22-08-2008 21:16:02 15.5 C 12.29 g/m*3 15.5 C 0 km/h
2632 22-08-2008 21:28:02 15.3 C 12.14 g/m*3 15.3 C 0 km/h
2633 22-08-2008 21:40:01 15.1 C 12 g/m*3 15.1 C 0 km/h
2634 22-08-2008 21:52:03 14.9 C 11.98 g/m*3 14.9 C 0 km/h
2635 22-08-2008 22:04:02 14.8 C 11.91 g/m*3 14.8 C 0 km/h
2636 22-08-2008 22:16:03 14.8 C 11.91 g/m*3 14.8 C 0 km/h
2637 22-08-2008 22:28:03 14.8 C 11.91 g/m*3 14.8 C 0 km/h
2638 22-08-2008 22:40:02 15 C 12.05 g/m*3 15 C 0 km/h
2639 22-08-2008 22:52:01 15 C 12.05 g/m*3 15 C 0 km/h
2640 22-08-2008 23:05:02 14.7 C 11.83 g/m*3 14.7 C 0 km/h
2641 22-08-2008 23:17:02 14.6 C 11.76 g/m*3 14.6 C 0 km/h
2642 22-08-2008 23:29:02 14.7 C 11.83 g/m*3 14.7 C 0 km/h
2643 22-08-2008 23:41:02 14.8 C 12.03 g/m*3 14.8 C 0 km/h
2644 22-08-2008 23:53:02 14.6 C 11.76 g/m*3 14.6 C 0 km/h
2645 23-08-2008 00:05:02 14.5 C 11.69 g/m*3 14.5 C 0 km/h
2646 23-08-2008 00:17:02 14.3 C 11.55 g/m*3 14.3 C 0 km/h
2647 23-08-2008 00:29:02 14.1 C 11.53 g/m*3 14.1 C 0 km/h
2648 23-08-2008 00:41:02 14 C 11.34 g/m*3 14 C 0 km/h
2649 23-08-2008 00:53:02 14 C 11.34 g/m*3 14 C 0 km/h
2650 23-08-2008 01:05:02 14 C 11.34 g/m*3 14 C 0 km/h
Sensor: Nr:Datum:Temp:Abs-Feuchte:Windchill:Wind:
Aussen-T/F 2651 23-08-2008 01:17:02 13.8 C 11.32 g/m*3 13.8 C 0 km/h
2652 23-08-2008 01:29:02 13.8 C 11.32 g/m*3 13.8 C 0 km/h
2653 23-08-2008 01:41:03 13.7 C 11.13 g/m*3 13.7 C 0 km/h
2654 23-08-2008 01:53:03 13.8 C 11.2 g/m*3 13.8 C 0 km/h
2655 23-08-2008 02:05:03 13.8 C 11.2 g/m*3 13.8 C 0 km/h
2656 23-08-2008 02:17:03 13.7 C 11.13 g/m*3 13.7 C 0 km/h
2657 23-08-2008 02:29:03 13.7 C 11.01 g/m*3 13.7 C 0 km/h
2658 23-08-2008 02:41:03 13.7 C 11.01 g/m*3 13.7 C 0 km/h
2659 23-08-2008 02:53:03 13.6 C 10.95 g/m*3 13.6 C 0 km/h
2660 23-08-2008 03:05:03 13.6 C 10.95 g/m*3 13.6 C 0 km/h
2661 23-08-2008 03:17:03 13.3 C 10.4 g/m*3 13.3 C 0 km/h
2662 23-08-2008 03:29:03 13 C 9.75 g/m*3 13 C 0 km/h
2663 23-08-2008 03:41:03 12.6 C 9.4 g/m*3 12.6 C 0 km/h
2664 23-08-2008 03:53:03 12.2 C 9.28 g/m*3 12.2 C 0 km/h
2665 23-08-2008 04:05:03 11.9 C 9.32 g/m*3 11.9 C 0 km/h
2666 23-08-2008 04:17:03 11.7 C 9.31 g/m*3 11.7 C 0 km/h
2667 23-08-2008 04:29:03 11.5 C 9.3 g/m*3 11.5 C 0 km/h
2668 23-08-2008 04:41:03 11.4 C 9.34 g/m*3 11.4 C 0 km/h
2669 23-08-2008 04:53:03 11.2 C 9.22 g/m*3 11.2 C 0 km/h
2670 23-08-2008 05:05:03 11.1 C 9.17 g/m*3 11.1 C 0 km/h
2671 23-08-2008 05:17:03 10.9 C 9.15 g/m*3 10.9 C 0 km/h
2672 23-08-2008 05:29:04 10.8 C 9.09 g/m*3 10.8 C 0 km/h
2673 23-08-2008 05:41:04 10.8 C 9.09 g/m*3 10.8 C 0 km/h
2674 23-08-2008 05:53:04 11 C 9.21 g/m*3 11 C 0 km/h
2675 23-08-2008 06:05:04 11.2 C 9.43 g/m*3 11.2 C 0 km/h
Sensor: Nr:Datum:Temp:Abs-Feuchte:Windchill:Wind:
Aussen-T/F 2676 23-08-2008 06:17:04 11 C 9.21 g/m*3 11 C 0 km/h
2677 23-08-2008 06:29:04 10.9 C 9.25 g/m*3 10.9 C 0 km/h
2678 23-08-2008 06:41:04 10.8 C 9.19 g/m*3 10.8 C 0 km/h
2679 23-08-2008 06:53:04 10.7 C 9.13 g/m*3 10.7 C 0 km/h
2680 23-08-2008 07:05:04 10.7 C 9.13 g/m*3 10.7 C 0 km/h
2681 23-08-2008 07:17:04 10.7 C 9.13 g/m*3 10.7 C 0 km/h
2682 23-08-2008 07:29:04 10.8 C 9.19 g/m*3 10.8 C 0 km/h
2683 23-08-2008 07:41:04 11.1 C 9.27 g/m*3 11.1 C 0 km/h
2684 23-08-2008 07:53:01 11.6 C 9.56 g/m*3 11.6 C 0 km/h
2685 23-08-2008 08:05:02 12 C 9.7 g/m*3 12 C 0 km/h
2686 23-08-2008 08:17:02 12.1 C 9.65 g/m*3 12.1 C 0 km/h
2687 23-08-2008 08:29:02 12.7 C 9.8 g/m*3 12.7 C 0 km/h
2688 23-08-2008 08:41:01 12.5 C 9.24 g/m*3 12.5 C 0 km/h
2689 23-08-2008 08:53:01 12.6 C 9.07 g/m*3 12.6 C 0 km/h
2690 23-08-2008 09:05:02 12.8 C 8.96 g/m*3 12.8 C 0 km/h
2691 23-08-2008 09:17:01 13.2 C 8.96 g/m*3 13.2 C 0 km/h
2692 23-08-2008 09:29:01 13.3 C 8.78 g/m*3 13.3 C 0 km/h
2693 23-08-2008 09:41:01 13.4 C 9.07 g/m*3 13.4 C 0 km/h
2694 23-08-2008 09:53:02 14.5 C 9.58 g/m*3 14.5 C 0 km/h
2695 23-08-2008 10:05:01 14.4 C 8.78 g/m*3 14.4 C 0 km/h
2696 23-08-2008 10:17:02 14.8 C 8.99 g/m*3 14.8 C 0 km/h
2697 23-08-2008 10:29:02 15.1 C 8.9 g/m*3 15.1 C 0 km/h
2698 23-08-2008 10:41:01 15.7 C 8.7 g/m*3 15.7 C 0 km/h
2699 23-08-2008 10:53:02 16 C 8.72 g/m*3 16 C 0 km/h
2700 23-08-2008 11:05:02 16.3 C 8.6 g/m*3 16.3 C 0 km/h
Sensor: Nr:Datum:Temp:Abs-Feuchte:Windchill:Wind:
Aussen-T/F 2701 23-08-2008 11:17:03 16.6 C 8.62 g/m*3 16.6 C 0 km/h
2702 23-08-2008 11:29:03 17.1 C 8.44 g/m*3 17.1 C 0 km/h
2703 23-08-2008 11:41:02 17.4 C 8.3 g/m*3 17.4 C 0 km/h
2704 23-08-2008 11:53:01 17.7 C 8.3 g/m*3 17.7 C 0 km/h
2705 23-08-2008 12:05:02 17.9 C 8.4 g/m*3 17.9 C 0 km/h
2706 23-08-2008 12:17:01 18.5 C 7.59 g/m*3 18.5 C 0 km/h
2707 23-08-2008 12:29:01 17.5 C 7.6 g/m*3 17.5 C 0 km/h
2708 23-08-2008 12:41:02 17.5 C 7.6 g/m*3 17.5 C 0 km/h
2709 23-08-2008 12:53:02 17.7 C 7.85 g/m*3 17.7 C 0 km/h
2710 23-08-2008 13:05:02 18.2 C 7.62 g/m*3 18.2 C 0 km/h
2711 23-08-2008 13:17:02 18 C 7.68 g/m*3 18 C 0 km/h
2712 23-08-2008 13:29:02 17.5 C 7.6 g/m*3 17.5 C 0 km/h
2713 23-08-2008 13:41:02 17.5 C 7.6 g/m*3 17.5 C 0 km/h
2714 23-08-2008 13:53:02 18.4 C 7.24 g/m*3 18.4 C 0 km/h
2715 23-08-2008 14:05:03 17.9 C 7.79 g/m*3 17.9 C 0 km/h
2716 23-08-2008 14:17:02 17.7 C 6.49 g/m*3 17.7 C 0 km/h
2717 23-08-2008 14:29:02 17.9 C 6.11 g/m*3 17.9 C 0 km/h
2718 23-08-2008 14:41:03 17.7 C 5.88 g/m*3 17.7 C 0 km/h
2719 23-08-2008 14:53:02 17.5 C 6.11 g/m*3 17.5 C 0 km/h
2720 23-08-2008 15:05:02 17.2 C 6.15 g/m*3 17.2 C 0 km/h
2721 23-08-2008 15:17:02 17.1 C 6.26 g/m*3 17.1 C 0 km/h
2722 23-08-2008 15:29:02 17.1 C 6.4 g/m*3 17.1 C 0 km/h
2723 23-08-2008 15:41:02 17 C 6.8 g/m*3 17 C 0 km/h
2724 23-08-2008 15:53:01 17.3 C 6.78 g/m*3 17.3 C 0 km/h
2725 23-08-2008 16:05:02 16.6 C 7.2 g/m*3 16.6 C 0 km/h
Sensor: Nr:Datum:Temp:Abs-Feuchte:Windchill:Wind:
Aussen-T/F 2726 23-08-2008 16:17:02 17.4 C 7.41 g/m*3 17.4 C 0 km/h
2727 23-08-2008 16:29:02 18.6 C 7.16 g/m*3 18.6 C 0 km/h
2728 23-08-2008 16:41:02 18.1 C 7.26 g/m*3 18.1 C 0 km/h
2729 23-08-2008 16:53:02 18.5 C 7.91 g/m*3 18.5 C 0 km/h
2730 23-08-2008 17:05:02 19.7 C 7.64 g/m*3 19.7 C 0 km/h
2731 23-08-2008 17:17:02 19.6 C 7.6 g/m*3 19.6 C 0 km/h
2732 23-08-2008 17:29:02 19.7 C 7.64 g/m*3 19.7 C 0 km/h
2733 23-08-2008 17:41:02 19.1 C 7.21 g/m*3 19.1 C 0 km/h
2734 23-08-2008 17:53:02 19.5 C 7.55 g/m*3 19.5 C 0 km/h
2735 23-08-2008 18:05:03 18.9 C 6.97 g/m*3 18.9 C 0 km/h
2736 23-08-2008 18:17:02 18.8 C 7.09 g/m*3 18.8 C 0 km/h
2737 23-08-2008 18:29:02 18.7 C 6.88 g/m*3 18.7 C 0 km/h
2738 23-08-2008 18:41:03 18.6 C 6.84 g/m*3 18.6 C 0 km/h
2739 23-08-2008 18:53:02 18.4 C 6.92 g/m*3 18.4 C 0 km/h
2740 23-08-2008 19:05:02 18.2 C 7.15 g/m*3 18.2 C 0 km/h
2741 23-08-2008 19:17:02 17 C 8.39 g/m*3 17 C 0 km/h
2742 23-08-2008 19:29:03 16.8 C 9.29 g/m*3 16.8 C 0 km/h
2743 23-08-2008 19:41:02 16 C 9.4 g/m*3 16 C 0 km/h
2744 23-08-2008 19:53:02 15.9 C 9.89 g/m*3 15.9 C 0 km/h
2745 23-08-2008 20:05:02 15.8 C 9.69 g/m*3 15.8 C 0 km/h
2746 23-08-2008 20:17:02 16 C 8.58 g/m*3 16 C 0 km/h
2747 23-08-2008 20:29:02 16.3 C 8.19 g/m*3 16.3 C 0 km/h
2748 23-08-2008 20:41:02 15.8 C 8.48 g/m*3 15.8 C 0 km/h
2749 23-08-2008 20:53:01 14.9 C 9.18 g/m*3 14.9 C 0 km/h
2750 23-08-2008 21:05:02 14.5 C 9.58 g/m*3 14.5 C 0 km/h
Sensor: Nr:Datum:Temp:Abs-Feuchte:Windchill:Wind:
Aussen-T/F 2751 23-08-2008 21:17:02 14.2 C 9.89 g/m*3 14.2 C 0 km/h
2752 23-08-2008 21:29:02 14 C 10.01 g/m*3 14 C 0 km/h
2753 23-08-2008 21:41:02 14.2 C 10.14 g/m*3 14.2 C 0 km/h
2754 23-08-2008 21:53:02 14.1 C 9.95 g/m*3 14.1 C 0 km/h
2755 23-08-2008 22:06:01 14.3 C 9.95 g/m*3 14.3 C 0 km/h
2756 23-08-2008 22:18:01 14.4 C 9.77 g/m*3 14.4 C 0 km/h
2757 23-08-2008 22:30:01 14.6 C 9.76 g/m*3 14.6 C 0 km/h
2758 23-08-2008 22:42:01 14.4 C 9.52 g/m*3 14.4 C 0 km/h
2759 23-08-2008 22:54:01 14.1 C 9.47 g/m*3 14.1 C 0 km/h
2760 23-08-2008 23:06:01 14 C 9.41 g/m*3 14 C 0 km/h
2761 23-08-2008 23:18:01 13.9 C 9.47 g/m*3 13.9 C 0 km/h
2762 23-08-2008 23:30:01 13.9 C 9.35 g/m*3 13.9 C 0 km/h
2763 23-08-2008 23:42:01 14.1 C 9.1 g/m*3 14.1 C 0 km/h
2764 23-08-2008 23:54:02 14.2 C 9.16 g/m*3 14.2 C 0 km/h
2765 24-08-2008 00:06:02 13.9 C 9.11 g/m*3 13.9 C 0 km/h
2766 24-08-2008 00:18:02 13.8 C 9.17 g/m*3 13.8 C 0 km/h
2767 24-08-2008 00:30:02 13.6 C 9.06 g/m*3 13.6 C 0 km/h
2768 24-08-2008 00:42:02 13.6 C 9.06 g/m*3 13.6 C 0 km/h
2769 24-08-2008 00:54:02 13.5 C 9.01 g/m*3 13.5 C 0 km/h
2770 24-08-2008 01:06:02 13.5 C 9.01 g/m*3 13.5 C 0 km/h
2771 24-08-2008 01:18:02 13.4 C 8.95 g/m*3 13.4 C 0 km/h
2772 24-08-2008 01:30:02 13.5 C 8.89 g/m*3 13.5 C 0 km/h
2773 24-08-2008 01:42:02 13.2 C 8.84 g/m*3 13.2 C 0 km/h
2774 24-08-2008 01:54:02 12.9 C 8.9 g/m*3 12.9 C 0 km/h
2775 24-08-2008 02:06:02 13 C 8.96 g/m*3 13 C 0 km/h
Sensor: Nr:Datum:Temp:Abs-Feuchte:Windchill:Wind:
Aussen-T/F 2776 24-08-2008 02:18:02 13.1 C 8.9 g/m*3 13.1 C 0 km/h
2777 24-08-2008 02:30:02 12.8 C 8.85 g/m*3 12.8 C 0 km/h
2778 24-08-2008 02:42:02 12.6 C 8.96 g/m*3 12.6 C 0 km/h
2779 24-08-2008 02:54:02 12.5 C 8.91 g/m*3 12.5 C 0 km/h
2780 24-08-2008 03:06:02 12.3 C 8.9 g/m*3 12.3 C 0 km/h
2781 24-08-2008 03:18:02 12.4 C 8.96 g/m*3 12.4 C 0 km/h
2782 24-08-2008 03:30:02 12.5 C 8.91 g/m*3 12.5 C 0 km/h
2783 24-08-2008 03:42:03 12.4 C 8.85 g/m*3 12.4 C 0 km/h
2784 24-08-2008 03:54:03 12.1 C 8.9 g/m*3 12.1 C 0 km/h
2785 24-08-2008 04:06:03 12.1 C 8.79 g/m*3 12.1 C 0 km/h
2786 24-08-2008 04:18:03 12 C 8.85 g/m*3 12 C 0 km/h
2787 24-08-2008 04:30:03 12 C 8.85 g/m*3 12 C 0 km/h
2788 24-08-2008 04:42:03 11.8 C 8.84 g/m*3 11.8 C 0 km/h
2789 24-08-2008 04:54:03 11.7 C 8.79 g/m*3 11.7 C 0 km/h
2790 24-08-2008 05:06:03 11.4 C 8.72 g/m*3 11.4 C 0 km/h
2791 24-08-2008 05:18:03 11.2 C 8.72 g/m*3 11.2 C 0 km/h
2792 24-08-2008 05:30:03 11.2 C 8.82 g/m*3 11.2 C 0 km/h
2793 24-08-2008 05:42:03 11.1 C 8.76 g/m*3 11.1 C 0 km/h
2794 24-08-2008 05:54:03 11.2 C 8.82 g/m*3 11.2 C 0 km/h
2795 24-08-2008 06:06:03 11.2 C 8.82 g/m*3 11.2 C 0 km/h
2796 24-08-2008 06:18:03 11.5 C 8.99 g/m*3 11.5 C 0 km/h
2797 24-08-2008 06:30:03 11.7 C 8.99 g/m*3 11.7 C 0 km/h
2798 24-08-2008 06:42:03 11.8 C 8.95 g/m*3 11.8 C 0 km/h
2799 24-08-2008 06:54:03 11.7 C 8.89 g/m*3 11.7 C 0 km/h
2800 24-08-2008 07:06:03 11.8 C 8.95 g/m*3 11.8 C 0 km/h
Sensor: Nr:Datum:Temp:Abs-Feuchte:Windchill:Wind:
Aussen-T/F 2801 24-08-2008 07:18:03 11.8 C 8.95 g/m*3 11.8 C 0 km/h
2802 24-08-2008 07:30:03 11.6 C 8.83 g/m*3 11.6 C 0 km/h
2803 24-08-2008 07:42:04 11.6 C 8.83 g/m*3 11.6 C 0 km/h
2804 24-08-2008 07:54:04 11.7 C 8.89 g/m*3 11.7 C 0 km/h
2805 24-08-2008 08:06:04 11.6 C 8.94 g/m*3 11.6 C 0 km/h
2806 24-08-2008 08:18:04 11.8 C 9.05 g/m*3 11.8 C 0 km/h
2807 24-08-2008 08:30:04 11.9 C 9 g/m*3 11.9 C 0 km/h
2808 24-08-2008 08:42:04 12.1 C 9.01 g/m*3 12.1 C 0 km/h
2809 24-08-2008 08:54:04 12.3 C 9.12 g/m*3 12.3 C 0 km/h
2810 24-08-2008 09:06:02 12.5 C 9.24 g/m*3 12.5 C 0 km/h
2811 24-08-2008 09:18:02 12.8 C 9.3 g/m*3 12.8 C 0 km/h
2812 24-08-2008 09:30:02 13.5 C 9.36 g/m*3 13.5 C 0 km/h
2813 24-08-2008 09:42:02 14 C 9.17 g/m*3 14 C 0 km/h
2814 24-08-2008 09:54:02 14.2 C 9.28 g/m*3 14.2 C 0 km/h
2815 24-08-2008 10:06:02 15.2 C 9.48 g/m*3 15.2 C 0 km/h
2816 24-08-2008 10:18:02 15.5 C 9.25 g/m*3 15.5 C 0 km/h
2817 24-08-2008 10:30:03 15.8 C 9.29 g/m*3 15.8 C 0 km/h
2818 24-08-2008 10:42:02 16.2 C 8.96 g/m*3 16.2 C 0 km/h
2819 24-08-2008 10:54:02 16.4 C 8.93 g/m*3 16.4 C 0 km/h
2820 24-08-2008 11:06:02 16.6 C 8.9 g/m*3 16.6 C 0 km/h
2821 24-08-2008 11:18:02 17 C 8.68 g/m*3 17 C 0 km/h
2822 24-08-2008 11:30:02 17.4 C 8.6 g/m*3 17.4 C 0 km/h
2823 24-08-2008 11:42:02 18.4 C 8.34 g/m*3 18.4 C 0 km/h
2824 24-08-2008 11:54:02 19.1 C 7.7 g/m*3 19.1 C 0 km/h
2825 24-08-2008 12:06:02 19.1 C 7.38 g/m*3 19.1 C 0 km/h
Sensor: Nr:Datum:Temp:Abs-Feuchte:Windchill:Wind:
Aussen-T/F 2826 24-08-2008 12:18:02 19.2 C 7.59 g/m*3 19.2 C 0 km/h
2827 24-08-2008 12:30:02 19.7 C 7.47 g/m*3 19.7 C 0 km/h
2828 24-08-2008 12:42:02 19.5 C 6.88 g/m*3 19.5 C 0 km/h
2829 24-08-2008 12:54:02 19.6 C 6.92 g/m*3 19.6 C 0 km/h
2830 24-08-2008 13:06:02 19.6 C 6.75 g/m*3 19.6 C 0 km/h
2831 24-08-2008 13:18:01 20.5 C 6.94 g/m*3 20.5 C 0 km/h
2832 24-08-2008 13:30:01 21.1 C 6.82 g/m*3 21.1 C 0 km/h
2833 24-08-2008 13:42:02 21.6 C 6.45 g/m*3 21.6 C 0 km/h
2834 24-08-2008 13:54:02 21.9 C 6.56 g/m*3 21.9 C 0 km/h
2835 24-08-2008 14:06:03 21.3 C 6.34 g/m*3 21.3 C 0 km/h
2836 24-08-2008 14:18:02 21.5 C 6.22 g/m*3 21.5 C 0 km/h
2837 24-08-2008 14:30:02 21.6 C 6.07 g/m*3 21.6 C 0 km/h
2838 24-08-2008 14:42:03 22.5 C 5.99 g/m*3 22.5 C 0 km/h
2839 24-08-2008 14:54:02 22 C 6.02 g/m*3 22 C 0 km/h
2840 24-08-2008 15:06:01 22.1 C 6.05 g/m*3 22.1 C 0 km/h
2841 24-08-2008 15:18:02 22.9 C 6.34 g/m*3 22.9 C 0 km/h
2842 24-08-2008 15:30:03 22.9 C 6.13 g/m*3 22.9 C 0 km/h
2843 24-08-2008 15:42:01 22.7 C 6.26 g/m*3 22.7 C 0 km/h
2844 24-08-2008 15:54:02 22.4 C 5.96 g/m*3 22.4 C 0 km/h
2845 24-08-2008 16:06:02 22.7 C 6.06 g/m*3 22.7 C 0 km/h
2846 24-08-2008 16:18:02 22.7 C 6.26 g/m*3 22.7 C 0 km/h
2847 24-08-2008 16:30:02 22.6 C 6.23 g/m*3 22.6 C 0 km/h
2848 24-08-2008 16:42:02 22.4 C 6.16 g/m*3 22.4 C 0 km/h
2849 24-08-2008 16:54:01 22.7 C 6.06 g/m*3 22.7 C 0 km/h
2850 24-08-2008 17:06:02 22.5 C 5.99 g/m*3 22.5 C 0 km/h
Sensor: Nr:Datum:Temp:Abs-Feuchte:Windchill:Wind:
Aussen-T/F 2851 24-08-2008 17:18:02 22.4 C 6.36 g/m*3 22.4 C 0 km/h
2852 24-08-2008 17:30:02 23.5 C 5.71 g/m*3 23.5 C 0 km/h
2853 24-08-2008 17:42:02 23.4 C 5.89 g/m*3 23.4 C 0 km/h
2854 24-08-2008 17:54:01 22.1 C 6.25 g/m*3 22.1 C 0 km/h
2855 24-08-2008 18:06:01 21.8 C 6.91 g/m*3 21.8 C 0 km/h
2856 24-08-2008 18:18:02 21.9 C 6.95 g/m*3 21.9 C 0 km/h
2857 24-08-2008 18:30:03 21.6 C 7.59 g/m*3 21.6 C 0 km/h
2858 24-08-2008 18:42:01 21.2 C 7.41 g/m*3 21.2 C 0 km/h
2859 24-08-2008 18:54:03 21.1 C 7 g/m*3 21.1 C 0 km/h
2860 24-08-2008 19:06:02 21 C 7.33 g/m*3 21 C 0 km/h
2861 24-08-2008 19:18:03 20.7 C 7.56 g/m*3 20.7 C 0 km/h
2862 24-08-2008 19:30:03 20.3 C 7.74 g/m*3 20.3 C 0 km/h
2863 24-08-2008 19:42:02 19.9 C 7.73 g/m*3 19.9 C 0 km/h
2864 24-08-2008 19:54:01 19.5 C 7.89 g/m*3 19.5 C 0 km/h
2865 24-08-2008 20:06:01 19 C 7.66 g/m*3 19 C 0 km/h
2866 24-08-2008 20:18:01 18.8 C 7.89 g/m*3 18.8 C 0 km/h
2867 24-08-2008 20:30:01 18.6 C 8.12 g/m*3 18.6 C 0 km/h
2868 24-08-2008 20:42:01 18.3 C 8.13 g/m*3 18.3 C 0 km/h
2869 24-08-2008 20:54:01 18.2 C 8.24 g/m*3 18.2 C 0 km/h
2870 24-08-2008 21:06:02 17.9 C 8.24 g/m*3 17.9 C 0 km/h
2871 24-08-2008 21:18:01 17.9 C 8.24 g/m*3 17.9 C 0 km/h
2872 24-08-2008 21:30:01 17.9 C 8.4 g/m*3 17.9 C 0 km/h
2873 24-08-2008 21:42:02 17.9 C 8.09 g/m*3 17.9 C 0 km/h
2874 24-08-2008 21:55:03 17.9 C 8.24 g/m*3 17.9 C 0 km/h
2875 24-08-2008 22:07:03 17.9 C 8.09 g/m*3 17.9 C 0 km/h
Sensor: Nr:Datum:Temp:Abs-Feuchte:Windchill:Wind:
Aussen-T/F 2876 24-08-2008 22:19:03 17.8 C 8.2 g/m*3 17.8 C 0 km/h
2877 24-08-2008 22:31:03 17.3 C 8.54 g/m*3 17.3 C 0 km/h
2878 24-08-2008 22:43:03 16.4 C 9.07 g/m*3 16.4 C 0 km/h
2879 24-08-2008 22:55:03 16.2 C 9.38 g/m*3 16.2 C 0 km/h
2880 24-08-2008 23:07:03 15.9 C 9.89 g/m*3 15.9 C 0 km/h
2881 24-08-2008 23:19:03 15.6 C 10.24 g/m*3 15.6 C 0 km/h
2882 24-08-2008 23:31:03 15.4 C 10.38 g/m*3 15.4 C 0 km/h
2883 24-08-2008 23:43:03 15 C 10.51 g/m*3 15 C 0 km/h
2884 24-08-2008 23:55:03 14.6 C 10.64 g/m*3 14.6 C 0 km/h
2885 25-08-2008 00:07:03 14.5 C 10.7 g/m*3 14.5 C 0 km/h
2886 25-08-2008 00:19:03 14.4 C 10.88 g/m*3 14.4 C 0 km/h
2887 25-08-2008 00:31:03 14.5 C 11.07 g/m*3 14.5 C 0 km/h
2888 25-08-2008 00:43:03 14.5 C 11.07 g/m*3 14.5 C 0 km/h
2889 25-08-2008 00:55:03 14.4 C 11.13 g/m*3 14.4 C 0 km/h
2890 25-08-2008 01:07:03 14.5 C 11.19 g/m*3 14.5 C 0 km/h
2891 25-08-2008 01:19:03 14.4 C 11.13 g/m*3 14.4 C 0 km/h
2892 25-08-2008 01:31:04 14.4 C 11.13 g/m*3 14.4 C 0 km/h
2893 25-08-2008 01:43:04 14.4 C 11.13 g/m*3 14.4 C 0 km/h
2894 25-08-2008 01:55:04 14.5 C 11.19 g/m*3 14.5 C 0 km/h
2895 25-08-2008 02:07:04 14.7 C 11.46 g/m*3 14.7 C 0 km/h
2896 25-08-2008 02:19:04 14.7 C 11.33 g/m*3 14.7 C 0 km/h
2897 25-08-2008 02:31:04 14.6 C 11.26 g/m*3 14.6 C 0 km/h
2898 25-08-2008 02:43:04 14.7 C 11.33 g/m*3 14.7 C 0 km/h
2899 25-08-2008 02:55:04 14.6 C 11.26 g/m*3 14.6 C 0 km/h
2900 25-08-2008 03:07:04 14.5 C 11.19 g/m*3 14.5 C 0 km/h
Sensor: Nr:Datum:Temp:Abs-Feuchte:Windchill:Wind:
Aussen-T/F 2901 25-08-2008 03:19:04 14.5 C 11.07 g/m*3 14.5 C 0 km/h
2902 25-08-2008 03:31:04 14.4 C 11 g/m*3 14.4 C 0 km/h
2903 25-08-2008 03:43:04 14.4 C 11 g/m*3 14.4 C 0 km/h
2904 25-08-2008 03:55:04 14.4 C 11.13 g/m*3 14.4 C 0 km/h
2905 25-08-2008 04:07:04 14.4 C 11.13 g/m*3 14.4 C 0 km/h
2906 25-08-2008 04:19:04 14.3 C 10.93 g/m*3 14.3 C 0 km/h
2907 25-08-2008 04:31:04 14.3 C 11.06 g/m*3 14.3 C 0 km/h
2908 25-08-2008 04:43:04 14.3 C 11.06 g/m*3 14.3 C 0 km/h
2909 25-08-2008 04:55:04 14.2 C 10.99 g/m*3 14.2 C 0 km/h
2910 25-08-2008 05:07:04 14.2 C 10.99 g/m*3 14.2 C 0 km/h
2911 25-08-2008 05:19:04 14.2 C 11.11 g/m*3 14.2 C 0 km/h
2912 25-08-2008 05:31:05 14.2 C 11.11 g/m*3 14.2 C 0 km/h
2913 25-08-2008 05:43:05 14.3 C 11.18 g/m*3 14.3 C 0 km/h
2914 25-08-2008 05:55:05 14.2 C 11.11 g/m*3 14.2 C 0 km/h
2915 25-08-2008 06:07:05 14.3 C 11.06 g/m*3 14.3 C 0 km/h
2916 25-08-2008 06:19:05 14.4 C 11 g/m*3 14.4 C 0 km/h
2917 25-08-2008 06:31:05 14.5 C 10.94 g/m*3 14.5 C 0 km/h
2918 25-08-2008 06:43:05 14.6 C 10.89 g/m*3 14.6 C 0 km/h
2919 25-08-2008 06:55:05 14.6 C 10.89 g/m*3 14.6 C 0 km/h
2920 25-08-2008 07:07:05 14.7 C 10.95 g/m*3 14.7 C 0 km/h
2921 25-08-2008 07:19:05 14.8 C 11.02 g/m*3 14.8 C 0 km/h
2922 25-08-2008 07:31:03 14.7 C 11.08 g/m*3 14.7 C 0 km/h
2923 25-08-2008 07:43:03 14.7 C 11.08 g/m*3 14.7 C 0 km/h
2924 25-08-2008 07:55:02 14.7 C 11.08 g/m*3 14.7 C 0 km/h
2925 25-08-2008 08:07:01 14.8 C 11.15 g/m*3 14.8 C 0 km/h
Sensor: Nr:Datum:Temp:Abs-Feuchte:Windchill:Wind:
Aussen-T/F 2926 25-08-2008 08:19:01 14.8 C 11.15 g/m*3 14.8 C 0 km/h
2927 25-08-2008 08:31:02 14.9 C 11.09 g/m*3 14.9 C 0 km/h
2928 25-08-2008 08:43:02 15.1 C 11.22 g/m*3 15.1 C 0 km/h
2929 25-08-2008 08:55:02 15.2 C 11.29 g/m*3 15.2 C 0 km/h
2930 25-08-2008 09:07:02 15.5 C 11.5 g/m*3 15.5 C 0 km/h
2931 25-08-2008 09:19:03 15.6 C 11.44 g/m*3 15.6 C 0 km/h
2932 25-08-2008 09:31:02 15.6 C 11.57 g/m*3 15.6 C 0 km/h
2933 25-08-2008 09:43:02 15.9 C 11.78 g/m*3 15.9 C 0 km/h
2934 25-08-2008 09:55:02 16 C 11.58 g/m*3 16 C 0 km/h
2935 25-08-2008 10:07:01 16.5 C 11.8 g/m*3 16.5 C 0 km/h
2936 25-08-2008 10:19:02 16.8 C 11.87 g/m*3 16.8 C 0 km/h
2937 25-08-2008 10:31:01 17 C 11.87 g/m*3 17 C 0 km/h
2938 25-08-2008 10:43:01 17 C 11.58 g/m*3 17 C 0 km/h
2939 25-08-2008 10:55:02 17.1 C 11.35 g/m*3 17.1 C 0 km/h
2940 25-08-2008 11:07:01 17.2 C 11.42 g/m*3 17.2 C 0 km/h
2941 25-08-2008 11:19:02 17.5 C 11.48 g/m*3 17.5 C 0 km/h
2942 25-08-2008 11:31:01 17.7 C 11.47 g/m*3 17.7 C 0 km/h
2943 25-08-2008 11:43:01 17.9 C 11.45 g/m*3 17.9 C 0 km/h
2944 25-08-2008 11:55:02 18.7 C 11.37 g/m*3 18.7 C 0 km/h
2945 25-08-2008 12:07:02 18.9 C 11.18 g/m*3 18.9 C 0 km/h
2946 25-08-2008 12:19:02 19.5 C 10.74 g/m*3 19.5 C 0 km/h
2947 25-08-2008 12:31:02 19.6 C 10.8 g/m*3 19.6 C 0 km/h
2948 25-08-2008 12:43:02 20 C 10.71 g/m*3 20 C 0 km/h
2949 25-08-2008 12:55:02 20.5 C 10.5 g/m*3 20.5 C 0 km/h
2950 25-08-2008 13:07:03 20 C 10.37 g/m*3 20 C 0 km/h
Sensor: Nr:Datum:Temp:Abs-Feuchte:Windchill:Wind:
Aussen-T/F 2951 25-08-2008 13:19:02 19.4 C 10.34 g/m*3 19.4 C 0 km/h
2952 25-08-2008 13:31:03 20 C 10.54 g/m*3 20 C 0 km/h
2953 25-08-2008 13:43:03 20.5 C 10.32 g/m*3 20.5 C 0 km/h
2954 25-08-2008 13:55:02 19.7 C 10.36 g/m*3 19.7 C 0 km/h
2955 25-08-2008 14:07:01 20 C 10.37 g/m*3 20 C 0 km/h
2956 25-08-2008 14:19:02 20.5 C 10.32 g/m*3 20.5 C 0 km/h
2957 25-08-2008 14:31:01 20.8 C 10.32 g/m*3 20.8 C 0 km/h
2958 25-08-2008 14:43:01 20.9 C 10.2 g/m*3 20.9 C 0 km/h
2959 25-08-2008 14:55:02 21.2 C 10.01 g/m*3 21.2 C 0 km/h
2960 25-08-2008 15:07:01 20.4 C 10.26 g/m*3 20.4 C 0 km/h
2961 25-08-2008 15:19:02 20.7 C 10.62 g/m*3 20.7 C 0 km/h
2962 25-08-2008 15:31:01 21.4 C 10.31 g/m*3 21.4 C 0 km/h
2963 25-08-2008 15:43:01 21.4 C 10.31 g/m*3 21.4 C 0 km/h
2964 25-08-2008 15:55:02 22.2 C 9.82 g/m*3 22.2 C 0 km/h
2965 25-08-2008 16:07:01 22.4 C 9.93 g/m*3 22.4 C 0 km/h
2966 25-08-2008 16:19:02 22.4 C 10.13 g/m*3 22.4 C 0 km/h
2967 25-08-2008 16:31:01 22.5 C 9.79 g/m*3 22.5 C 0 km/h
2968 25-08-2008 16:43:01 22.4 C 10.13 g/m*3 22.4 C 0 km/h
2969 25-08-2008 16:55:01 23.5 C 9.73 g/m*3 23.5 C 0 km/h
2970 25-08-2008 17:07:02 23.8 C 9.9 g/m*3 23.8 C 0 km/h
2971 25-08-2008 17:19:01 23.9 C 9.74 g/m*3 23.9 C 0 km/h
2972 25-08-2008 17:31:02 23.8 C 9.68 g/m*3 23.8 C 0 km/h
2973 25-08-2008 17:43:02 22.6 C 9.84 g/m*3 22.6 C 0 km/h
2974 25-08-2008 17:55:02 21.9 C 10.03 g/m*3 21.9 C 0 km/h
2975 25-08-2008 18:07:02 21.9 C 10.23 g/m*3 21.9 C 0 km/h
Sensor: Nr:Datum:Temp:Abs-Feuchte:Windchill:Wind:
Aussen-T/F 2976 25-08-2008 18:19:02 21.4 C 10.12 g/m*3 21.4 C 0 km/h
2977 25-08-2008 18:31:02 21 C 10.08 g/m*3 21 C 0 km/h
2978 25-08-2008 18:43:02 21 C 10.62 g/m*3 21 C 0 km/h
2979 25-08-2008 18:55:02 20.9 C 10.75 g/m*3 20.9 C 0 km/h
2980 25-08-2008 19:07:03 20.9 C 10.75 g/m*3 20.9 C 0 km/h
2981 25-08-2008 19:19:02 20.5 C 10.85 g/m*3 20.5 C 0 km/h
2982 25-08-2008 19:31:03 20.3 C 10.9 g/m*3 20.3 C 0 km/h
2983 25-08-2008 19:43:03 21 C 10.62 g/m*3 21 C 0 km/h
2984 25-08-2008 19:55:02 20.9 C 9.29 g/m*3 20.9 C 0 km/h
2985 25-08-2008 20:07:02 20 C 9.33 g/m*3 20 C 0 km/h
2986 25-08-2008 20:19:02 19.3 C 9.79 g/m*3 19.3 C 0 km/h
2987 25-08-2008 20:31:01 18.8 C 9.82 g/m*3 18.8 C 0 km/h
2988 25-08-2008 20:43:01 18.3 C 9.85 g/m*3 18.3 C 0 km/h
2989 25-08-2008 20:55:02 17.9 C 9.92 g/m*3 17.9 C 0 km/h
2990 25-08-2008 21:07:02 17.6 C 10.05 g/m*3 17.6 C 0 km/h
2991 25-08-2008 21:19:02 17.4 C 9.93 g/m*3 17.4 C 0 km/h
2992 25-08-2008 21:31:01 17.2 C 9.96 g/m*3 17.2 C 0 km/h
2993 25-08-2008 21:43:01 17 C 9.98 g/m*3 17 C 0 km/h
2994 25-08-2008 21:56:02 17 C 9.98 g/m*3 17 C 0 km/h
2995 25-08-2008 22:08:02 16.8 C 10.01 g/m*3 16.8 C 0 km/h
2996 25-08-2008 22:20:02 16.6 C 9.89 g/m*3 16.6 C 0 km/h
2997 25-08-2008 22:32:02 16.6 C 9.75 g/m*3 16.6 C 0 km/h
2998 25-08-2008 22:44:02 16.3 C 9.71 g/m*3 16.3 C 0 km/h
2999 25-08-2008 22:56:02 16.1 C 9.73 g/m*3 16.1 C 0 km/h
3000 25-08-2008 23:08:02 15.8 C 9.83 g/m*3 15.8 C 0 km/h
Sensor: Nr:Datum:Temp:Abs-Feuchte:Windchill:Wind:
Aussen-T/F 3001 25-08-2008 23:20:02 15.7 C 9.9 g/m*3 15.7 C 0 km/h
3002 25-08-2008 23:32:02 15.5 C 9.91 g/m*3 15.5 C 0 km/h
3003 25-08-2008 23:44:02 15.3 C 9.92 g/m*3 15.3 C 0 km/h
3004 25-08-2008 23:56:02 15.1 C 10.06 g/m*3 15.1 C 0 km/h
3005 26-08-2008 00:08:02 14.9 C 10.2 g/m*3 14.9 C 0 km/h
3006 26-08-2008 00:20:02 14.7 C 10.2 g/m*3 14.7 C 0 km/h
3007 26-08-2008 00:32:03 14.5 C 10.07 g/m*3 14.5 C 0 km/h
3008 26-08-2008 00:44:03 14.4 C 10.14 g/m*3 14.4 C 0 km/h
3009 26-08-2008 00:56:03 14.3 C 10.07 g/m*3 14.3 C 0 km/h
3010 26-08-2008 01:08:03 14.2 C 10.01 g/m*3 14.2 C 0 km/h
3011 26-08-2008 01:20:03 14.1 C 9.95 g/m*3 14.1 C 0 km/h
3012 26-08-2008 01:32:03 13.9 C 9.95 g/m*3 13.9 C 0 km/h
3013 26-08-2008 01:44:03 13.8 C 9.89 g/m*3 13.8 C 0 km/h
3014 26-08-2008 01:56:03 13.7 C 9.83 g/m*3 13.7 C 0 km/h
3015 26-08-2008 02:08:03 13.6 C 9.77 g/m*3 13.6 C 0 km/h
3016 26-08-2008 02:20:03 13.8 C 10.01 g/m*3 13.8 C 0 km/h
3017 26-08-2008 02:32:03 13.9 C 10.07 g/m*3 13.9 C 0 km/h
3018 26-08-2008 02:44:03 14.1 C 10.07 g/m*3 14.1 C 0 km/h
3019 26-08-2008 02:56:03 14.2 C 10.01 g/m*3 14.2 C 0 km/h
3020 26-08-2008 03:08:03 14.2 C 10.01 g/m*3 14.2 C 0 km/h
3021 26-08-2008 03:20:03 14.2 C 10.01 g/m*3 14.2 C 0 km/h
3022 26-08-2008 03:32:03 14 C 9.77 g/m*3 14 C 0 km/h
3023 26-08-2008 03:44:03 14 C 9.77 g/m*3 14 C 0 km/h
3024 26-08-2008 03:56:03 14 C 9.77 g/m*3 14 C 0 km/h
3025 26-08-2008 04:08:03 14.1 C 9.95 g/m*3 14.1 C 0 km/h
Sensor: Nr:Datum:Temp:Abs-Feuchte:Windchill:Wind:
Aussen-T/F 3026 26-08-2008 04:20:03 14.1 C 9.83 g/m*3 14.1 C 0 km/h
3027 26-08-2008 04:32:04 14.1 C 9.95 g/m*3 14.1 C 0 km/h
3028 26-08-2008 04:44:04 14.3 C 10.07 g/m*3 14.3 C 0 km/h
3029 26-08-2008 04:56:04 14.4 C 10.01 g/m*3 14.4 C 0 km/h
3030 26-08-2008 05:08:04 14.5 C 10.07 g/m*3 14.5 C 0 km/h
3031 26-08-2008 05:20:04 14.6 C 10.14 g/m*3 14.6 C 0 km/h
3032 26-08-2008 05:32:04 14.6 C 10.01 g/m*3 14.6 C 0 km/h
3033 26-08-2008 05:44:04 14.6 C 10.14 g/m*3 14.6 C 0 km/h
3034 26-08-2008 05:56:04 14.7 C 9.95 g/m*3 14.7 C 0 km/h
3035 26-08-2008 06:08:04 14.7 C 9.95 g/m*3 14.7 C 0 km/h
3036 26-08-2008 06:20:04 14.7 C 9.82 g/m*3 14.7 C 0 km/h
3037 26-08-2008 06:32:04 15 C 9.87 g/m*3 15 C 0 km/h
3038 26-08-2008 06:44:04 14.7 C 9.82 g/m*3 14.7 C 0 km/h
3039 26-08-2008 06:56:02 14.8 C 9.75 g/m*3 14.8 C 0 km/h
3040 26-08-2008 07:08:02 14.9 C 9.81 g/m*3 14.9 C 0 km/h
3041 26-08-2008 07:20:02 15 C 9.62 g/m*3 15 C 0 km/h
3042 26-08-2008 07:32:02 15.2 C 9.73 g/m*3 15.2 C 0 km/h
3043 26-08-2008 07:44:02 15.3 C 9.79 g/m*3 15.3 C 0 km/h
3044 26-08-2008 07:56:01 15.4 C 9.72 g/m*3 15.4 C 0 km/h
3045 26-08-2008 08:08:02 15.6 C 9.84 g/m*3 15.6 C 0 km/h
3046 26-08-2008 08:20:01 15.6 C 9.71 g/m*3 15.6 C 0 km/h
3047 26-08-2008 08:32:02 15.8 C 9.83 g/m*3 15.8 C 0 km/h
3048 26-08-2008 08:44:02 15.9 C 9.75 g/m*3 15.9 C 0 km/h
3049 26-08-2008 08:56:02 16.2 C 9.79 g/m*3 16.2 C 0 km/h
3050 26-08-2008 09:08:02 16.4 C 9.77 g/m*3 16.4 C 0 km/h
Sensor: Nr:Datum:Temp:Abs-Feuchte:Windchill:Wind:
Aussen-T/F 3051 26-08-2008 09:20:02 16.7 C 9.66 g/m*3 16.7 C 0 km/h
3052 26-08-2008 09:32:01 16.8 C 9.72 g/m*3 16.8 C 0 km/h
3053 26-08-2008 09:44:01 17 C 9.55 g/m*3 17 C 0 km/h
3054 26-08-2008 09:56:01 17.2 C 9.52 g/m*3 17.2 C 0 km/h
3055 26-08-2008 10:08:02 17.5 C 9.54 g/m*3 17.5 C 0 km/h
3056 26-08-2008 10:20:02 17.7 C 9.66 g/m*3 17.7 C 0 km/h
3057 26-08-2008 10:32:02 18.2 C 9.48 g/m*3 18.2 C 0 km/h
3058 26-08-2008 10:44:02 18.6 C 9.39 g/m*3 18.6 C 0 km/h
3059 26-08-2008 10:56:01 19.1 C 9.51 g/m*3 19.1 C 0 km/h
3060 26-08-2008 11:08:02 19.7 C 9.51 g/m*3 19.7 C 0 km/h
3061 26-08-2008 11:20:01 20.1 C 9.21 g/m*3 20.1 C 0 km/h
3062 26-08-2008 11:32:02 20.6 C 9.31 g/m*3 20.6 C 0 km/h
3063 26-08-2008 11:44:02 21 C 8.98 g/m*3 21 C 0 km/h
3064 26-08-2008 11:56:02 21.4 C 9.19 g/m*3 21.4 C 0 km/h
3065 26-08-2008 12:08:02 22.2 C 9.03 g/m*3 22.2 C 0 km/h
3066 26-08-2008 12:20:02 22.5 C 8.79 g/m*3 22.5 C 0 km/h
3067 26-08-2008 12:32:02 22.9 C 8.79 g/m*3 22.9 C 0 km/h
3068 26-08-2008 12:44:02 22.9 C 8.79 g/m*3 22.9 C 0 km/h
3069 26-08-2008 12:56:02 22.9 C 8.99 g/m*3 22.9 C 0 km/h
3070 26-08-2008 13:08:02 22.7 C 9.09 g/m*3 22.7 C 0 km/h
3071 26-08-2008 13:20:01 23.1 C 9.3 g/m*3 23.1 C 0 km/h
3072 26-08-2008 13:32:02 23.6 C 9.15 g/m*3 23.6 C 0 km/h
3073 26-08-2008 13:44:02 24.3 C 8.85 g/m*3 24.3 C 0 km/h
3074 26-08-2008 13:56:02 23.9 C 9.09 g/m*3 23.9 C 0 km/h
3075 26-08-2008 14:08:02 23.4 C 8.83 g/m*3 23.4 C 0 km/h
Sensor: Nr:Datum:Temp:Abs-Feuchte:Windchill:Wind:
Aussen-T/F 3076 26-08-2008 14:20:02 23.8 C 8.82 g/m*3 23.8 C 0 km/h
3077 26-08-2008 14:32:02 23.6 C 8.93 g/m*3 23.6 C 0 km/h
3078 26-08-2008 14:44:02 23.6 C 9.15 g/m*3 23.6 C 0 km/h
3079 26-08-2008 14:56:02 24.5 C 8.95 g/m*3 24.5 C 0 km/h
3080 26-08-2008 15:08:02 24.8 C 8.88 g/m*3 24.8 C 0 km/h
3081 26-08-2008 15:20:02 24.6 C 8.78 g/m*3 24.6 C 0 km/h
3082 26-08-2008 15:32:02 24.9 C 8.93 g/m*3 24.9 C 0 km/h
3083 26-08-2008 15:44:02 24.6 C 8.78 g/m*3 24.6 C 0 km/h
3084 26-08-2008 15:56:02 25.2 C 8.61 g/m*3 25.2 C 0 km/h
3085 26-08-2008 16:08:02 25.4 C 8.71 g/m*3 25.4 C 0 km/h
3086 26-08-2008 16:20:02 25.9 C 8.72 g/m*3 25.9 C 0 km/h
3087 26-08-2008 16:32:02 25.7 C 8.62 g/m*3 25.7 C 0 km/h
3088 26-08-2008 16:44:02 26 C 8.76 g/m*3 26 C 0 km/h
3089 26-08-2008 16:56:02 25.9 C 8.72 g/m*3 25.9 C 0 km/h
3090 26-08-2008 17:08:02 26 C 8.28 g/m*3 26 C 0 km/h
3091 26-08-2008 17:20:01 26.3 C 8.42 g/m*3 26.3 C 0 km/h
3092 26-08-2008 17:32:02 25.8 C 8.67 g/m*3 25.8 C 0 km/h
3093 26-08-2008 17:44:02 27.3 C 8.63 g/m*3 27.3 C 0 km/h
3094 26-08-2008 17:56:02 26.4 C 8.46 g/m*3 26.4 C 0 km/h
3095 26-08-2008 18:08:02 26.8 C 8.91 g/m*3 26.8 C 0 km/h
3096 26-08-2008 18:20:02 25.8 C 8.91 g/m*3 25.8 C 0 km/h
3097 26-08-2008 18:32:02 26 C 8.76 g/m*3 26 C 0 km/h
3098 26-08-2008 18:44:02 25.7 C 8.86 g/m*3 25.7 C 0 km/h
3099 26-08-2008 18:56:02 24.9 C 9.16 g/m*3 24.9 C 0 km/h
3100 26-08-2008 19:08:02 24.6 C 9.23 g/m*3 24.6 C 0 km/h
Sensor: Nr:Datum:Temp:Abs-Feuchte:Windchill:Wind:
Aussen-T/F 3101 26-08-2008 19:20:02 24.3 C 9.52 g/m*3 24.3 C 0 km/h
3102 26-08-2008 19:32:02 23.8 C 9.68 g/m*3 23.8 C 0 km/h
3103 26-08-2008 19:44:02 23.8 C 9.68 g/m*3 23.8 C 0 km/h
3104 26-08-2008 19:56:03 23.7 C 9.63 g/m*3 23.7 C 0 km/h
3105 26-08-2008 20:08:02 23.2 C 9.56 g/m*3 23.2 C 0 km/h
3106 26-08-2008 20:20:02 22.6 C 9.84 g/m*3 22.6 C 0 km/h
3107 26-08-2008 20:32:02 22 C 9.9 g/m*3 22 C 0 km/h
3108 26-08-2008 20:44:02 21.4 C 10.31 g/m*3 21.4 C 0 km/h
3109 26-08-2008 20:56:02 21 C 10.26 g/m*3 21 C 0 km/h
3110 26-08-2008 21:08:02 20.8 C 10.32 g/m*3 20.8 C 0 km/h
3111 26-08-2008 21:20:02 20.7 C 10.44 g/m*3 20.7 C 0 km/h
3112 26-08-2008 21:32:02 20.6 C 10.56 g/m*3 20.6 C 0 km/h
3113 26-08-2008 21:44:02 20.3 C 10.55 g/m*3 20.3 C 0 km/h
3114 26-08-2008 21:57:03 19.9 C 10.65 g/m*3 19.9 C 0 km/h
3115 26-08-2008 22:09:03 19.4 C 10.68 g/m*3 19.4 C 0 km/h
3116 26-08-2008 22:21:03 18.9 C 11.02 g/m*3 18.9 C 0 km/h
3117 26-08-2008 22:33:03 18.8 C 11.11 g/m*3 18.8 C 0 km/h
3118 26-08-2008 22:45:03 18.6 C 11.14 g/m*3 18.6 C 0 km/h
3119 26-08-2008 22:57:03 18.4 C 11.01 g/m*3 18.4 C 0 km/h
3120 26-08-2008 23:09:03 18.2 C 11.04 g/m*3 18.2 C 0 km/h
3121 26-08-2008 23:21:03 17.8 C 11.08 g/m*3 17.8 C 0 km/h
3122 26-08-2008 23:33:03 17.7 C 11.16 g/m*3 17.7 C 0 km/h
3123 26-08-2008 23:45:03 17.6 C 11.4 g/m*3 17.6 C 0 km/h
3124 26-08-2008 23:57:03 17.4 C 11.26 g/m*3 17.4 C 0 km/h
3125 27-08-2008 00:09:03 17.2 C 11.28 g/m*3 17.2 C 0 km/h
Sensor: Nr:Datum:Temp:Abs-Feuchte:Windchill:Wind:
Aussen-T/F 3126 27-08-2008 00:21:03 17 C 11.29 g/m*3 17 C 0 km/h
3127 27-08-2008 00:33:03 16.8 C 11.29 g/m*3 16.8 C 0 km/h
3128 27-08-2008 00:45:03 16.5 C 11.23 g/m*3 16.5 C 0 km/h
3129 27-08-2008 00:57:04 16.5 C 11.23 g/m*3 16.5 C 0 km/h
3130 27-08-2008 01:09:04 16.2 C 11.17 g/m*3 16.2 C 0 km/h
3131 27-08-2008 01:21:04 16.1 C 11.1 g/m*3 16.1 C 0 km/h
3132 27-08-2008 01:33:04 16 C 11.17 g/m*3 16 C 0 km/h
3133 27-08-2008 01:45:04 16.1 C 11.24 g/m*3 16.1 C 0 km/h
3134 27-08-2008 01:57:04 15.9 C 11.24 g/m*3 15.9 C 0 km/h
3135 27-08-2008 02:09:04 15.8 C 11.17 g/m*3 15.8 C 0 km/h
3136 27-08-2008 02:21:04 15.6 C 11.04 g/m*3 15.6 C 0 km/h
3137 27-08-2008 02:33:04 15.6 C 11.17 g/m*3 15.6 C 0 km/h
3138 27-08-2008 02:45:04 15.7 C 11.24 g/m*3 15.7 C 0 km/h
3139 27-08-2008 02:57:04 15.7 C 11.24 g/m*3 15.7 C 0 km/h
3140 27-08-2008 03:09:04 15.8 C 11.17 g/m*3 15.8 C 0 km/h
3141 27-08-2008 03:21:04 15.8 C 11.17 g/m*3 15.8 C 0 km/h
3142 27-08-2008 03:33:04 15.8 C 11.17 g/m*3 15.8 C 0 km/h
3143 27-08-2008 03:45:04 15.7 C 11.11 g/m*3 15.7 C 0 km/h
3144 27-08-2008 03:57:04 15.6 C 11.04 g/m*3 15.6 C 0 km/h
3145 27-08-2008 04:09:04 15.6 C 11.04 g/m*3 15.6 C 0 km/h
3146 27-08-2008 04:21:04 15.5 C 10.97 g/m*3 15.5 C 0 km/h
3147 27-08-2008 04:33:04 15.4 C 10.9 g/m*3 15.4 C 0 km/h
3148 27-08-2008 04:45:04 15.3 C 10.84 g/m*3 15.3 C 0 km/h
3149 27-08-2008 04:57:04 15 C 10.64 g/m*3 15 C 0 km/h
3150 27-08-2008 05:09:05 14.7 C 10.7 g/m*3 14.7 C 0 km/h
Sensor: Nr:Datum:Temp:Abs-Feuchte:Windchill:Wind:
Aussen-T/F 3151 27-08-2008 05:21:05 14.5 C 10.7 g/m*3 14.5 C 0 km/h
3152 27-08-2008 05:33:05 14.3 C 10.57 g/m*3 14.3 C 0 km/h
3153 27-08-2008 05:45:05 14.2 C 10.62 g/m*3 14.2 C 0 km/h
3154 27-08-2008 05:57:05 14 C 10.49 g/m*3 14 C 0 km/h
3155 27-08-2008 06:09:05 14 C 10.61 g/m*3 14 C 0 km/h
3156 27-08-2008 06:21:05 14.2 C 10.87 g/m*3 14.2 C 0 km/h
3157 27-08-2008 06:33:05 14.2 C 10.75 g/m*3 14.2 C 0 km/h
3158 27-08-2008 06:45:05 14.2 C 10.75 g/m*3 14.2 C 0 km/h
3159 27-08-2008 06:57:05 14.2 C 10.75 g/m*3 14.2 C 0 km/h
3160 27-08-2008 07:09:02 14.2 C 10.75 g/m*3 14.2 C 0 km/h
3161 27-08-2008 07:21:02 14.3 C 10.81 g/m*3 14.3 C 0 km/h
3162 27-08-2008 07:33:02 14.4 C 10.88 g/m*3 14.4 C 0 km/h
3163 27-08-2008 07:45:03 14.5 C 10.82 g/m*3 14.5 C 0 km/h
3164 27-08-2008 07:57:03 14.7 C 10.83 g/m*3 14.7 C 0 km/h
3165 27-08-2008 08:09:02 14.8 C 10.77 g/m*3 14.8 C 0 km/h
3166 27-08-2008 08:21:03 14.8 C 10.64 g/m*3 14.8 C 0 km/h
3167 27-08-2008 08:33:02 14.7 C 10.45 g/m*3 14.7 C 0 km/h
3168 27-08-2008 08:45:02 15 C 10.64 g/m*3 15 C 0 km/h
3169 27-08-2008 08:57:02 15.1 C 10.45 g/m*3 15.1 C 0 km/h
3170 27-08-2008 09:09:02 15.5 C 10.71 g/m*3 15.5 C 0 km/h
3171 27-08-2008 09:21:03 15.8 C 10.63 g/m*3 15.8 C 0 km/h
3172 27-08-2008 09:33:03 16.3 C 10.82 g/m*3 16.3 C 0 km/h
3173 27-08-2008 09:45:02 16.8 C 10.87 g/m*3 16.8 C 0 km/h
3174 27-08-2008 09:57:02 17.1 C 10.63 g/m*3 17.1 C 0 km/h
3175 27-08-2008 10:09:01 17.3 C 10.75 g/m*3 17.3 C 0 km/h
Sensor: Nr:Datum:Temp:Abs-Feuchte:Windchill:Wind:
Aussen-T/F 3176 27-08-2008 10:21:02 17.7 C 10.86 g/m*3 17.7 C 0 km/h
3177 27-08-2008 10:33:02 18 C 10.75 g/m*3 18 C 0 km/h
3178 27-08-2008 10:45:02 18.3 C 10.94 g/m*3 18.3 C 0 km/h
3179 27-08-2008 10:57:02 19.3 C 10.62 g/m*3 19.3 C 0 km/h
3180 27-08-2008 11:09:01 19.9 C 9.97 g/m*3 19.9 C 0 km/h
3181 27-08-2008 11:21:02 20.3 C 9.85 g/m*3 20.3 C 0 km/h
3182 27-08-2008 11:33:01 20.7 C 9.54 g/m*3 20.7 C 0 km/h
3183 27-08-2008 11:45:02 21 C 9.34 g/m*3 21 C 0 km/h
3184 27-08-2008 11:57:02 21 C 9.53 g/m*3 21 C 0 km/h
3185 27-08-2008 12:09:01 21.5 C 9.43 g/m*3 21.5 C 0 km/h
3186 27-08-2008 12:21:02 21.5 C 9.43 g/m*3 21.5 C 0 km/h
3187 27-08-2008 12:33:01 21.9 C 9.46 g/m*3 21.9 C 0 km/h
3188 27-08-2008 12:45:01 22 C 9.32 g/m*3 22 C 0 km/h
3189 27-08-2008 12:57:01 22.3 C 9.28 g/m*3 22.3 C 0 km/h
3190 27-08-2008 13:09:01 22.7 C 9.5 g/m*3 22.7 C 0 km/h
3191 27-08-2008 13:21:01 23.1 C 9.1 g/m*3 23.1 C 0 km/h
3192 27-08-2008 13:33:01 23.7 C 9.41 g/m*3 23.7 C 0 km/h
3193 27-08-2008 13:45:01 23.6 C 9.36 g/m*3 23.6 C 0 km/h
3194 27-08-2008 13:57:01 24 C 8.92 g/m*3 24 C 0 km/h
3195 27-08-2008 14:09:02 24.6 C 9 g/m*3 24.6 C 0 km/h
3196 27-08-2008 14:21:01 24.6 C 8.78 g/m*3 24.6 C 0 km/h
3197 27-08-2008 14:33:02 25.6 C 9.28 g/m*3 25.6 C 0 km/h
3198 27-08-2008 14:45:02 25.8 C 8.91 g/m*3 25.8 C 0 km/h
3199 27-08-2008 14:57:02 26.3 C 8.66 g/m*3 26.3 C 0 km/h
3200 27-08-2008 15:09:02 26.5 C 8.76 g/m*3 26.5 C 0 km/h
Sensor: Nr:Datum:Temp:Abs-Feuchte:Windchill:Wind:
Aussen-T/F 3201 27-08-2008 15:21:02 26.6 C 8.81 g/m*3 26.6 C 0 km/h
3202 27-08-2008 15:33:02 27 C 8.49 g/m*3 27 C 0 km/h
3203 27-08-2008 15:45:02 27.4 C 8.95 g/m*3 27.4 C 0 km/h
3204 27-08-2008 15:57:02 28.1 C 8.75 g/m*3 28.1 C 0 km/h
3205 27-08-2008 16:09:03 28.5 C 8.66 g/m*3 28.5 C 0 km/h
3206 27-08-2008 16:21:02 28.9 C 8.86 g/m*3 28.9 C 0 km/h
3207 27-08-2008 16:33:03 29 C 8.62 g/m*3 29 C 0 km/h
3208 27-08-2008 16:45:02 29 C 8.33 g/m*3 29 C 0 km/h
3209 27-08-2008 16:57:02 28.8 C 8.52 g/m*3 28.8 C 0 km/h
3210 27-08-2008 17:09:01 28.5 C 8.66 g/m*3 28.5 C 0 km/h
3211 27-08-2008 17:21:02 27.8 C 8.34 g/m*3 27.8 C 0 km/h
3212 27-08-2008 17:33:02 27.3 C 8.63 g/m*3 27.3 C 0 km/h
3213 27-08-2008 17:45:02 26.8 C 9.16 g/m*3 26.8 C 0 km/h
3214 27-08-2008 17:57:02 26.6 C 9.31 g/m*3 26.6 C 0 km/h
3215 27-08-2008 18:09:01 26.7 C 8.86 g/m*3 26.7 C 0 km/h
3216 27-08-2008 18:21:02 26.4 C 9.21 g/m*3 26.4 C 0 km/h
3217 27-08-2008 18:33:01 26.5 C 9.26 g/m*3 26.5 C 0 km/h
3218 27-08-2008 18:45:03 25.9 C 9.44 g/m*3 25.9 C 0 km/h
3219 27-08-2008 18:57:03 25 C 9.44 g/m*3 25 C 0 km/h
3220 27-08-2008 19:09:02 24.3 C 9.52 g/m*3 24.3 C 0 km/h
3221 27-08-2008 19:21:03 23.5 C 9.73 g/m*3 23.5 C 0 km/h
3222 27-08-2008 19:33:02 23.3 C 9.62 g/m*3 23.3 C 0 km/h
3223 27-08-2008 19:45:02 </